<?xml version="1.0" encoding="UTF-8" standalone="no" ?>
<gpx xmlns="http://www.topografix.com/GPX/1/1" xmlns:xsi="http://www.w3.org/2001/XMLSchema-instance" xsi:schemaLocation="http://www.topografix.com/GPX/1/1 http://www.topografix.com/GPX/1/1/gpx.xsd" version="1.1" creator="VisuGPX - https://www.visugpx.com">
  <metadata>
    <name>F04260 lac d'Allos Garrets</name>
    <desc><![CDATA[File with points/tracks from Locus Map Pro/3.53.1]]></desc>
  </metadata>
  <trk>
    <name><![CDATA[F04260 lac d'Allos Garrets]]></name>
    <extensions>
      <line xmlns="http://www.topografix.com/GPX/gpx_style/0/2">
        <color>FF0000</color>
        <opacity>0.78</opacity>
        <width>3.0</width>
      </line>
    </extensions>
    <trkseg>
      <trkpt lat="44.24541" lon="6.69817">
        <ele>2113.6</ele>
        <time>2021-07-01T07:49:23.000Z</time>
      </trkpt>
      <trkpt lat="44.2455" lon="6.69819">
        <ele>2112.95</ele>
        <time>2021-07-01T08:05:20.000Z</time>
      </trkpt>
      <trkpt lat="44.24558" lon="6.69809">
        <ele>2109.61</ele>
        <time>2021-07-01T08:05:30.000Z</time>
      </trkpt>
      <trkpt lat="44.24569" lon="6.69803">
        <ele>2106.91</ele>
        <time>2021-07-01T08:05:40.000Z</time>
      </trkpt>
      <trkpt lat="44.24582" lon="6.69804">
        <ele>2105.27</ele>
        <time>2021-07-01T08:05:50.000Z</time>
      </trkpt>
      <trkpt lat="44.24595" lon="6.69805">
        <ele>2103.82</ele>
        <time>2021-07-01T08:06:00.000Z</time>
      </trkpt>
      <trkpt lat="44.24605" lon="6.6981">
        <ele>2103.85</ele>
        <time>2021-07-01T08:06:10.000Z</time>
      </trkpt>
      <trkpt lat="44.24616" lon="6.69817">
        <ele>2104.51</ele>
        <time>2021-07-01T08:06:20.000Z</time>
      </trkpt>
      <trkpt lat="44.24625" lon="6.69824">
        <ele>2105.77</ele>
        <time>2021-07-01T08:06:30.000Z</time>
      </trkpt>
      <trkpt lat="44.24635" lon="6.69828">
        <ele>2105.91</ele>
        <time>2021-07-01T08:06:42.000Z</time>
      </trkpt>
      <trkpt lat="44.24649" lon="6.69828">
        <ele>2104.47</ele>
        <time>2021-07-01T08:06:52.000Z</time>
      </trkpt>
      <trkpt lat="44.24661" lon="6.69827">
        <ele>2102.71</ele>
        <time>2021-07-01T08:07:02.000Z</time>
      </trkpt>
      <trkpt lat="44.24672" lon="6.69828">
        <ele>2101.41</ele>
        <time>2021-07-01T08:07:12.000Z</time>
      </trkpt>
      <trkpt lat="44.24664" lon="6.6984">
        <ele>2106.38</ele>
        <time>2021-07-01T08:07:22.000Z</time>
      </trkpt>
      <trkpt lat="44.24655" lon="6.69847">
        <ele>2109.46</ele>
        <time>2021-07-01T08:07:32.000Z</time>
      </trkpt>
      <trkpt lat="44.24644" lon="6.69852">
        <ele>2111.74</ele>
        <time>2021-07-01T08:07:42.000Z</time>
      </trkpt>
      <trkpt lat="44.24634" lon="6.69857">
        <ele>2113.62</ele>
        <time>2021-07-01T08:07:52.000Z</time>
      </trkpt>
      <trkpt lat="44.24621" lon="6.69861">
        <ele>2115.57</ele>
        <time>2021-07-01T08:08:02.000Z</time>
      </trkpt>
      <trkpt lat="44.24612" lon="6.69864">
        <ele>2116.89</ele>
        <time>2021-07-01T08:08:12.000Z</time>
      </trkpt>
      <trkpt lat="44.24602" lon="6.69871">
        <ele>2119.2</ele>
        <time>2021-07-01T08:08:22.000Z</time>
      </trkpt>
      <trkpt lat="44.24592" lon="6.69873">
        <ele>2120.52</ele>
        <time>2021-07-01T08:08:33.000Z</time>
      </trkpt>
      <trkpt lat="44.2458" lon="6.69877">
        <ele>2122.49</ele>
        <time>2021-07-01T08:08:43.000Z</time>
      </trkpt>
      <trkpt lat="44.2457" lon="6.6988">
        <ele>2124.16</ele>
        <time>2021-07-01T08:08:53.000Z</time>
      </trkpt>
      <trkpt lat="44.24563" lon="6.69887">
        <ele>2126.42</ele>
        <time>2021-07-01T08:09:03.000Z</time>
      </trkpt>
      <trkpt lat="44.24551" lon="6.69884">
        <ele>2126.63</ele>
        <time>2021-07-01T08:09:13.000Z</time>
      </trkpt>
      <trkpt lat="44.24538" lon="6.69883">
        <ele>2127.54</ele>
        <time>2021-07-01T08:09:23.000Z</time>
      </trkpt>
      <trkpt lat="44.24529" lon="6.69887">
        <ele>2129.03</ele>
        <time>2021-07-01T08:09:33.000Z</time>
      </trkpt>
      <trkpt lat="44.24519" lon="6.69886">
        <ele>2129.41</ele>
        <time>2021-07-01T08:09:43.000Z</time>
      </trkpt>
      <trkpt lat="44.24505" lon="6.6988">
        <ele>2129.42</ele>
        <time>2021-07-01T08:09:53.000Z</time>
      </trkpt>
      <trkpt lat="44.24495" lon="6.69867">
        <ele>2128.16</ele>
        <time>2021-07-01T08:10:03.000Z</time>
      </trkpt>
      <trkpt lat="44.24487" lon="6.69855">
        <ele>2127</ele>
        <time>2021-07-01T08:10:13.000Z</time>
      </trkpt>
      <trkpt lat="44.24477" lon="6.6985">
        <ele>2127.18</ele>
        <time>2021-07-01T08:10:23.000Z</time>
      </trkpt>
      <trkpt lat="44.24465" lon="6.69848">
        <ele>2128.17</ele>
        <time>2021-07-01T08:10:33.000Z</time>
      </trkpt>
      <trkpt lat="44.24455" lon="6.69846">
        <ele>2128.84</ele>
        <time>2021-07-01T08:10:43.000Z</time>
      </trkpt>
      <trkpt lat="44.24444" lon="6.69846">
        <ele>2129.94</ele>
        <time>2021-07-01T08:10:53.000Z</time>
      </trkpt>
      <trkpt lat="44.24432" lon="6.69845">
        <ele>2130.69</ele>
        <time>2021-07-01T08:11:03.000Z</time>
      </trkpt>
      <trkpt lat="44.2442" lon="6.69841">
        <ele>2130.85</ele>
        <time>2021-07-01T08:11:13.000Z</time>
      </trkpt>
      <trkpt lat="44.24412" lon="6.6985">
        <ele>2131.95</ele>
        <time>2021-07-01T08:11:23.000Z</time>
      </trkpt>
      <trkpt lat="44.24402" lon="6.69856">
        <ele>2132.41</ele>
        <time>2021-07-01T08:11:33.000Z</time>
      </trkpt>
      <trkpt lat="44.24391" lon="6.69863">
        <ele>2132.53</ele>
        <time>2021-07-01T08:11:43.000Z</time>
      </trkpt>
      <trkpt lat="44.24383" lon="6.6987">
        <ele>2132.33</ele>
        <time>2021-07-01T08:11:56.000Z</time>
      </trkpt>
      <trkpt lat="44.24376" lon="6.69881">
        <ele>2131.8</ele>
        <time>2021-07-01T08:12:06.000Z</time>
      </trkpt>
      <trkpt lat="44.24369" lon="6.69891">
        <ele>2131.01</ele>
        <time>2021-07-01T08:12:18.000Z</time>
      </trkpt>
      <trkpt lat="44.24362" lon="6.69902">
        <ele>2130.02</ele>
        <time>2021-07-01T08:12:28.000Z</time>
      </trkpt>
      <trkpt lat="44.24355" lon="6.69914">
        <ele>2129.07</ele>
        <time>2021-07-01T08:12:38.000Z</time>
      </trkpt>
      <trkpt lat="44.24347" lon="6.6992">
        <ele>2128.23</ele>
        <time>2021-07-01T08:12:48.000Z</time>
      </trkpt>
      <trkpt lat="44.24342" lon="6.69932">
        <ele>2127.85</ele>
        <time>2021-07-01T08:13:00.000Z</time>
      </trkpt>
      <trkpt lat="44.24333" lon="6.69941">
        <ele>2127.23</ele>
        <time>2021-07-01T08:13:10.000Z</time>
      </trkpt>
      <trkpt lat="44.24327" lon="6.69951">
        <ele>2127.1</ele>
        <time>2021-07-01T08:13:20.000Z</time>
      </trkpt>
      <trkpt lat="44.2432" lon="6.69963">
        <ele>2126.94</ele>
        <time>2021-07-01T08:13:30.000Z</time>
      </trkpt>
      <trkpt lat="44.24315" lon="6.69976">
        <ele>2126.98</ele>
        <time>2021-07-01T08:13:40.000Z</time>
      </trkpt>
      <trkpt lat="44.24309" lon="6.69991">
        <ele>2126.98</ele>
        <time>2021-07-01T08:13:50.000Z</time>
      </trkpt>
      <trkpt lat="44.24303" lon="6.70001">
        <ele>2126.93</ele>
        <time>2021-07-01T08:14:03.000Z</time>
      </trkpt>
      <trkpt lat="44.24303" lon="6.70014">
        <ele>2127.26</ele>
        <time>2021-07-01T08:14:13.000Z</time>
      </trkpt>
      <trkpt lat="44.24301" lon="6.70029">
        <ele>2127.66</ele>
        <time>2021-07-01T08:14:23.000Z</time>
      </trkpt>
      <trkpt lat="44.24299" lon="6.70042">
        <ele>2127.95</ele>
        <time>2021-07-01T08:14:33.000Z</time>
      </trkpt>
      <trkpt lat="44.24298" lon="6.70056">
        <ele>2128.38</ele>
        <time>2021-07-01T08:14:43.000Z</time>
      </trkpt>
      <trkpt lat="44.24303" lon="6.70068">
        <ele>2128.95</ele>
        <time>2021-07-01T08:14:59.000Z</time>
      </trkpt>
      <trkpt lat="44.24309" lon="6.70078">
        <ele>2129.55</ele>
        <time>2021-07-01T08:15:12.000Z</time>
      </trkpt>
      <trkpt lat="44.24319" lon="6.70085">
        <ele>2130.16</ele>
        <time>2021-07-01T08:15:23.000Z</time>
      </trkpt>
      <trkpt lat="44.24324" lon="6.70095">
        <ele>2130.62</ele>
        <time>2021-07-01T08:15:33.000Z</time>
      </trkpt>
      <trkpt lat="44.24325" lon="6.70108">
        <ele>2130.83</ele>
        <time>2021-07-01T08:15:43.000Z</time>
      </trkpt>
      <trkpt lat="44.24329" lon="6.70122">
        <ele>2131.19</ele>
        <time>2021-07-01T08:15:53.000Z</time>
      </trkpt>
      <trkpt lat="44.24337" lon="6.70133">
        <ele>2131.83</ele>
        <time>2021-07-01T08:16:03.000Z</time>
      </trkpt>
      <trkpt lat="44.24347" lon="6.70143">
        <ele>2132.82</ele>
        <time>2021-07-01T08:16:13.000Z</time>
      </trkpt>
      <trkpt lat="44.24353" lon="6.70154">
        <ele>2133.69</ele>
        <time>2021-07-01T08:16:24.000Z</time>
      </trkpt>
      <trkpt lat="44.24357" lon="6.70165">
        <ele>2134.49</ele>
        <time>2021-07-01T08:16:42.000Z</time>
      </trkpt>
      <trkpt lat="44.24365" lon="6.70172">
        <ele>2135.8</ele>
        <time>2021-07-01T08:16:52.000Z</time>
      </trkpt>
      <trkpt lat="44.24373" lon="6.7018">
        <ele>2137.37</ele>
        <time>2021-07-01T08:17:02.000Z</time>
      </trkpt>
      <trkpt lat="44.24382" lon="6.70188">
        <ele>2139.31</ele>
        <time>2021-07-01T08:17:12.000Z</time>
      </trkpt>
      <trkpt lat="44.24391" lon="6.70194">
        <ele>2141.28</ele>
        <time>2021-07-01T08:17:24.000Z</time>
      </trkpt>
      <trkpt lat="44.244" lon="6.70205">
        <ele>2143.98</ele>
        <time>2021-07-01T08:17:34.000Z</time>
      </trkpt>
      <trkpt lat="44.24407" lon="6.70215">
        <ele>2146.3</ele>
        <time>2021-07-01T08:17:46.000Z</time>
      </trkpt>
      <trkpt lat="44.24416" lon="6.7022">
        <ele>2148.93</ele>
        <time>2021-07-01T08:17:56.000Z</time>
      </trkpt>
      <trkpt lat="44.24417" lon="6.70234">
        <ele>2150.86</ele>
        <time>2021-07-01T08:18:16.000Z</time>
      </trkpt>
      <trkpt lat="44.24417" lon="6.70249">
        <ele>2152.88</ele>
        <time>2021-07-01T08:18:26.000Z</time>
      </trkpt>
      <trkpt lat="44.24414" lon="6.70262">
        <ele>2154.15</ele>
        <time>2021-07-01T08:18:36.000Z</time>
      </trkpt>
      <trkpt lat="44.2441" lon="6.70275">
        <ele>2154.79</ele>
        <time>2021-07-01T08:18:46.000Z</time>
      </trkpt>
      <trkpt lat="44.24406" lon="6.70287">
        <ele>2155.42</ele>
        <time>2021-07-01T08:18:59.000Z</time>
      </trkpt>
      <trkpt lat="44.24401" lon="6.70298">
        <ele>2155.49</ele>
        <time>2021-07-01T08:20:02.000Z</time>
      </trkpt>
      <trkpt lat="44.24395" lon="6.70309">
        <ele>2155.41</ele>
        <time>2021-07-01T08:20:12.000Z</time>
      </trkpt>
      <trkpt lat="44.24387" lon="6.7032">
        <ele>2155.04</ele>
        <time>2021-07-01T08:20:22.000Z</time>
      </trkpt>
      <trkpt lat="44.24381" lon="6.7033">
        <ele>2155.1</ele>
        <time>2021-07-01T08:20:33.000Z</time>
      </trkpt>
      <trkpt lat="44.24375" lon="6.70343">
        <ele>2156.44</ele>
        <time>2021-07-01T08:20:43.000Z</time>
      </trkpt>
      <trkpt lat="44.24373" lon="6.70355">
        <ele>2158.91</ele>
        <time>2021-07-01T08:21:04.000Z</time>
      </trkpt>
      <trkpt lat="44.24367" lon="6.70366">
        <ele>2160.23</ele>
        <time>2021-07-01T08:21:21.000Z</time>
      </trkpt>
      <trkpt lat="44.24359" lon="6.70376">
        <ele>2161.31</ele>
        <time>2021-07-01T08:21:31.000Z</time>
      </trkpt>
      <trkpt lat="44.24353" lon="6.70387">
        <ele>2163.58</ele>
        <time>2021-07-01T08:21:42.000Z</time>
      </trkpt>
      <trkpt lat="44.24346" lon="6.70397">
        <ele>2165.38</ele>
        <time>2021-07-01T08:21:56.000Z</time>
      </trkpt>
      <trkpt lat="44.24339" lon="6.70406">
        <ele>2167.1</ele>
        <time>2021-07-01T08:22:08.000Z</time>
      </trkpt>
      <trkpt lat="44.24331" lon="6.70414">
        <ele>2168.87</ele>
        <time>2021-07-01T08:22:20.000Z</time>
      </trkpt>
      <trkpt lat="44.24324" lon="6.70422">
        <ele>2170.79</ele>
        <time>2021-07-01T08:22:32.000Z</time>
      </trkpt>
      <trkpt lat="44.24315" lon="6.70427">
        <ele>2171.27</ele>
        <time>2021-07-01T08:22:42.000Z</time>
      </trkpt>
      <trkpt lat="44.24306" lon="6.70431">
        <ele>2171.73</ele>
        <time>2021-07-01T08:22:54.000Z</time>
      </trkpt>
      <trkpt lat="44.24297" lon="6.7043">
        <ele>2170.6</ele>
        <time>2021-07-01T08:23:05.000Z</time>
      </trkpt>
      <trkpt lat="44.24287" lon="6.70433">
        <ele>2170.92</ele>
        <time>2021-07-01T08:23:22.000Z</time>
      </trkpt>
      <trkpt lat="44.24278" lon="6.70435">
        <ele>2170.92</ele>
        <time>2021-07-01T08:23:33.000Z</time>
      </trkpt>
      <trkpt lat="44.24269" lon="6.70438">
        <ele>2171.45</ele>
        <time>2021-07-01T08:23:43.000Z</time>
      </trkpt>
      <trkpt lat="44.24261" lon="6.70433">
        <ele>2169.1</ele>
        <time>2021-07-01T08:25:07.000Z</time>
      </trkpt>
      <trkpt lat="44.24252" lon="6.70434">
        <ele>2168.77</ele>
        <time>2021-07-01T08:25:17.000Z</time>
      </trkpt>
      <trkpt lat="44.24243" lon="6.70437">
        <ele>2169.53</ele>
        <time>2021-07-01T08:25:31.000Z</time>
      </trkpt>
      <trkpt lat="44.24234" lon="6.70439">
        <ele>2169.84</ele>
        <time>2021-07-01T08:25:53.000Z</time>
      </trkpt>
      <trkpt lat="44.24224" lon="6.7044">
        <ele>2170.13</ele>
        <time>2021-07-01T08:26:05.000Z</time>
      </trkpt>
      <trkpt lat="44.24215" lon="6.70443">
        <ele>2170.69</ele>
        <time>2021-07-01T08:26:45.000Z</time>
      </trkpt>
      <trkpt lat="44.24206" lon="6.70447">
        <ele>2172.03</ele>
        <time>2021-07-01T08:29:08.000Z</time>
      </trkpt>
      <trkpt lat="44.24193" lon="6.70452">
        <ele>2174.01</ele>
        <time>2021-07-01T08:29:18.000Z</time>
      </trkpt>
      <trkpt lat="44.24183" lon="6.70458">
        <ele>2176.4</ele>
        <time>2021-07-01T08:29:28.000Z</time>
      </trkpt>
      <trkpt lat="44.24174" lon="6.70456">
        <ele>2176.37</ele>
        <time>2021-07-01T08:29:40.000Z</time>
      </trkpt>
      <trkpt lat="44.24164" lon="6.70453">
        <ele>2176.46</ele>
        <time>2021-07-01T08:29:50.000Z</time>
      </trkpt>
      <trkpt lat="44.24155" lon="6.70449">
        <ele>2176.28</ele>
        <time>2021-07-01T08:30:00.000Z</time>
      </trkpt>
      <trkpt lat="44.24145" lon="6.70446">
        <ele>2177.08</ele>
        <time>2021-07-01T08:30:12.000Z</time>
      </trkpt>
      <trkpt lat="44.24136" lon="6.70445">
        <ele>2178.17</ele>
        <time>2021-07-01T08:30:24.000Z</time>
      </trkpt>
      <trkpt lat="44.24127" lon="6.70442">
        <ele>2179.05</ele>
        <time>2021-07-01T08:30:34.000Z</time>
      </trkpt>
      <trkpt lat="44.24118" lon="6.7044">
        <ele>2180.52</ele>
        <time>2021-07-01T08:30:50.000Z</time>
      </trkpt>
      <trkpt lat="44.24109" lon="6.70438">
        <ele>2182.35</ele>
        <time>2021-07-01T08:31:04.000Z</time>
      </trkpt>
      <trkpt lat="44.24099" lon="6.70438">
        <ele>2184.76</ele>
        <time>2021-07-01T08:31:17.000Z</time>
      </trkpt>
      <trkpt lat="44.2409" lon="6.70442">
        <ele>2188.55</ele>
        <time>2021-07-01T08:31:31.000Z</time>
      </trkpt>
      <trkpt lat="44.24081" lon="6.70445">
        <ele>2192.02</ele>
        <time>2021-07-01T08:31:41.000Z</time>
      </trkpt>
      <trkpt lat="44.24071" lon="6.70445">
        <ele>2195.28</ele>
        <time>2021-07-01T08:31:56.000Z</time>
      </trkpt>
      <trkpt lat="44.24062" lon="6.70443">
        <ele>2198.06</ele>
        <time>2021-07-01T08:32:10.000Z</time>
      </trkpt>
      <trkpt lat="44.24053" lon="6.70438">
        <ele>2200.3</ele>
        <time>2021-07-01T08:32:20.000Z</time>
      </trkpt>
      <trkpt lat="44.24044" lon="6.70435">
        <ele>2203.06</ele>
        <time>2021-07-01T08:32:31.000Z</time>
      </trkpt>
      <trkpt lat="44.24037" lon="6.70427">
        <ele>2203.76</ele>
        <time>2021-07-01T08:32:44.000Z</time>
      </trkpt>
      <trkpt lat="44.24028" lon="6.70422">
        <ele>2205.97</ele>
        <time>2021-07-01T08:32:59.000Z</time>
      </trkpt>
      <trkpt lat="44.24019" lon="6.70416">
        <ele>2207.77</ele>
        <time>2021-07-01T08:33:14.000Z</time>
      </trkpt>
      <trkpt lat="44.24011" lon="6.7041">
        <ele>2209.66</ele>
        <time>2021-07-01T08:33:25.000Z</time>
      </trkpt>
      <trkpt lat="44.24003" lon="6.70403">
        <ele>2210.7</ele>
        <time>2021-07-01T08:33:39.000Z</time>
      </trkpt>
      <trkpt lat="44.23995" lon="6.70397">
        <ele>2212.4</ele>
        <time>2021-07-01T08:33:53.000Z</time>
      </trkpt>
      <trkpt lat="44.23986" lon="6.70391">
        <ele>2214.1</ele>
        <time>2021-07-01T08:34:07.000Z</time>
      </trkpt>
      <trkpt lat="44.23978" lon="6.70384">
        <ele>2215.61</ele>
        <time>2021-07-01T08:34:28.000Z</time>
      </trkpt>
      <trkpt lat="44.23969" lon="6.70378">
        <ele>2217.21</ele>
        <time>2021-07-01T08:34:41.000Z</time>
      </trkpt>
      <trkpt lat="44.23962" lon="6.70371">
        <ele>2218.13</ele>
        <time>2021-07-01T08:34:52.000Z</time>
      </trkpt>
      <trkpt lat="44.23953" lon="6.70366">
        <ele>2220.65</ele>
        <time>2021-07-01T08:35:08.000Z</time>
      </trkpt>
      <trkpt lat="44.23944" lon="6.70361">
        <ele>2222.63</ele>
        <time>2021-07-01T08:35:22.000Z</time>
      </trkpt>
      <trkpt lat="44.23936" lon="6.70357">
        <ele>2224.9</ele>
        <time>2021-07-01T08:36:14.000Z</time>
      </trkpt>
      <trkpt lat="44.23927" lon="6.70351">
        <ele>2226.25</ele>
        <time>2021-07-01T08:36:29.000Z</time>
      </trkpt>
      <trkpt lat="44.23918" lon="6.70347">
        <ele>2228.48</ele>
        <time>2021-07-01T08:36:44.000Z</time>
      </trkpt>
      <trkpt lat="44.23911" lon="6.70337">
        <ele>2227.91</ele>
        <time>2021-07-01T08:39:00.000Z</time>
      </trkpt>
      <trkpt lat="44.23906" lon="6.70327">
        <ele>2226.85</ele>
        <time>2021-07-01T08:39:14.000Z</time>
      </trkpt>
      <trkpt lat="44.23903" lon="6.70315">
        <ele>2224.39</ele>
        <time>2021-07-01T08:41:53.000Z</time>
      </trkpt>
      <trkpt lat="44.23895" lon="6.70322">
        <ele>2228.89</ele>
        <time>2021-07-01T08:42:22.000Z</time>
      </trkpt>
      <trkpt lat="44.23885" lon="6.70322">
        <ele>2231.83</ele>
        <time>2021-07-01T08:42:36.000Z</time>
      </trkpt>
      <trkpt lat="44.23876" lon="6.70323">
        <ele>2234.8</ele>
        <time>2021-07-01T08:42:47.000Z</time>
      </trkpt>
      <trkpt lat="44.23867" lon="6.70324">
        <ele>2237.52</ele>
        <time>2021-07-01T08:43:01.000Z</time>
      </trkpt>
      <trkpt lat="44.23858" lon="6.70321">
        <ele>2239.31</ele>
        <time>2021-07-01T08:43:40.000Z</time>
      </trkpt>
      <trkpt lat="44.2385" lon="6.70313">
        <ele>2239.05</ele>
        <time>2021-07-01T08:43:51.000Z</time>
      </trkpt>
      <trkpt lat="44.23848" lon="6.703">
        <ele>2236.75</ele>
        <time>2021-07-01T08:44:01.000Z</time>
      </trkpt>
      <trkpt lat="44.23841" lon="6.70292">
        <ele>2237.23</ele>
        <time>2021-07-01T08:44:11.000Z</time>
      </trkpt>
      <trkpt lat="44.23833" lon="6.70283">
        <ele>2237.39</ele>
        <time>2021-07-01T08:44:21.000Z</time>
      </trkpt>
      <trkpt lat="44.23827" lon="6.70272">
        <ele>2237.56</ele>
        <time>2021-07-01T08:44:31.000Z</time>
      </trkpt>
      <trkpt lat="44.23819" lon="6.70264">
        <ele>2238.69</ele>
        <time>2021-07-01T08:44:41.000Z</time>
      </trkpt>
      <trkpt lat="44.2381" lon="6.70261">
        <ele>2241.09</ele>
        <time>2021-07-01T08:44:57.000Z</time>
      </trkpt>
      <trkpt lat="44.238" lon="6.70255">
        <ele>2243.16</ele>
        <time>2021-07-01T08:45:07.000Z</time>
      </trkpt>
      <trkpt lat="44.23791" lon="6.70248">
        <ele>2244.99</ele>
        <time>2021-07-01T08:45:17.000Z</time>
      </trkpt>
      <trkpt lat="44.23782" lon="6.70242">
        <ele>2246.86</ele>
        <time>2021-07-01T08:45:27.000Z</time>
      </trkpt>
      <trkpt lat="44.23775" lon="6.70234">
        <ele>2247.54</ele>
        <time>2021-07-01T08:45:37.000Z</time>
      </trkpt>
      <trkpt lat="44.23766" lon="6.70231">
        <ele>2249.88</ele>
        <time>2021-07-01T08:45:47.000Z</time>
      </trkpt>
      <trkpt lat="44.23758" lon="6.70226">
        <ele>2251.46</ele>
        <time>2021-07-01T08:46:01.000Z</time>
      </trkpt>
      <trkpt lat="44.23766" lon="6.70229">
        <ele>2249.29</ele>
        <time>2021-07-01T08:46:13.000Z</time>
      </trkpt>
      <trkpt lat="44.23776" lon="6.70231">
        <ele>2246.79</ele>
        <time>2021-07-01T08:46:35.000Z</time>
      </trkpt>
      <trkpt lat="44.2378" lon="6.70242">
        <ele>2247.47</ele>
        <time>2021-07-01T08:46:52.000Z</time>
      </trkpt>
      <trkpt lat="44.23784" lon="6.70255">
        <ele>2248.35</ele>
        <time>2021-07-01T08:47:10.000Z</time>
      </trkpt>
      <trkpt lat="44.2379" lon="6.70265">
        <ele>2247.79</ele>
        <time>2021-07-01T08:47:21.000Z</time>
      </trkpt>
      <trkpt lat="44.23799" lon="6.70269">
        <ele>2245.63</ele>
        <time>2021-07-01T08:47:38.000Z</time>
      </trkpt>
      <trkpt lat="44.23807" lon="6.70277">
        <ele>2244.47</ele>
        <time>2021-07-01T08:47:48.000Z</time>
      </trkpt>
      <trkpt lat="44.23807" lon="6.7029">
        <ele>2246.55</ele>
        <time>2021-07-01T08:48:31.000Z</time>
      </trkpt>
      <trkpt lat="44.23804" lon="6.70305">
        <ele>2249.59</ele>
        <time>2021-07-01T08:48:41.000Z</time>
      </trkpt>
      <trkpt lat="44.238" lon="6.70316">
        <ele>2252.44</ele>
        <time>2021-07-01T08:48:52.000Z</time>
      </trkpt>
      <trkpt lat="44.23792" lon="6.70324">
        <ele>2255.34</ele>
        <time>2021-07-01T08:49:09.000Z</time>
      </trkpt>
      <trkpt lat="44.23784" lon="6.70332">
        <ele>2257.93</ele>
        <time>2021-07-01T08:49:35.000Z</time>
      </trkpt>
      <trkpt lat="44.23774" lon="6.70339">
        <ele>2260.39</ele>
        <time>2021-07-01T08:49:45.000Z</time>
      </trkpt>
      <trkpt lat="44.23767" lon="6.70347">
        <ele>2262.28</ele>
        <time>2021-07-01T08:49:57.000Z</time>
      </trkpt>
      <trkpt lat="44.23758" lon="6.70353">
        <ele>2263.98</ele>
        <time>2021-07-01T08:50:10.000Z</time>
      </trkpt>
      <trkpt lat="44.23748" lon="6.70357">
        <ele>2265.33</ele>
        <time>2021-07-01T08:50:23.000Z</time>
      </trkpt>
      <trkpt lat="44.23741" lon="6.70368">
        <ele>2266.38</ele>
        <time>2021-07-01T08:50:33.000Z</time>
      </trkpt>
      <trkpt lat="44.23732" lon="6.70371">
        <ele>2266.94</ele>
        <time>2021-07-01T08:51:19.000Z</time>
      </trkpt>
      <trkpt lat="44.23731" lon="6.70384">
        <ele>2266.81</ele>
        <time>2021-07-01T08:51:35.000Z</time>
      </trkpt>
      <trkpt lat="44.23729" lon="6.70397">
        <ele>2266.46</ele>
        <time>2021-07-01T08:52:02.000Z</time>
      </trkpt>
      <trkpt lat="44.23726" lon="6.7041">
        <ele>2265.76</ele>
        <time>2021-07-01T08:52:12.000Z</time>
      </trkpt>
      <trkpt lat="44.23724" lon="6.70423">
        <ele>2264.9</ele>
        <time>2021-07-01T08:52:23.000Z</time>
      </trkpt>
      <trkpt lat="44.23723" lon="6.70435">
        <ele>2264.15</ele>
        <time>2021-07-01T08:52:35.000Z</time>
      </trkpt>
      <trkpt lat="44.23719" lon="6.70447">
        <ele>2262.83</ele>
        <time>2021-07-01T09:03:59.000Z</time>
      </trkpt>
      <trkpt lat="44.2372" lon="6.7046">
        <ele>2262.12</ele>
        <time>2021-07-01T09:04:38.000Z</time>
      </trkpt>
      <trkpt lat="44.23719" lon="6.70476">
        <ele>2260.61</ele>
        <time>2021-07-01T09:04:48.000Z</time>
      </trkpt>
      <trkpt lat="44.23717" lon="6.70491">
        <ele>2258.52</ele>
        <time>2021-07-01T09:04:58.000Z</time>
      </trkpt>
      <trkpt lat="44.23714" lon="6.70509">
        <ele>2255.35</ele>
        <time>2021-07-01T09:05:08.000Z</time>
      </trkpt>
      <trkpt lat="44.23712" lon="6.70522">
        <ele>2252.63</ele>
        <time>2021-07-01T09:05:18.000Z</time>
      </trkpt>
      <trkpt lat="44.23714" lon="6.70535">
        <ele>2250.81</ele>
        <time>2021-07-01T09:05:28.000Z</time>
      </trkpt>
      <trkpt lat="44.23718" lon="6.70547">
        <ele>2249.54</ele>
        <time>2021-07-01T09:05:38.000Z</time>
      </trkpt>
      <trkpt lat="44.23727" lon="6.7056">
        <ele>2249.25</ele>
        <time>2021-07-01T09:05:48.000Z</time>
      </trkpt>
      <trkpt lat="44.23737" lon="6.70568">
        <ele>2250</ele>
        <time>2021-07-01T09:05:58.000Z</time>
      </trkpt>
      <trkpt lat="44.23748" lon="6.70581">
        <ele>2249.97</ele>
        <time>2021-07-01T09:06:08.000Z</time>
      </trkpt>
      <trkpt lat="44.23757" lon="6.70592">
        <ele>2249.8</ele>
        <time>2021-07-01T09:06:18.000Z</time>
      </trkpt>
      <trkpt lat="44.23763" lon="6.70605">
        <ele>2248.65</ele>
        <time>2021-07-01T09:06:28.000Z</time>
      </trkpt>
      <trkpt lat="44.23768" lon="6.7062">
        <ele>2246.73</ele>
        <time>2021-07-01T09:06:38.000Z</time>
      </trkpt>
      <trkpt lat="44.23774" lon="6.70637">
        <ele>2244.98</ele>
        <time>2021-07-01T09:06:48.000Z</time>
      </trkpt>
      <trkpt lat="44.23782" lon="6.70643">
        <ele>2246.1</ele>
        <time>2021-07-01T09:07:12.000Z</time>
      </trkpt>
      <trkpt lat="44.23789" lon="6.70655">
        <ele>2246.11</ele>
        <time>2021-07-01T09:07:22.000Z</time>
      </trkpt>
      <trkpt lat="44.23798" lon="6.70662">
        <ele>2248.03</ele>
        <time>2021-07-01T09:07:32.000Z</time>
      </trkpt>
      <trkpt lat="44.23806" lon="6.70669">
        <ele>2249.55</ele>
        <time>2021-07-01T09:07:42.000Z</time>
      </trkpt>
      <trkpt lat="44.23813" lon="6.70682">
        <ele>2249.9</ele>
        <time>2021-07-01T09:07:52.000Z</time>
      </trkpt>
      <trkpt lat="44.23818" lon="6.70693">
        <ele>2249.9</ele>
        <time>2021-07-01T09:08:02.000Z</time>
      </trkpt>
      <trkpt lat="44.23822" lon="6.70706">
        <ele>2249.38</ele>
        <time>2021-07-01T09:08:12.000Z</time>
      </trkpt>
      <trkpt lat="44.23824" lon="6.7072">
        <ele>2248.2</ele>
        <time>2021-07-01T09:08:30.000Z</time>
      </trkpt>
      <trkpt lat="44.23822" lon="6.70734">
        <ele>2246.05</ele>
        <time>2021-07-01T09:08:40.000Z</time>
      </trkpt>
      <trkpt lat="44.23825" lon="6.70746">
        <ele>2245.36</ele>
        <time>2021-07-01T09:08:53.000Z</time>
      </trkpt>
      <trkpt lat="44.23823" lon="6.70759">
        <ele>2243.59</ele>
        <time>2021-07-01T09:09:10.000Z</time>
      </trkpt>
      <trkpt lat="44.23832" lon="6.70755">
        <ele>2246.13</ele>
        <time>2021-07-01T09:09:54.000Z</time>
      </trkpt>
      <trkpt lat="44.23841" lon="6.70763">
        <ele>2247.2</ele>
        <time>2021-07-01T09:10:05.000Z</time>
      </trkpt>
      <trkpt lat="44.23851" lon="6.7077">
        <ele>2248.62</ele>
        <time>2021-07-01T09:10:15.000Z</time>
      </trkpt>
      <trkpt lat="44.23861" lon="6.70773">
        <ele>2250.52</ele>
        <time>2021-07-01T09:10:25.000Z</time>
      </trkpt>
      <trkpt lat="44.23871" lon="6.70777">
        <ele>2252.46</ele>
        <time>2021-07-01T09:10:35.000Z</time>
      </trkpt>
      <trkpt lat="44.23881" lon="6.70774">
        <ele>2254.72</ele>
        <time>2021-07-01T09:10:46.000Z</time>
      </trkpt>
      <trkpt lat="44.23891" lon="6.7077">
        <ele>2257.24</ele>
        <time>2021-07-01T09:10:56.000Z</time>
      </trkpt>
      <trkpt lat="44.23904" lon="6.70766">
        <ele>2259.86</ele>
        <time>2021-07-01T09:11:06.000Z</time>
      </trkpt>
      <trkpt lat="44.23914" lon="6.70765">
        <ele>2261.35</ele>
        <time>2021-07-01T09:11:16.000Z</time>
      </trkpt>
      <trkpt lat="44.23925" lon="6.70771">
        <ele>2261.93</ele>
        <time>2021-07-01T09:11:26.000Z</time>
      </trkpt>
      <trkpt lat="44.23934" lon="6.70771">
        <ele>2262.72</ele>
        <time>2021-07-01T09:11:37.000Z</time>
      </trkpt>
      <trkpt lat="44.23947" lon="6.70775">
        <ele>2263.19</ele>
        <time>2021-07-01T09:11:47.000Z</time>
      </trkpt>
      <trkpt lat="44.23952" lon="6.70788">
        <ele>2262.42</ele>
        <time>2021-07-01T09:11:57.000Z</time>
      </trkpt>
      <trkpt lat="44.2396" lon="6.70803">
        <ele>2261.56</ele>
        <time>2021-07-01T09:12:07.000Z</time>
      </trkpt>
      <trkpt lat="44.23966" lon="6.70815">
        <ele>2260.92</ele>
        <time>2021-07-01T09:12:17.000Z</time>
      </trkpt>
      <trkpt lat="44.23976" lon="6.70815">
        <ele>2261.53</ele>
        <time>2021-07-01T09:12:27.000Z</time>
      </trkpt>
      <trkpt lat="44.23984" lon="6.7081">
        <ele>2262.38</ele>
        <time>2021-07-01T09:12:46.000Z</time>
      </trkpt>
      <trkpt lat="44.23994" lon="6.70803">
        <ele>2263.29</ele>
        <time>2021-07-01T09:12:56.000Z</time>
      </trkpt>
      <trkpt lat="44.24003" lon="6.70795">
        <ele>2264.01</ele>
        <time>2021-07-01T09:13:06.000Z</time>
      </trkpt>
      <trkpt lat="44.24014" lon="6.70794">
        <ele>2264.37</ele>
        <time>2021-07-01T09:13:16.000Z</time>
      </trkpt>
      <trkpt lat="44.24025" lon="6.708">
        <ele>2264.5</ele>
        <time>2021-07-01T09:13:26.000Z</time>
      </trkpt>
      <trkpt lat="44.24031" lon="6.70813">
        <ele>2264.47</ele>
        <time>2021-07-01T09:13:36.000Z</time>
      </trkpt>
      <trkpt lat="44.24039" lon="6.7083">
        <ele>2264.65</ele>
        <time>2021-07-01T09:13:46.000Z</time>
      </trkpt>
      <trkpt lat="44.24048" lon="6.70822">
        <ele>2265.04</ele>
        <time>2021-07-01T09:13:56.000Z</time>
      </trkpt>
      <trkpt lat="44.2406" lon="6.70817">
        <ele>2265.36</ele>
        <time>2021-07-01T09:14:06.000Z</time>
      </trkpt>
      <trkpt lat="44.24072" lon="6.70816">
        <ele>2265.62</ele>
        <time>2021-07-01T09:14:16.000Z</time>
      </trkpt>
      <trkpt lat="44.24084" lon="6.70816">
        <ele>2265.87</ele>
        <time>2021-07-01T09:14:26.000Z</time>
      </trkpt>
      <trkpt lat="44.24096" lon="6.70817">
        <ele>2266.21</ele>
        <time>2021-07-01T09:14:36.000Z</time>
      </trkpt>
      <trkpt lat="44.24107" lon="6.70811">
        <ele>2265.74</ele>
        <time>2021-07-01T09:14:46.000Z</time>
      </trkpt>
      <trkpt lat="44.24118" lon="6.70808">
        <ele>2265.39</ele>
        <time>2021-07-01T09:14:56.000Z</time>
      </trkpt>
      <trkpt lat="44.24126" lon="6.70801">
        <ele>2264.31</ele>
        <time>2021-07-01T09:15:29.000Z</time>
      </trkpt>
      <trkpt lat="44.24137" lon="6.70794">
        <ele>2262.93</ele>
        <time>2021-07-01T09:15:39.000Z</time>
      </trkpt>
      <trkpt lat="44.24146" lon="6.70789">
        <ele>2261.71</ele>
        <time>2021-07-01T09:15:49.000Z</time>
      </trkpt>
      <trkpt lat="44.24157" lon="6.70785">
        <ele>2260.41</ele>
        <time>2021-07-01T09:15:59.000Z</time>
      </trkpt>
      <trkpt lat="44.24168" lon="6.70785">
        <ele>2259.85</ele>
        <time>2021-07-01T09:16:09.000Z</time>
      </trkpt>
      <trkpt lat="44.24177" lon="6.70779">
        <ele>2258.3</ele>
        <time>2021-07-01T09:16:19.000Z</time>
      </trkpt>
      <trkpt lat="44.2419" lon="6.70787">
        <ele>2259.46</ele>
        <time>2021-07-01T09:16:29.000Z</time>
      </trkpt>
      <trkpt lat="44.242" lon="6.70792">
        <ele>2260.29</ele>
        <time>2021-07-01T09:16:39.000Z</time>
      </trkpt>
      <trkpt lat="44.24213" lon="6.70802">
        <ele>2262.02</ele>
        <time>2021-07-01T09:16:49.000Z</time>
      </trkpt>
      <trkpt lat="44.24223" lon="6.70807">
        <ele>2262.97</ele>
        <time>2021-07-01T09:16:59.000Z</time>
      </trkpt>
      <trkpt lat="44.24232" lon="6.70804">
        <ele>2262.33</ele>
        <time>2021-07-01T09:17:09.000Z</time>
      </trkpt>
      <trkpt lat="44.24245" lon="6.70805">
        <ele>2262.92</ele>
        <time>2021-07-01T09:17:19.000Z</time>
      </trkpt>
      <trkpt lat="44.24258" lon="6.7081">
        <ele>2265.39</ele>
        <time>2021-07-01T09:17:29.000Z</time>
      </trkpt>
      <trkpt lat="44.24267" lon="6.70803">
        <ele>2265.09</ele>
        <time>2021-07-01T09:17:39.000Z</time>
      </trkpt>
      <trkpt lat="44.24274" lon="6.70794">
        <ele>2264.21</ele>
        <time>2021-07-01T09:17:49.000Z</time>
      </trkpt>
      <trkpt lat="44.24281" lon="6.70784">
        <ele>2263.38</ele>
        <time>2021-07-01T09:17:59.000Z</time>
      </trkpt>
      <trkpt lat="44.2429" lon="6.7078">
        <ele>2264.13</ele>
        <time>2021-07-01T09:18:14.000Z</time>
      </trkpt>
      <trkpt lat="44.24301" lon="6.70771">
        <ele>2264.48</ele>
        <time>2021-07-01T09:18:24.000Z</time>
      </trkpt>
      <trkpt lat="44.24312" lon="6.70767">
        <ele>2265.52</ele>
        <time>2021-07-01T09:18:34.000Z</time>
      </trkpt>
      <trkpt lat="44.24316" lon="6.70756">
        <ele>2263.63</ele>
        <time>2021-07-01T09:18:44.000Z</time>
      </trkpt>
      <trkpt lat="44.24323" lon="6.70746">
        <ele>2262.55</ele>
        <time>2021-07-01T09:18:55.000Z</time>
      </trkpt>
      <trkpt lat="44.24327" lon="6.70734">
        <ele>2260.23</ele>
        <time>2021-07-01T09:19:10.000Z</time>
      </trkpt>
      <trkpt lat="44.24334" lon="6.70721">
        <ele>2258.25</ele>
        <time>2021-07-01T09:19:20.000Z</time>
      </trkpt>
      <trkpt lat="44.24342" lon="6.70708">
        <ele>2256.56</ele>
        <time>2021-07-01T09:19:30.000Z</time>
      </trkpt>
      <trkpt lat="44.2435" lon="6.70697">
        <ele>2255.41</ele>
        <time>2021-07-01T09:19:40.000Z</time>
      </trkpt>
      <trkpt lat="44.24357" lon="6.70685">
        <ele>2254.38</ele>
        <time>2021-07-01T09:19:50.000Z</time>
      </trkpt>
      <trkpt lat="44.24367" lon="6.70678">
        <ele>2255.19</ele>
        <time>2021-07-01T09:20:00.000Z</time>
      </trkpt>
      <trkpt lat="44.24376" lon="6.70672">
        <ele>2255.82</ele>
        <time>2021-07-01T09:20:10.000Z</time>
      </trkpt>
      <trkpt lat="44.24382" lon="6.70664">
        <ele>2255.7</ele>
        <time>2021-07-01T09:20:22.000Z</time>
      </trkpt>
      <trkpt lat="44.24392" lon="6.70656">
        <ele>2255.96</ele>
        <time>2021-07-01T09:20:32.000Z</time>
      </trkpt>
      <trkpt lat="44.24405" lon="6.70651">
        <ele>2256.84</ele>
        <time>2021-07-01T09:20:42.000Z</time>
      </trkpt>
      <trkpt lat="44.24418" lon="6.70651">
        <ele>2257.77</ele>
        <time>2021-07-01T09:20:52.000Z</time>
      </trkpt>
      <trkpt lat="44.24427" lon="6.70654">
        <ele>2258.51</ele>
        <time>2021-07-01T09:21:02.000Z</time>
      </trkpt>
      <trkpt lat="44.24438" lon="6.70658">
        <ele>2258.9</ele>
        <time>2021-07-01T09:21:12.000Z</time>
      </trkpt>
      <trkpt lat="44.24447" lon="6.7067">
        <ele>2260.27</ele>
        <time>2021-07-01T09:21:22.000Z</time>
      </trkpt>
      <trkpt lat="44.24457" lon="6.70679">
        <ele>2260.98</ele>
        <time>2021-07-01T09:21:32.000Z</time>
      </trkpt>
      <trkpt lat="44.24465" lon="6.70687">
        <ele>2261.4</ele>
        <time>2021-07-01T09:21:42.000Z</time>
      </trkpt>
      <trkpt lat="44.24472" lon="6.70697">
        <ele>2262.28</ele>
        <time>2021-07-01T09:21:57.000Z</time>
      </trkpt>
      <trkpt lat="44.24479" lon="6.70709">
        <ele>2263.86</ele>
        <time>2021-07-01T09:22:07.000Z</time>
      </trkpt>
      <trkpt lat="44.24482" lon="6.70722">
        <ele>2265.93</ele>
        <time>2021-07-01T09:22:17.000Z</time>
      </trkpt>
      <trkpt lat="44.24491" lon="6.70722">
        <ele>2265.68</ele>
        <time>2021-07-01T09:22:28.000Z</time>
      </trkpt>
      <trkpt lat="44.24498" lon="6.7073">
        <ele>2267.3</ele>
        <time>2021-07-01T09:22:40.000Z</time>
      </trkpt>
      <trkpt lat="44.24508" lon="6.70734">
        <ele>2267.93</ele>
        <time>2021-07-01T09:23:23.000Z</time>
      </trkpt>
      <trkpt lat="44.24517" lon="6.70734">
        <ele>2267.69</ele>
        <time>2021-07-01T09:23:34.000Z</time>
      </trkpt>
      <trkpt lat="44.24528" lon="6.70733">
        <ele>2267.46</ele>
        <time>2021-07-01T09:23:44.000Z</time>
      </trkpt>
      <trkpt lat="44.24537" lon="6.70736">
        <ele>2267.8</ele>
        <time>2021-07-01T09:23:54.000Z</time>
      </trkpt>
      <trkpt lat="44.24547" lon="6.70737">
        <ele>2267.56</ele>
        <time>2021-07-01T09:24:04.000Z</time>
      </trkpt>
      <trkpt lat="44.24556" lon="6.70739">
        <ele>2267.59</ele>
        <time>2021-07-01T09:24:14.000Z</time>
      </trkpt>
      <trkpt lat="44.24565" lon="6.70742">
        <ele>2267.7</ele>
        <time>2021-07-01T09:24:24.000Z</time>
      </trkpt>
      <trkpt lat="44.24575" lon="6.70745">
        <ele>2267.72</ele>
        <time>2021-07-01T09:24:36.000Z</time>
      </trkpt>
      <trkpt lat="44.24584" lon="6.70743">
        <ele>2266.87</ele>
        <time>2021-07-01T09:24:46.000Z</time>
      </trkpt>
      <trkpt lat="44.24593" lon="6.70746">
        <ele>2266.61</ele>
        <time>2021-07-01T09:25:05.000Z</time>
      </trkpt>
      <trkpt lat="44.246" lon="6.7076">
        <ele>2268.23</ele>
        <time>2021-07-01T09:25:15.000Z</time>
      </trkpt>
      <trkpt lat="44.24605" lon="6.70772">
        <ele>2269.62</ele>
        <time>2021-07-01T09:27:03.000Z</time>
      </trkpt>
      <trkpt lat="44.24618" lon="6.70772">
        <ele>2267.78</ele>
        <time>2021-07-01T09:27:13.000Z</time>
      </trkpt>
      <trkpt lat="44.24625" lon="6.70786">
        <ele>2268.83</ele>
        <time>2021-07-01T09:27:23.000Z</time>
      </trkpt>
      <trkpt lat="44.24628" lon="6.70799">
        <ele>2270.59</ele>
        <time>2021-07-01T09:27:57.000Z</time>
      </trkpt>
      <trkpt lat="44.24637" lon="6.7081">
        <ele>2270.82</ele>
        <time>2021-07-01T09:28:07.000Z</time>
      </trkpt>
      <trkpt lat="44.24645" lon="6.70818">
        <ele>2270.51</ele>
        <time>2021-07-01T09:28:17.000Z</time>
      </trkpt>
      <trkpt lat="44.24654" lon="6.7083">
        <ele>2270.6</ele>
        <time>2021-07-01T09:28:27.000Z</time>
      </trkpt>
      <trkpt lat="44.24663" lon="6.7084">
        <ele>2270.97</ele>
        <time>2021-07-01T09:28:37.000Z</time>
      </trkpt>
      <trkpt lat="44.24669" lon="6.70851">
        <ele>2271.9</ele>
        <time>2021-07-01T09:28:47.000Z</time>
      </trkpt>
      <trkpt lat="44.24677" lon="6.70858">
        <ele>2272.01</ele>
        <time>2021-07-01T09:29:29.000Z</time>
      </trkpt>
      <trkpt lat="44.24687" lon="6.70865">
        <ele>2271.6</ele>
        <time>2021-07-01T09:29:39.000Z</time>
      </trkpt>
      <trkpt lat="44.24696" lon="6.7087">
        <ele>2271.21</ele>
        <time>2021-07-01T09:30:13.000Z</time>
      </trkpt>
      <trkpt lat="44.24706" lon="6.70878">
        <ele>2271.18</ele>
        <time>2021-07-01T09:30:23.000Z</time>
      </trkpt>
      <trkpt lat="44.24715" lon="6.70889">
        <ele>2271.87</ele>
        <time>2021-07-01T09:30:33.000Z</time>
      </trkpt>
      <trkpt lat="44.24727" lon="6.70892">
        <ele>2270.59</ele>
        <time>2021-07-01T09:30:43.000Z</time>
      </trkpt>
      <trkpt lat="44.24738" lon="6.70893">
        <ele>2269.46</ele>
        <time>2021-07-01T09:30:53.000Z</time>
      </trkpt>
      <trkpt lat="44.24748" lon="6.70891">
        <ele>2268.09</ele>
        <time>2021-07-01T09:31:03.000Z</time>
      </trkpt>
      <trkpt lat="44.24759" lon="6.70889">
        <ele>2266.84</ele>
        <time>2021-07-01T09:31:13.000Z</time>
      </trkpt>
      <trkpt lat="44.24765" lon="6.70878">
        <ele>2265.14</ele>
        <time>2021-07-01T09:31:34.000Z</time>
      </trkpt>
      <trkpt lat="44.2477" lon="6.70864">
        <ele>2263.47</ele>
        <time>2021-07-01T09:31:44.000Z</time>
      </trkpt>
      <trkpt lat="44.2478" lon="6.70853">
        <ele>2262.24</ele>
        <time>2021-07-01T09:31:54.000Z</time>
      </trkpt>
      <trkpt lat="44.24789" lon="6.70848">
        <ele>2261.59</ele>
        <time>2021-07-01T09:32:04.000Z</time>
      </trkpt>
      <trkpt lat="44.24794" lon="6.70858">
        <ele>2262.28</ele>
        <time>2021-07-01T09:32:42.000Z</time>
      </trkpt>
      <trkpt lat="44.24802" lon="6.70871">
        <ele>2263.23</ele>
        <time>2021-07-01T09:32:52.000Z</time>
      </trkpt>
      <trkpt lat="44.24811" lon="6.70885">
        <ele>2264.28</ele>
        <time>2021-07-01T09:33:02.000Z</time>
      </trkpt>
      <trkpt lat="44.24815" lon="6.70896">
        <ele>2265.29</ele>
        <time>2021-07-01T09:33:17.000Z</time>
      </trkpt>
      <trkpt lat="44.24822" lon="6.7091">
        <ele>2266.55</ele>
        <time>2021-07-01T09:33:27.000Z</time>
      </trkpt>
      <trkpt lat="44.24829" lon="6.70919">
        <ele>2267.26</ele>
        <time>2021-07-01T09:33:37.000Z</time>
      </trkpt>
      <trkpt lat="44.24836" lon="6.7093">
        <ele>2268.17</ele>
        <time>2021-07-01T09:33:47.000Z</time>
      </trkpt>
      <trkpt lat="44.24843" lon="6.70943">
        <ele>2269.17</ele>
        <time>2021-07-01T09:33:57.000Z</time>
      </trkpt>
      <trkpt lat="44.24846" lon="6.70955">
        <ele>2270.12</ele>
        <time>2021-07-01T09:34:07.000Z</time>
      </trkpt>
      <trkpt lat="44.24846" lon="6.70968">
        <ele>2271.35</ele>
        <time>2021-07-01T09:34:18.000Z</time>
      </trkpt>
      <trkpt lat="44.24847" lon="6.70982">
        <ele>2272.53</ele>
        <time>2021-07-01T09:34:28.000Z</time>
      </trkpt>
      <trkpt lat="44.24852" lon="6.70995">
        <ele>2272.92</ele>
        <time>2021-07-01T09:34:38.000Z</time>
      </trkpt>
      <trkpt lat="44.24857" lon="6.71005">
        <ele>2272.87</ele>
        <time>2021-07-01T09:34:51.000Z</time>
      </trkpt>
      <trkpt lat="44.24861" lon="6.71017">
        <ele>2273.11</ele>
        <time>2021-07-01T09:35:04.000Z</time>
      </trkpt>
      <trkpt lat="44.24858" lon="6.7103">
        <ele>2274.32</ele>
        <time>2021-07-01T09:35:15.000Z</time>
      </trkpt>
      <trkpt lat="44.24853" lon="6.71041">
        <ele>2276.07</ele>
        <time>2021-07-01T09:35:28.000Z</time>
      </trkpt>
      <trkpt lat="44.24845" lon="6.71051">
        <ele>2278.08</ele>
        <time>2021-07-01T09:35:38.000Z</time>
      </trkpt>
      <trkpt lat="44.24836" lon="6.71058">
        <ele>2280.31</ele>
        <time>2021-07-01T09:35:48.000Z</time>
      </trkpt>
      <trkpt lat="44.24829" lon="6.71066">
        <ele>2282.44</ele>
        <time>2021-07-01T09:35:58.000Z</time>
      </trkpt>
      <trkpt lat="44.24821" lon="6.71075">
        <ele>2284.72</ele>
        <time>2021-07-01T09:36:08.000Z</time>
      </trkpt>
      <trkpt lat="44.24812" lon="6.71079">
        <ele>2287.32</ele>
        <time>2021-07-01T09:36:18.000Z</time>
      </trkpt>
      <trkpt lat="44.24804" lon="6.71087">
        <ele>2289.86</ele>
        <time>2021-07-01T09:36:31.000Z</time>
      </trkpt>
      <trkpt lat="44.24796" lon="6.71092">
        <ele>2292.32</ele>
        <time>2021-07-01T09:36:48.000Z</time>
      </trkpt>
      <trkpt lat="44.24786" lon="6.71097">
        <ele>2294.91</ele>
        <time>2021-07-01T09:36:58.000Z</time>
      </trkpt>
      <trkpt lat="44.24778" lon="6.71105">
        <ele>2296.67</ele>
        <time>2021-07-01T09:37:08.000Z</time>
      </trkpt>
      <trkpt lat="44.24772" lon="6.71115">
        <ele>2296.94</ele>
        <time>2021-07-01T09:37:23.000Z</time>
      </trkpt>
      <trkpt lat="44.24763" lon="6.71122">
        <ele>2298.27</ele>
        <time>2021-07-01T09:37:33.000Z</time>
      </trkpt>
      <trkpt lat="44.24753" lon="6.71123">
        <ele>2300.94</ele>
        <time>2021-07-01T09:37:44.000Z</time>
      </trkpt>
      <trkpt lat="44.24745" lon="6.71129">
        <ele>2302.45</ele>
        <time>2021-07-01T09:37:56.000Z</time>
      </trkpt>
      <trkpt lat="44.24736" lon="6.71135">
        <ele>2303.64</ele>
        <time>2021-07-01T09:38:07.000Z</time>
      </trkpt>
      <trkpt lat="44.24728" lon="6.71142">
        <ele>2305.04</ele>
        <time>2021-07-01T09:38:18.000Z</time>
      </trkpt>
      <trkpt lat="44.2472" lon="6.71149">
        <ele>2306.52</ele>
        <time>2021-07-01T09:38:28.000Z</time>
      </trkpt>
      <trkpt lat="44.24716" lon="6.7116">
        <ele>2307.08</ele>
        <time>2021-07-01T09:38:55.000Z</time>
      </trkpt>
      <trkpt lat="44.2471" lon="6.71171">
        <ele>2309.3</ele>
        <time>2021-07-01T09:39:08.000Z</time>
      </trkpt>
      <trkpt lat="44.24709" lon="6.71184">
        <ele>2311.08</ele>
        <time>2021-07-01T09:39:21.000Z</time>
      </trkpt>
      <trkpt lat="44.24709" lon="6.71197">
        <ele>2312.72</ele>
        <time>2021-07-01T09:39:33.000Z</time>
      </trkpt>
      <trkpt lat="44.24713" lon="6.71209">
        <ele>2313.66</ele>
        <time>2021-07-01T09:39:45.000Z</time>
      </trkpt>
      <trkpt lat="44.24709" lon="6.71221">
        <ele>2317.87</ele>
        <time>2021-07-01T09:39:55.000Z</time>
      </trkpt>
      <trkpt lat="44.24709" lon="6.71234">
        <ele>2321.23</ele>
        <time>2021-07-01T09:40:06.000Z</time>
      </trkpt>
      <trkpt lat="44.24717" lon="6.7124">
        <ele>2318.98</ele>
        <time>2021-07-01T09:41:34.000Z</time>
      </trkpt>
      <trkpt lat="44.24724" lon="6.7125">
        <ele>2318.63</ele>
        <time>2021-07-01T09:41:44.000Z</time>
      </trkpt>
      <trkpt lat="44.2473" lon="6.71264">
        <ele>2319.81</ele>
        <time>2021-07-01T09:41:54.000Z</time>
      </trkpt>
      <trkpt lat="44.24735" lon="6.71276">
        <ele>2321.76</ele>
        <time>2021-07-01T09:42:06.000Z</time>
      </trkpt>
      <trkpt lat="44.2474" lon="6.71287">
        <ele>2323.17</ele>
        <time>2021-07-01T09:42:17.000Z</time>
      </trkpt>
      <trkpt lat="44.24743" lon="6.71299">
        <ele>2326.31</ele>
        <time>2021-07-01T09:42:28.000Z</time>
      </trkpt>
      <trkpt lat="44.24752" lon="6.71302">
        <ele>2323.53</ele>
        <time>2021-07-01T09:42:44.000Z</time>
      </trkpt>
      <trkpt lat="44.2476" lon="6.71313">
        <ele>2324.07</ele>
        <time>2021-07-01T09:42:54.000Z</time>
      </trkpt>
      <trkpt lat="44.24768" lon="6.71321">
        <ele>2323.04</ele>
        <time>2021-07-01T09:43:05.000Z</time>
      </trkpt>
      <trkpt lat="44.24773" lon="6.71331">
        <ele>2323.36</ele>
        <time>2021-07-01T09:43:16.000Z</time>
      </trkpt>
      <trkpt lat="44.24778" lon="6.71342">
        <ele>2324.08</ele>
        <time>2021-07-01T09:43:26.000Z</time>
      </trkpt>
      <trkpt lat="44.24779" lon="6.71355">
        <ele>2326.79</ele>
        <time>2021-07-01T09:43:38.000Z</time>
      </trkpt>
      <trkpt lat="44.24786" lon="6.71364">
        <ele>2325.6</ele>
        <time>2021-07-01T09:43:51.000Z</time>
      </trkpt>
      <trkpt lat="44.24789" lon="6.71376">
        <ele>2326.92</ele>
        <time>2021-07-01T09:44:04.000Z</time>
      </trkpt>
      <trkpt lat="44.24791" lon="6.71389">
        <ele>2328.74</ele>
        <time>2021-07-01T09:46:41.000Z</time>
      </trkpt>
      <trkpt lat="44.24786" lon="6.714">
        <ele>2333.33</ele>
        <time>2021-07-01T09:46:51.000Z</time>
      </trkpt>
      <trkpt lat="44.24795" lon="6.71408">
        <ele>2330.11</ele>
        <time>2021-07-01T09:47:09.000Z</time>
      </trkpt>
      <trkpt lat="44.24803" lon="6.71421">
        <ele>2327.78</ele>
        <time>2021-07-01T09:47:19.000Z</time>
      </trkpt>
      <trkpt lat="44.24807" lon="6.71438">
        <ele>2328.12</ele>
        <time>2021-07-01T09:47:29.000Z</time>
      </trkpt>
      <trkpt lat="44.24811" lon="6.71452">
        <ele>2326.96</ele>
        <time>2021-07-01T09:47:39.000Z</time>
      </trkpt>
      <trkpt lat="44.24812" lon="6.71465">
        <ele>2327.8</ele>
        <time>2021-07-01T09:47:49.000Z</time>
      </trkpt>
      <trkpt lat="44.24809" lon="6.7148">
        <ele>2329.77</ele>
        <time>2021-07-01T09:47:59.000Z</time>
      </trkpt>
      <trkpt lat="44.24805" lon="6.71493">
        <ele>2332.14</ele>
        <time>2021-07-01T09:48:09.000Z</time>
      </trkpt>
      <trkpt lat="44.24798" lon="6.71504">
        <ele>2335.91</ele>
        <time>2021-07-01T09:48:19.000Z</time>
      </trkpt>
      <trkpt lat="44.2479" lon="6.71513">
        <ele>2339.68</ele>
        <time>2021-07-01T09:48:29.000Z</time>
      </trkpt>
      <trkpt lat="44.24782" lon="6.71524">
        <ele>2343.3</ele>
        <time>2021-07-01T09:48:39.000Z</time>
      </trkpt>
      <trkpt lat="44.24776" lon="6.71534">
        <ele>2345.16</ele>
        <time>2021-07-01T09:48:50.000Z</time>
      </trkpt>
      <trkpt lat="44.2477" lon="6.71545">
        <ele>2347.45</ele>
        <time>2021-07-01T09:49:00.000Z</time>
      </trkpt>
      <trkpt lat="44.24763" lon="6.71554">
        <ele>2349.4</ele>
        <time>2021-07-01T09:49:10.000Z</time>
      </trkpt>
      <trkpt lat="44.24761" lon="6.71566">
        <ele>2349.46</ele>
        <time>2021-07-01T09:49:21.000Z</time>
      </trkpt>
      <trkpt lat="44.24754" lon="6.71575">
        <ele>2351.82</ele>
        <time>2021-07-01T09:49:33.000Z</time>
      </trkpt>
      <trkpt lat="44.24751" lon="6.71587">
        <ele>2352.67</ele>
        <time>2021-07-01T09:49:43.000Z</time>
      </trkpt>
      <trkpt lat="44.24754" lon="6.716">
        <ele>2350.94</ele>
        <time>2021-07-01T09:49:55.000Z</time>
      </trkpt>
      <trkpt lat="44.24751" lon="6.71613">
        <ele>2351.83</ele>
        <time>2021-07-01T09:50:05.000Z</time>
      </trkpt>
      <trkpt lat="44.24746" lon="6.71625">
        <ele>2353.3</ele>
        <time>2021-07-01T09:50:16.000Z</time>
      </trkpt>
      <trkpt lat="44.24739" lon="6.71633">
        <ele>2356.02</ele>
        <time>2021-07-01T09:50:26.000Z</time>
      </trkpt>
      <trkpt lat="44.24733" lon="6.71644">
        <ele>2358.03</ele>
        <time>2021-07-01T09:53:19.000Z</time>
      </trkpt>
      <trkpt lat="44.24722" lon="6.71639">
        <ele>2361.98</ele>
        <time>2021-07-01T09:53:29.000Z</time>
      </trkpt>
      <trkpt lat="44.24723" lon="6.71652">
        <ele>2361.89</ele>
        <time>2021-07-01T09:53:47.000Z</time>
      </trkpt>
      <trkpt lat="44.24728" lon="6.71663">
        <ele>2360.67</ele>
        <time>2021-07-01T09:53:58.000Z</time>
      </trkpt>
      <trkpt lat="44.24735" lon="6.71672">
        <ele>2359.35</ele>
        <time>2021-07-01T09:54:13.000Z</time>
      </trkpt>
      <trkpt lat="44.24747" lon="6.71682">
        <ele>2357.34</ele>
        <time>2021-07-01T09:54:23.000Z</time>
      </trkpt>
      <trkpt lat="44.24756" lon="6.71691">
        <ele>2356.35</ele>
        <time>2021-07-01T09:54:33.000Z</time>
      </trkpt>
      <trkpt lat="44.24769" lon="6.71699">
        <ele>2354.47</ele>
        <time>2021-07-01T09:54:43.000Z</time>
      </trkpt>
      <trkpt lat="44.24781" lon="6.71704">
        <ele>2352.31</ele>
        <time>2021-07-01T09:54:53.000Z</time>
      </trkpt>
      <trkpt lat="44.24787" lon="6.71716">
        <ele>2353.18</ele>
        <time>2021-07-01T09:55:03.000Z</time>
      </trkpt>
      <trkpt lat="44.24789" lon="6.71733">
        <ele>2356.41</ele>
        <time>2021-07-01T09:55:13.000Z</time>
      </trkpt>
      <trkpt lat="44.24785" lon="6.71749">
        <ele>2360.6</ele>
        <time>2021-07-01T09:55:23.000Z</time>
      </trkpt>
      <trkpt lat="44.24783" lon="6.71765">
        <ele>2363.11</ele>
        <time>2021-07-01T09:55:33.000Z</time>
      </trkpt>
      <trkpt lat="44.24785" lon="6.7178">
        <ele>2363.37</ele>
        <time>2021-07-01T09:55:43.000Z</time>
      </trkpt>
      <trkpt lat="44.24786" lon="6.71796">
        <ele>2363.35</ele>
        <time>2021-07-01T09:55:53.000Z</time>
      </trkpt>
      <trkpt lat="44.24786" lon="6.7181">
        <ele>2363.95</ele>
        <time>2021-07-01T09:56:03.000Z</time>
      </trkpt>
      <trkpt lat="44.24779" lon="6.71822">
        <ele>2367.86</ele>
        <time>2021-07-01T09:56:13.000Z</time>
      </trkpt>
      <trkpt lat="44.2478" lon="6.71835">
        <ele>2369.06</ele>
        <time>2021-07-01T09:56:23.000Z</time>
      </trkpt>
      <trkpt lat="44.24782" lon="6.71849">
        <ele>2370.16</ele>
        <time>2021-07-01T09:56:33.000Z</time>
      </trkpt>
      <trkpt lat="44.24788" lon="6.71859">
        <ele>2369.68</ele>
        <time>2021-07-01T09:56:48.000Z</time>
      </trkpt>
      <trkpt lat="44.24789" lon="6.71872">
        <ele>2371.67</ele>
        <time>2021-07-01T09:56:58.000Z</time>
      </trkpt>
      <trkpt lat="44.24797" lon="6.71878">
        <ele>2369.91</ele>
        <time>2021-07-01T09:57:17.000Z</time>
      </trkpt>
      <trkpt lat="44.24806" lon="6.71875">
        <ele>2366.29</ele>
        <time>2021-07-01T09:57:28.000Z</time>
      </trkpt>
      <trkpt lat="44.24811" lon="6.71889">
        <ele>2367.93</ele>
        <time>2021-07-01T09:57:38.000Z</time>
      </trkpt>
      <trkpt lat="44.24809" lon="6.71904">
        <ele>2372.54</ele>
        <time>2021-07-01T09:57:48.000Z</time>
      </trkpt>
      <trkpt lat="44.24805" lon="6.71916">
        <ele>2376.67</ele>
        <time>2021-07-01T09:57:58.000Z</time>
      </trkpt>
      <trkpt lat="44.24804" lon="6.71929">
        <ele>2380.19</ele>
        <time>2021-07-01T09:58:09.000Z</time>
      </trkpt>
      <trkpt lat="44.24812" lon="6.71936">
        <ele>2379.73</ele>
        <time>2021-07-01T09:58:19.000Z</time>
      </trkpt>
      <trkpt lat="44.2482" lon="6.71944">
        <ele>2380.3</ele>
        <time>2021-07-01T09:58:29.000Z</time>
      </trkpt>
      <trkpt lat="44.24827" lon="6.71953">
        <ele>2381.61</ele>
        <time>2021-07-01T09:58:39.000Z</time>
      </trkpt>
      <trkpt lat="44.24837" lon="6.71953">
        <ele>2379.95</ele>
        <time>2021-07-01T09:58:49.000Z</time>
      </trkpt>
      <trkpt lat="44.24845" lon="6.7196">
        <ele>2381.34</ele>
        <time>2021-07-01T09:59:00.000Z</time>
      </trkpt>
      <trkpt lat="44.24852" lon="6.71969">
        <ele>2383.65</ele>
        <time>2021-07-01T09:59:10.000Z</time>
      </trkpt>
      <trkpt lat="44.24861" lon="6.71974">
        <ele>2385.21</ele>
        <time>2021-07-01T09:59:20.000Z</time>
      </trkpt>
      <trkpt lat="44.24871" lon="6.71981">
        <ele>2388.2</ele>
        <time>2021-07-01T09:59:30.000Z</time>
      </trkpt>
      <trkpt lat="44.24878" lon="6.71992">
        <ele>2392.69</ele>
        <time>2021-07-01T09:59:40.000Z</time>
      </trkpt>
      <trkpt lat="44.24886" lon="6.71999">
        <ele>2396.51</ele>
        <time>2021-07-01T09:59:52.000Z</time>
      </trkpt>
      <trkpt lat="44.24895" lon="6.72003">
        <ele>2399.07</ele>
        <time>2021-07-01T10:00:04.000Z</time>
      </trkpt>
      <trkpt lat="44.24904" lon="6.71999">
        <ele>2398.41</ele>
        <time>2021-07-01T10:00:14.000Z</time>
      </trkpt>
      <trkpt lat="44.24912" lon="6.71992">
        <ele>2396.68</ele>
        <time>2021-07-01T10:00:25.000Z</time>
      </trkpt>
      <trkpt lat="44.24921" lon="6.71986">
        <ele>2395.49</ele>
        <time>2021-07-01T10:00:35.000Z</time>
      </trkpt>
      <trkpt lat="44.24931" lon="6.71987">
        <ele>2397.9</ele>
        <time>2021-07-01T10:00:47.000Z</time>
      </trkpt>
      <trkpt lat="44.2494" lon="6.7199">
        <ele>2401.09</ele>
        <time>2021-07-01T10:00:57.000Z</time>
      </trkpt>
      <trkpt lat="44.2495" lon="6.7199">
        <ele>2403.84</ele>
        <time>2021-07-01T10:01:08.000Z</time>
      </trkpt>
      <trkpt lat="44.24958" lon="6.71988">
        <ele>2405.21</ele>
        <time>2021-07-01T10:01:19.000Z</time>
      </trkpt>
      <trkpt lat="44.24967" lon="6.71984">
        <ele>2406.1</ele>
        <time>2021-07-01T10:01:29.000Z</time>
      </trkpt>
      <trkpt lat="44.24976" lon="6.7198">
        <ele>2406.85</ele>
        <time>2021-07-01T10:04:03.000Z</time>
      </trkpt>
      <trkpt lat="44.24985" lon="6.71976">
        <ele>2407.85</ele>
        <time>2021-07-01T10:04:17.000Z</time>
      </trkpt>
      <trkpt lat="44.24992" lon="6.71969">
        <ele>2407.05</ele>
        <time>2021-07-01T10:04:27.000Z</time>
      </trkpt>
      <trkpt lat="44.25002" lon="6.71968">
        <ele>2409.5</ele>
        <time>2021-07-01T10:04:39.000Z</time>
      </trkpt>
      <trkpt lat="44.25009" lon="6.71958">
        <ele>2406.99</ele>
        <time>2021-07-01T10:04:51.000Z</time>
      </trkpt>
      <trkpt lat="44.25019" lon="6.71951">
        <ele>2407.69</ele>
        <time>2021-07-01T10:05:01.000Z</time>
      </trkpt>
      <trkpt lat="44.25028" lon="6.71949">
        <ele>2410.13</ele>
        <time>2021-07-01T10:05:13.000Z</time>
      </trkpt>
      <trkpt lat="44.25037" lon="6.71944">
        <ele>2411.42</ele>
        <time>2021-07-01T10:05:24.000Z</time>
      </trkpt>
      <trkpt lat="44.25046" lon="6.71944">
        <ele>2414.83</ele>
        <time>2021-07-01T10:05:34.000Z</time>
      </trkpt>
      <trkpt lat="44.25055" lon="6.71936">
        <ele>2414.86</ele>
        <time>2021-07-01T10:05:48.000Z</time>
      </trkpt>
      <trkpt lat="44.25064" lon="6.71934">
        <ele>2417.86</ele>
        <time>2021-07-01T10:06:14.000Z</time>
      </trkpt>
      <trkpt lat="44.25072" lon="6.71928">
        <ele>2418.78</ele>
        <time>2021-07-01T10:06:24.000Z</time>
      </trkpt>
      <trkpt lat="44.2508" lon="6.71921">
        <ele>2419.2</ele>
        <time>2021-07-01T10:06:34.000Z</time>
      </trkpt>
      <trkpt lat="44.25087" lon="6.71911">
        <ele>2418.59</ele>
        <time>2021-07-01T10:06:44.000Z</time>
      </trkpt>
      <trkpt lat="44.25094" lon="6.71902">
        <ele>2418.16</ele>
        <time>2021-07-01T10:06:57.000Z</time>
      </trkpt>
      <trkpt lat="44.25102" lon="6.71896">
        <ele>2419.8</ele>
        <time>2021-07-01T10:07:08.000Z</time>
      </trkpt>
      <trkpt lat="44.2511" lon="6.71889">
        <ele>2420.86</ele>
        <time>2021-07-01T10:07:22.000Z</time>
      </trkpt>
      <trkpt lat="44.25117" lon="6.71879">
        <ele>2420.94</ele>
        <time>2021-07-01T10:07:38.000Z</time>
      </trkpt>
      <trkpt lat="44.25126" lon="6.71875">
        <ele>2423.83</ele>
        <time>2021-07-01T10:07:52.000Z</time>
      </trkpt>
      <trkpt lat="44.25136" lon="6.71874">
        <ele>2427.72</ele>
        <time>2021-07-01T10:08:02.000Z</time>
      </trkpt>
      <trkpt lat="44.25145" lon="6.71877">
        <ele>2432.38</ele>
        <time>2021-07-01T10:08:15.000Z</time>
      </trkpt>
      <trkpt lat="44.25154" lon="6.71878">
        <ele>2436.62</ele>
        <time>2021-07-01T10:08:29.000Z</time>
      </trkpt>
      <trkpt lat="44.2516" lon="6.71866">
        <ele>2435.25</ele>
        <time>2021-07-01T10:08:39.000Z</time>
      </trkpt>
      <trkpt lat="44.25165" lon="6.71854">
        <ele>2434.07</ele>
        <time>2021-07-01T10:09:33.000Z</time>
      </trkpt>
      <trkpt lat="44.25173" lon="6.71847">
        <ele>2435.43</ele>
        <time>2021-07-01T10:09:43.000Z</time>
      </trkpt>
      <trkpt lat="44.2518" lon="6.71839">
        <ele>2435.91</ele>
        <time>2021-07-01T10:09:54.000Z</time>
      </trkpt>
      <trkpt lat="44.25186" lon="6.7183">
        <ele>2435.77</ele>
        <time>2021-07-01T10:10:05.000Z</time>
      </trkpt>
      <trkpt lat="44.25195" lon="6.71824">
        <ele>2437.05</ele>
        <time>2021-07-01T10:12:03.000Z</time>
      </trkpt>
      <trkpt lat="44.25204" lon="6.71822">
        <ele>2439.19</ele>
        <time>2021-07-01T10:12:24.000Z</time>
      </trkpt>
      <trkpt lat="44.25214" lon="6.71824">
        <ele>2442.1</ele>
        <time>2021-07-01T10:12:38.000Z</time>
      </trkpt>
      <trkpt lat="44.25224" lon="6.71819">
        <ele>2443.45</ele>
        <time>2021-07-01T10:12:48.000Z</time>
      </trkpt>
      <trkpt lat="44.25234" lon="6.71817">
        <ele>2445.47</ele>
        <time>2021-07-01T10:12:58.000Z</time>
      </trkpt>
      <trkpt lat="44.25243" lon="6.7181">
        <ele>2446.16</ele>
        <time>2021-07-01T10:13:08.000Z</time>
      </trkpt>
      <trkpt lat="44.25241" lon="6.71823">
        <ele>2449.17</ele>
        <time>2021-07-01T10:13:28.000Z</time>
      </trkpt>
      <trkpt lat="44.25237" lon="6.71834">
        <ele>2451.01</ele>
        <time>2021-07-01T10:13:42.000Z</time>
      </trkpt>
      <trkpt lat="44.25232" lon="6.71845">
        <ele>2452.16</ele>
        <time>2021-07-01T10:13:52.000Z</time>
      </trkpt>
      <trkpt lat="44.25226" lon="6.71856">
        <ele>2452.9</ele>
        <time>2021-07-01T10:14:04.000Z</time>
      </trkpt>
      <trkpt lat="44.25223" lon="6.71868">
        <ele>2454.76</ele>
        <time>2021-07-01T10:14:16.000Z</time>
      </trkpt>
      <trkpt lat="44.25217" lon="6.71879">
        <ele>2455.64</ele>
        <time>2021-07-01T10:14:29.000Z</time>
      </trkpt>
      <trkpt lat="44.25209" lon="6.71883">
        <ele>2454.56</ele>
        <time>2021-07-01T10:15:19.000Z</time>
      </trkpt>
      <trkpt lat="44.25206" lon="6.71897">
        <ele>2457.31</ele>
        <time>2021-07-01T10:15:29.000Z</time>
      </trkpt>
      <trkpt lat="44.25209" lon="6.71909">
        <ele>2461.3</ele>
        <time>2021-07-01T10:15:43.000Z</time>
      </trkpt>
      <trkpt lat="44.25213" lon="6.71921">
        <ele>2465.52</ele>
        <time>2021-07-01T10:15:55.000Z</time>
      </trkpt>
      <trkpt lat="44.25217" lon="6.71932">
        <ele>2469.64</ele>
        <time>2021-07-01T10:16:07.000Z</time>
      </trkpt>
      <trkpt lat="44.25211" lon="6.71942">
        <ele>2471.75</ele>
        <time>2021-07-01T10:16:18.000Z</time>
      </trkpt>
      <trkpt lat="44.2522" lon="6.71947">
        <ele>2474.81</ele>
        <time>2021-07-01T10:16:49.000Z</time>
      </trkpt>
      <trkpt lat="44.2523" lon="6.7195">
        <ele>2477.14</ele>
        <time>2021-07-01T10:17:02.000Z</time>
      </trkpt>
      <trkpt lat="44.25239" lon="6.7195">
        <ele>2478.66</ele>
        <time>2021-07-01T10:17:18.000Z</time>
      </trkpt>
      <trkpt lat="44.25247" lon="6.71945">
        <ele>2478.68</ele>
        <time>2021-07-01T10:17:30.000Z</time>
      </trkpt>
      <trkpt lat="44.25251" lon="6.71933">
        <ele>2476.23</ele>
        <time>2021-07-01T10:17:48.000Z</time>
      </trkpt>
      <trkpt lat="44.25252" lon="6.71917">
        <ele>2472.53</ele>
        <time>2021-07-01T10:17:58.000Z</time>
      </trkpt>
      <trkpt lat="44.25259" lon="6.71926">
        <ele>2476.16</ele>
        <time>2021-07-01T10:18:11.000Z</time>
      </trkpt>
      <trkpt lat="44.25264" lon="6.71939">
        <ele>2480.46</ele>
        <time>2021-07-01T10:18:21.000Z</time>
      </trkpt>
      <trkpt lat="44.25269" lon="6.71951">
        <ele>2484.06</ele>
        <time>2021-07-01T10:18:35.000Z</time>
      </trkpt>
      <trkpt lat="44.25267" lon="6.71963">
        <ele>2487.18</ele>
        <time>2021-07-01T10:18:47.000Z</time>
      </trkpt>
      <trkpt lat="44.25258" lon="6.71969">
        <ele>2487.58</ele>
        <time>2021-07-01T10:18:59.000Z</time>
      </trkpt>
      <trkpt lat="44.25251" lon="6.71977">
        <ele>2488.78</ele>
        <time>2021-07-01T10:19:12.000Z</time>
      </trkpt>
      <trkpt lat="44.25244" lon="6.71985">
        <ele>2490.57</ele>
        <time>2021-07-01T10:19:22.000Z</time>
      </trkpt>
      <trkpt lat="44.25235" lon="6.71993">
        <ele>2492.58</ele>
        <time>2021-07-01T10:19:33.000Z</time>
      </trkpt>
      <trkpt lat="44.25228" lon="6.72002">
        <ele>2495.38</ele>
        <time>2021-07-01T10:19:51.000Z</time>
      </trkpt>
      <trkpt lat="44.2522" lon="6.72008">
        <ele>2497.36</ele>
        <time>2021-07-01T10:20:03.000Z</time>
      </trkpt>
      <trkpt lat="44.2521" lon="6.72013">
        <ele>2498.56</ele>
        <time>2021-07-01T10:20:14.000Z</time>
      </trkpt>
      <trkpt lat="44.25201" lon="6.72015">
        <ele>2498.93</ele>
        <time>2021-07-01T10:20:24.000Z</time>
      </trkpt>
      <trkpt lat="44.25193" lon="6.72021">
        <ele>2500.69</ele>
        <time>2021-07-01T10:20:36.000Z</time>
      </trkpt>
      <trkpt lat="44.25183" lon="6.72022">
        <ele>2500.16</ele>
        <time>2021-07-01T10:20:50.000Z</time>
      </trkpt>
      <trkpt lat="44.25173" lon="6.72022">
        <ele>2498.25</ele>
        <time>2021-07-01T10:21:02.000Z</time>
      </trkpt>
      <trkpt lat="44.25164" lon="6.72025">
        <ele>2497.32</ele>
        <time>2021-07-01T10:21:29.000Z</time>
      </trkpt>
      <trkpt lat="44.25171" lon="6.72033">
        <ele>2503.36</ele>
        <time>2021-07-01T10:21:48.000Z</time>
      </trkpt>
      <trkpt lat="44.2518" lon="6.72036">
        <ele>2506.82</ele>
        <time>2021-07-01T10:21:59.000Z</time>
      </trkpt>
      <trkpt lat="44.25189" lon="6.72038">
        <ele>2509.31</ele>
        <time>2021-07-01T10:22:10.000Z</time>
      </trkpt>
      <trkpt lat="44.25199" lon="6.72041">
        <ele>2511.87</ele>
        <time>2021-07-01T10:22:22.000Z</time>
      </trkpt>
      <trkpt lat="44.25208" lon="6.72044">
        <ele>2514.19</ele>
        <time>2021-07-01T10:22:44.000Z</time>
      </trkpt>
      <trkpt lat="44.25217" lon="6.72045">
        <ele>2515.27</ele>
        <time>2021-07-01T10:22:55.000Z</time>
      </trkpt>
      <trkpt lat="44.25227" lon="6.72048">
        <ele>2517.28</ele>
        <time>2021-07-01T10:23:08.000Z</time>
      </trkpt>
      <trkpt lat="44.25235" lon="6.72042">
        <ele>2514.63</ele>
        <time>2021-07-01T10:23:20.000Z</time>
      </trkpt>
      <trkpt lat="44.25244" lon="6.72041">
        <ele>2515.07</ele>
        <time>2021-07-01T10:23:36.000Z</time>
      </trkpt>
      <trkpt lat="44.25253" lon="6.72043">
        <ele>2516.77</ele>
        <time>2021-07-01T10:23:50.000Z</time>
      </trkpt>
      <trkpt lat="44.25263" lon="6.72046">
        <ele>2518.82</ele>
        <time>2021-07-01T10:24:02.000Z</time>
      </trkpt>
      <trkpt lat="44.25273" lon="6.72046">
        <ele>2519.52</ele>
        <time>2021-07-01T10:24:18.000Z</time>
      </trkpt>
      <trkpt lat="44.25282" lon="6.72047">
        <ele>2520.55</ele>
        <time>2021-07-01T10:24:34.000Z</time>
      </trkpt>
      <trkpt lat="44.25291" lon="6.72045">
        <ele>2520.36</ele>
        <time>2021-07-01T10:24:46.000Z</time>
      </trkpt>
      <trkpt lat="44.253" lon="6.7205">
        <ele>2522.91</ele>
        <time>2021-07-01T10:25:02.000Z</time>
      </trkpt>
      <trkpt lat="44.25306" lon="6.72059">
        <ele>2527.53</ele>
        <time>2021-07-01T10:25:20.000Z</time>
      </trkpt>
      <trkpt lat="44.25316" lon="6.72062">
        <ele>2530</ele>
        <time>2021-07-01T10:25:35.000Z</time>
      </trkpt>
      <trkpt lat="44.25325" lon="6.72066">
        <ele>2532.47</ele>
        <time>2021-07-01T10:26:36.000Z</time>
      </trkpt>
      <trkpt lat="44.25332" lon="6.72075">
        <ele>2537.23</ele>
        <time>2021-07-01T10:26:47.000Z</time>
      </trkpt>
      <trkpt lat="44.25325" lon="6.72083">
        <ele>2539.69</ele>
        <time>2021-07-01T10:27:12.000Z</time>
      </trkpt>
      <trkpt lat="44.25316" lon="6.72086">
        <ele>2540.18</ele>
        <time>2021-07-01T10:27:24.000Z</time>
      </trkpt>
      <trkpt lat="44.25323" lon="6.72095">
        <ele>2544.39</ele>
        <time>2021-07-01T10:28:03.000Z</time>
      </trkpt>
      <trkpt lat="44.25331" lon="6.72099">
        <ele>2547.09</ele>
        <time>2021-07-01T10:28:16.000Z</time>
      </trkpt>
      <trkpt lat="44.25338" lon="6.72107">
        <ele>2551.35</ele>
        <time>2021-07-01T10:28:29.000Z</time>
      </trkpt>
      <trkpt lat="44.25346" lon="6.72114">
        <ele>2555.42</ele>
        <time>2021-07-01T10:28:46.000Z</time>
      </trkpt>
      <trkpt lat="44.25354" lon="6.7212">
        <ele>2558.52</ele>
        <time>2021-07-01T10:29:01.000Z</time>
      </trkpt>
      <trkpt lat="44.25363" lon="6.72124">
        <ele>2561.32</ele>
        <time>2021-07-01T10:29:19.000Z</time>
      </trkpt>
      <trkpt lat="44.25371" lon="6.7213">
        <ele>2564.44</ele>
        <time>2021-07-01T10:29:33.000Z</time>
      </trkpt>
      <trkpt lat="44.2538" lon="6.72135">
        <ele>2567.75</ele>
        <time>2021-07-01T10:29:46.000Z</time>
      </trkpt>
      <trkpt lat="44.25389" lon="6.7214">
        <ele>2571.06</ele>
        <time>2021-07-01T10:29:57.000Z</time>
      </trkpt>
      <trkpt lat="44.25381" lon="6.72145">
        <ele>2571.37</ele>
        <time>2021-07-01T10:30:40.000Z</time>
      </trkpt>
      <trkpt lat="44.25371" lon="6.72145">
        <ele>2570.05</ele>
        <time>2021-07-01T10:30:52.000Z</time>
      </trkpt>
      <trkpt lat="44.25362" lon="6.72146">
        <ele>2569.7</ele>
        <time>2021-07-01T10:31:04.000Z</time>
      </trkpt>
      <trkpt lat="44.25353" lon="6.72149">
        <ele>2570.02</ele>
        <time>2021-07-01T10:31:16.000Z</time>
      </trkpt>
      <trkpt lat="44.25344" lon="6.72145">
        <ele>2568.03</ele>
        <time>2021-07-01T10:31:27.000Z</time>
      </trkpt>
      <trkpt lat="44.25351" lon="6.72153">
        <ele>2571.64</ele>
        <time>2021-07-01T10:31:57.000Z</time>
      </trkpt>
      <trkpt lat="44.2536" lon="6.72157">
        <ele>2573.44</ele>
        <time>2021-07-01T10:32:12.000Z</time>
      </trkpt>
      <trkpt lat="44.25368" lon="6.72163">
        <ele>2575.9</ele>
        <time>2021-07-01T10:32:24.000Z</time>
      </trkpt>
      <trkpt lat="44.25377" lon="6.72169">
        <ele>2578.4</ele>
        <time>2021-07-01T10:32:38.000Z</time>
      </trkpt>
      <trkpt lat="44.25385" lon="6.72174">
        <ele>2580.38</ele>
        <time>2021-07-01T10:32:49.000Z</time>
      </trkpt>
      <trkpt lat="44.25377" lon="6.72182">
        <ele>2581.83</ele>
        <time>2021-07-01T10:33:18.000Z</time>
      </trkpt>
      <trkpt lat="44.25385" lon="6.7219">
        <ele>2584.19</ele>
        <time>2021-07-01T10:33:45.000Z</time>
      </trkpt>
      <trkpt lat="44.25393" lon="6.72193">
        <ele>2585.73</ele>
        <time>2021-07-01T10:33:58.000Z</time>
      </trkpt>
      <trkpt lat="44.25401" lon="6.72201">
        <ele>2587.99</ele>
        <time>2021-07-01T10:34:09.000Z</time>
      </trkpt>
      <trkpt lat="44.2541" lon="6.72205">
        <ele>2589.98</ele>
        <time>2021-07-01T10:34:24.000Z</time>
      </trkpt>
      <trkpt lat="44.25419" lon="6.72209">
        <ele>2592.48</ele>
        <time>2021-07-01T10:34:36.000Z</time>
      </trkpt>
      <trkpt lat="44.25417" lon="6.72222">
        <ele>2593.11</ele>
        <time>2021-07-01T10:34:49.000Z</time>
      </trkpt>
      <trkpt lat="44.25418" lon="6.72235">
        <ele>2593.91</ele>
        <time>2021-07-01T10:35:51.000Z</time>
      </trkpt>
      <trkpt lat="44.25427" lon="6.7224">
        <ele>2595.9</ele>
        <time>2021-07-01T10:36:02.000Z</time>
      </trkpt>
      <trkpt lat="44.25428" lon="6.72252">
        <ele>2596.09</ele>
        <time>2021-07-01T10:36:13.000Z</time>
      </trkpt>
      <trkpt lat="44.25429" lon="6.72266">
        <ele>2595.56</ele>
        <time>2021-07-01T10:36:24.000Z</time>
      </trkpt>
      <trkpt lat="44.25429" lon="6.72279">
        <ele>2594.33</ele>
        <time>2021-07-01T10:37:01.000Z</time>
      </trkpt>
      <trkpt lat="44.25437" lon="6.72284">
        <ele>2595.65</ele>
        <time>2021-07-01T10:37:15.000Z</time>
      </trkpt>
      <trkpt lat="44.25445" lon="6.72291">
        <ele>2596.65</ele>
        <time>2021-07-01T10:37:30.000Z</time>
      </trkpt>
      <trkpt lat="44.25453" lon="6.72297">
        <ele>2597.98</ele>
        <time>2021-07-01T10:37:42.000Z</time>
      </trkpt>
      <trkpt lat="44.25459" lon="6.72307">
        <ele>2598.57</ele>
        <time>2021-07-01T10:37:55.000Z</time>
      </trkpt>
      <trkpt lat="44.25467" lon="6.72314">
        <ele>2600.22</ele>
        <time>2021-07-01T10:38:09.000Z</time>
      </trkpt>
      <trkpt lat="44.25476" lon="6.72321">
        <ele>2602.52</ele>
        <time>2021-07-01T10:38:24.000Z</time>
      </trkpt>
      <trkpt lat="44.25483" lon="6.7233">
        <ele>2604.16</ele>
        <time>2021-07-01T10:38:36.000Z</time>
      </trkpt>
      <trkpt lat="44.25492" lon="6.72335">
        <ele>2607.36</ele>
        <time>2021-07-01T10:38:47.000Z</time>
      </trkpt>
      <trkpt lat="44.25501" lon="6.7234">
        <ele>2610.66</ele>
        <time>2021-07-01T10:39:03.000Z</time>
      </trkpt>
      <trkpt lat="44.25509" lon="6.72346">
        <ele>2614.39</ele>
        <time>2021-07-01T10:39:17.000Z</time>
      </trkpt>
      <trkpt lat="44.25514" lon="6.72357">
        <ele>2616.27</ele>
        <time>2021-07-01T10:39:37.000Z</time>
      </trkpt>
      <trkpt lat="44.25516" lon="6.72369">
        <ele>2617.16</ele>
        <time>2021-07-01T10:39:49.000Z</time>
      </trkpt>
      <trkpt lat="44.2552" lon="6.72381">
        <ele>2619.18</ele>
        <time>2021-07-01T10:41:25.000Z</time>
      </trkpt>
      <trkpt lat="44.25523" lon="6.72394">
        <ele>2621.24</ele>
        <time>2021-07-01T10:41:35.000Z</time>
      </trkpt>
      <trkpt lat="44.25526" lon="6.72406">
        <ele>2623.11</ele>
        <time>2021-07-01T10:41:48.000Z</time>
      </trkpt>
      <trkpt lat="44.25527" lon="6.7242">
        <ele>2623.41</ele>
        <time>2021-07-01T10:41:58.000Z</time>
      </trkpt>
      <trkpt lat="44.25527" lon="6.72433">
        <ele>2623.99</ele>
        <time>2021-07-01T10:42:09.000Z</time>
      </trkpt>
      <trkpt lat="44.25528" lon="6.72446">
        <ele>2624.66</ele>
        <time>2021-07-01T10:42:20.000Z</time>
      </trkpt>
      <trkpt lat="44.25529" lon="6.72459">
        <ele>2625.51</ele>
        <time>2021-07-01T10:42:34.000Z</time>
      </trkpt>
      <trkpt lat="44.25528" lon="6.72472">
        <ele>2625.53</ele>
        <time>2021-07-01T10:42:46.000Z</time>
      </trkpt>
      <trkpt lat="44.25526" lon="6.72485">
        <ele>2625.36</ele>
        <time>2021-07-01T10:43:01.000Z</time>
      </trkpt>
      <trkpt lat="44.25524" lon="6.72498">
        <ele>2625.18</ele>
        <time>2021-07-01T10:43:17.000Z</time>
      </trkpt>
      <trkpt lat="44.25523" lon="6.72511">
        <ele>2625.45</ele>
        <time>2021-07-01T10:43:31.000Z</time>
      </trkpt>
      <trkpt lat="44.25521" lon="6.72524">
        <ele>2625.79</ele>
        <time>2021-07-01T10:43:48.000Z</time>
      </trkpt>
      <trkpt lat="44.25519" lon="6.72537">
        <ele>2626.47</ele>
        <time>2021-07-01T10:44:03.000Z</time>
      </trkpt>
      <trkpt lat="44.25512" lon="6.72546">
        <ele>2628.12</ele>
        <time>2021-07-01T10:53:55.000Z</time>
      </trkpt>
      <trkpt lat="44.25505" lon="6.72556">
        <ele>2630.7</ele>
        <time>2021-07-01T10:54:05.000Z</time>
      </trkpt>
      <trkpt lat="44.25498" lon="6.72567">
        <ele>2633.47</ele>
        <time>2021-07-01T10:54:25.000Z</time>
      </trkpt>
      <trkpt lat="44.25489" lon="6.72574">
        <ele>2636.55</ele>
        <time>2021-07-01T10:54:35.000Z</time>
      </trkpt>
      <trkpt lat="44.25481" lon="6.7258">
        <ele>2639.34</ele>
        <time>2021-07-01T10:54:46.000Z</time>
      </trkpt>
      <trkpt lat="44.25473" lon="6.72586">
        <ele>2642.26</ele>
        <time>2021-07-01T10:54:57.000Z</time>
      </trkpt>
      <trkpt lat="44.25461" lon="6.72588">
        <ele>2645.13</ele>
        <time>2021-07-01T10:55:07.000Z</time>
      </trkpt>
      <trkpt lat="44.25452" lon="6.72591">
        <ele>2647.77</ele>
        <time>2021-07-01T10:55:17.000Z</time>
      </trkpt>
      <trkpt lat="44.25443" lon="6.7259">
        <ele>2648.7</ele>
        <time>2021-07-01T10:55:27.000Z</time>
      </trkpt>
      <trkpt lat="44.25433" lon="6.72593">
        <ele>2651.83</ele>
        <time>2021-07-01T10:55:37.000Z</time>
      </trkpt>
      <trkpt lat="44.25424" lon="6.72596">
        <ele>2654.8</ele>
        <time>2021-07-01T10:55:47.000Z</time>
      </trkpt>
      <trkpt lat="44.25414" lon="6.72596">
        <ele>2656.38</ele>
        <time>2021-07-01T10:55:57.000Z</time>
      </trkpt>
      <trkpt lat="44.25405" lon="6.72595">
        <ele>2657.64</ele>
        <time>2021-07-01T10:56:07.000Z</time>
      </trkpt>
      <trkpt lat="44.25393" lon="6.72597">
        <ele>2660.15</ele>
        <time>2021-07-01T10:56:17.000Z</time>
      </trkpt>
      <trkpt lat="44.25384" lon="6.72599">
        <ele>2662.42</ele>
        <time>2021-07-01T10:56:31.000Z</time>
      </trkpt>
      <trkpt lat="44.25374" lon="6.72592">
        <ele>2660.26</ele>
        <time>2021-07-01T10:56:41.000Z</time>
      </trkpt>
      <trkpt lat="44.25363" lon="6.72586">
        <ele>2658.44</ele>
        <time>2021-07-01T10:56:51.000Z</time>
      </trkpt>
      <trkpt lat="44.25351" lon="6.72578">
        <ele>2656.26</ele>
        <time>2021-07-01T10:57:01.000Z</time>
      </trkpt>
      <trkpt lat="44.25341" lon="6.72573">
        <ele>2655.63</ele>
        <time>2021-07-01T10:57:11.000Z</time>
      </trkpt>
      <trkpt lat="44.2533" lon="6.72566">
        <ele>2654.29</ele>
        <time>2021-07-01T10:57:21.000Z</time>
      </trkpt>
      <trkpt lat="44.25318" lon="6.72559">
        <ele>2654.09</ele>
        <time>2021-07-01T10:57:31.000Z</time>
      </trkpt>
      <trkpt lat="44.25307" lon="6.72558">
        <ele>2656.14</ele>
        <time>2021-07-01T10:57:41.000Z</time>
      </trkpt>
      <trkpt lat="44.25295" lon="6.72552">
        <ele>2656.28</ele>
        <time>2021-07-01T10:57:51.000Z</time>
      </trkpt>
      <trkpt lat="44.25285" lon="6.72548">
        <ele>2657.47</ele>
        <time>2021-07-01T10:58:01.000Z</time>
      </trkpt>
      <trkpt lat="44.25273" lon="6.72543">
        <ele>2658.14</ele>
        <time>2021-07-01T10:58:11.000Z</time>
      </trkpt>
      <trkpt lat="44.25264" lon="6.72542">
        <ele>2660.16</ele>
        <time>2021-07-01T10:58:21.000Z</time>
      </trkpt>
      <trkpt lat="44.25255" lon="6.72536">
        <ele>2659.75</ele>
        <time>2021-07-01T10:58:33.000Z</time>
      </trkpt>
      <trkpt lat="44.25246" lon="6.72533">
        <ele>2661.12</ele>
        <time>2021-07-01T10:58:43.000Z</time>
      </trkpt>
      <trkpt lat="44.25235" lon="6.72522">
        <ele>2659.64</ele>
        <time>2021-07-01T10:58:53.000Z</time>
      </trkpt>
      <trkpt lat="44.25224" lon="6.72512">
        <ele>2658.92</ele>
        <time>2021-07-01T10:59:03.000Z</time>
      </trkpt>
      <trkpt lat="44.25213" lon="6.72501">
        <ele>2658.26</ele>
        <time>2021-07-01T10:59:13.000Z</time>
      </trkpt>
      <trkpt lat="44.25206" lon="6.72493">
        <ele>2657.48</ele>
        <time>2021-07-01T10:59:27.000Z</time>
      </trkpt>
      <trkpt lat="44.25196" lon="6.72483">
        <ele>2656.59</ele>
        <time>2021-07-01T10:59:37.000Z</time>
      </trkpt>
      <trkpt lat="44.25187" lon="6.72474">
        <ele>2655.35</ele>
        <time>2021-07-01T10:59:47.000Z</time>
      </trkpt>
      <trkpt lat="44.25176" lon="6.72467">
        <ele>2654.86</ele>
        <time>2021-07-01T10:59:57.000Z</time>
      </trkpt>
      <trkpt lat="44.25167" lon="6.72463">
        <ele>2654.92</ele>
        <time>2021-07-01T11:00:07.000Z</time>
      </trkpt>
      <trkpt lat="44.25158" lon="6.72456">
        <ele>2653.73</ele>
        <time>2021-07-01T11:00:19.000Z</time>
      </trkpt>
      <trkpt lat="44.25147" lon="6.7245">
        <ele>2652.81</ele>
        <time>2021-07-01T11:00:29.000Z</time>
      </trkpt>
      <trkpt lat="44.25135" lon="6.72446">
        <ele>2653.22</ele>
        <time>2021-07-01T11:00:39.000Z</time>
      </trkpt>
      <trkpt lat="44.25123" lon="6.7244">
        <ele>2652.76</ele>
        <time>2021-07-01T11:00:49.000Z</time>
      </trkpt>
      <trkpt lat="44.2511" lon="6.72433">
        <ele>2652.11</ele>
        <time>2021-07-01T11:00:59.000Z</time>
      </trkpt>
      <trkpt lat="44.25101" lon="6.7243">
        <ele>2652.25</ele>
        <time>2021-07-01T11:01:31.000Z</time>
      </trkpt>
      <trkpt lat="44.25089" lon="6.72431">
        <ele>2653.63</ele>
        <time>2021-07-01T11:01:41.000Z</time>
      </trkpt>
      <trkpt lat="44.25075" lon="6.72438">
        <ele>2656.02</ele>
        <time>2021-07-01T11:01:51.000Z</time>
      </trkpt>
      <trkpt lat="44.25065" lon="6.72444">
        <ele>2657.32</ele>
        <time>2021-07-01T11:02:01.000Z</time>
      </trkpt>
      <trkpt lat="44.25055" lon="6.7245">
        <ele>2657.83</ele>
        <time>2021-07-01T11:02:11.000Z</time>
      </trkpt>
      <trkpt lat="44.25045" lon="6.72458">
        <ele>2657.45</ele>
        <time>2021-07-01T11:02:21.000Z</time>
      </trkpt>
      <trkpt lat="44.25034" lon="6.72465">
        <ele>2655.79</ele>
        <time>2021-07-01T11:02:31.000Z</time>
      </trkpt>
      <trkpt lat="44.25022" lon="6.7247">
        <ele>2653.05</ele>
        <time>2021-07-01T11:02:41.000Z</time>
      </trkpt>
      <trkpt lat="44.25013" lon="6.72472">
        <ele>2650.91</ele>
        <time>2021-07-01T11:02:52.000Z</time>
      </trkpt>
      <trkpt lat="44.25006" lon="6.72482">
        <ele>2648.09</ele>
        <time>2021-07-01T11:03:28.000Z</time>
      </trkpt>
      <trkpt lat="44.25005" lon="6.72495">
        <ele>2646.43</ele>
        <time>2021-07-01T11:03:38.000Z</time>
      </trkpt>
      <trkpt lat="44.24999" lon="6.72506">
        <ele>2644.75</ele>
        <time>2021-07-01T11:03:48.000Z</time>
      </trkpt>
      <trkpt lat="44.24989" lon="6.72511">
        <ele>2642.39</ele>
        <time>2021-07-01T11:03:58.000Z</time>
      </trkpt>
      <trkpt lat="44.2498" lon="6.72515">
        <ele>2640.26</ele>
        <time>2021-07-01T11:04:14.000Z</time>
      </trkpt>
      <trkpt lat="44.24968" lon="6.7252">
        <ele>2637.79</ele>
        <time>2021-07-01T11:04:24.000Z</time>
      </trkpt>
      <trkpt lat="44.24958" lon="6.72532">
        <ele>2635.49</ele>
        <time>2021-07-01T11:04:34.000Z</time>
      </trkpt>
      <trkpt lat="44.24947" lon="6.72538">
        <ele>2633.22</ele>
        <time>2021-07-01T11:04:44.000Z</time>
      </trkpt>
      <trkpt lat="44.2494" lon="6.72553">
        <ele>2631.31</ele>
        <time>2021-07-01T11:04:54.000Z</time>
      </trkpt>
      <trkpt lat="44.24932" lon="6.72566">
        <ele>2629.68</ele>
        <time>2021-07-01T11:05:04.000Z</time>
      </trkpt>
      <trkpt lat="44.24928" lon="6.72579">
        <ele>2629.13</ele>
        <time>2021-07-01T11:05:14.000Z</time>
      </trkpt>
      <trkpt lat="44.24925" lon="6.72594">
        <ele>2629.47</ele>
        <time>2021-07-01T11:05:24.000Z</time>
      </trkpt>
      <trkpt lat="44.24922" lon="6.72609">
        <ele>2630.13</ele>
        <time>2021-07-01T11:05:34.000Z</time>
      </trkpt>
      <trkpt lat="44.24918" lon="6.72624">
        <ele>2631.03</ele>
        <time>2021-07-01T11:05:44.000Z</time>
      </trkpt>
      <trkpt lat="44.2491" lon="6.72631">
        <ele>2630.18</ele>
        <time>2021-07-01T11:06:51.000Z</time>
      </trkpt>
      <trkpt lat="44.24912" lon="6.72643">
        <ele>2632.98</ele>
        <time>2021-07-01T11:18:31.000Z</time>
      </trkpt>
      <trkpt lat="44.24907" lon="6.72653">
        <ele>2633.63</ele>
        <time>2021-07-01T11:18:46.000Z</time>
      </trkpt>
      <trkpt lat="44.24899" lon="6.72661">
        <ele>2633.54</ele>
        <time>2021-07-01T11:18:57.000Z</time>
      </trkpt>
      <trkpt lat="44.2489" lon="6.72669">
        <ele>2632.93</ele>
        <time>2021-07-01T11:19:07.000Z</time>
      </trkpt>
      <trkpt lat="44.24878" lon="6.72676">
        <ele>2632.2</ele>
        <time>2021-07-01T11:19:17.000Z</time>
      </trkpt>
      <trkpt lat="44.24865" lon="6.72687">
        <ele>2632.67</ele>
        <time>2021-07-01T11:19:27.000Z</time>
      </trkpt>
      <trkpt lat="44.24852" lon="6.72694">
        <ele>2632.7</ele>
        <time>2021-07-01T11:19:37.000Z</time>
      </trkpt>
      <trkpt lat="44.24841" lon="6.72698">
        <ele>2632.63</ele>
        <time>2021-07-01T11:19:47.000Z</time>
      </trkpt>
      <trkpt lat="44.2483" lon="6.727">
        <ele>2632.26</ele>
        <time>2021-07-01T11:19:57.000Z</time>
      </trkpt>
      <trkpt lat="44.24816" lon="6.72698">
        <ele>2631.84</ele>
        <time>2021-07-01T11:20:07.000Z</time>
      </trkpt>
      <trkpt lat="44.24803" lon="6.72696">
        <ele>2632.45</ele>
        <time>2021-07-01T11:20:17.000Z</time>
      </trkpt>
      <trkpt lat="44.2479" lon="6.72692">
        <ele>2632.81</ele>
        <time>2021-07-01T11:20:27.000Z</time>
      </trkpt>
      <trkpt lat="44.2478" lon="6.72686">
        <ele>2632.08</ele>
        <time>2021-07-01T11:20:37.000Z</time>
      </trkpt>
      <trkpt lat="44.24769" lon="6.72677">
        <ele>2630.85</ele>
        <time>2021-07-01T11:20:47.000Z</time>
      </trkpt>
      <trkpt lat="44.24759" lon="6.72671">
        <ele>2630.31</ele>
        <time>2021-07-01T11:20:57.000Z</time>
      </trkpt>
      <trkpt lat="44.24748" lon="6.72665">
        <ele>2629.78</ele>
        <time>2021-07-01T11:21:07.000Z</time>
      </trkpt>
      <trkpt lat="44.24738" lon="6.72659">
        <ele>2629.96</ele>
        <time>2021-07-01T11:21:17.000Z</time>
      </trkpt>
      <trkpt lat="44.24729" lon="6.72655">
        <ele>2630.85</ele>
        <time>2021-07-01T11:21:27.000Z</time>
      </trkpt>
      <trkpt lat="44.24719" lon="6.72648">
        <ele>2631.93</ele>
        <time>2021-07-01T11:21:37.000Z</time>
      </trkpt>
      <trkpt lat="44.24711" lon="6.72643">
        <ele>2633.26</ele>
        <time>2021-07-01T11:21:48.000Z</time>
      </trkpt>
      <trkpt lat="44.24701" lon="6.7264">
        <ele>2635.04</ele>
        <time>2021-07-01T11:22:02.000Z</time>
      </trkpt>
      <trkpt lat="44.24694" lon="6.72634">
        <ele>2636.35</ele>
        <time>2021-07-01T11:22:12.000Z</time>
      </trkpt>
      <trkpt lat="44.24685" lon="6.72628">
        <ele>2637.81</ele>
        <time>2021-07-01T11:22:23.000Z</time>
      </trkpt>
      <trkpt lat="44.24677" lon="6.72621">
        <ele>2639.22</ele>
        <time>2021-07-01T11:22:37.000Z</time>
      </trkpt>
      <trkpt lat="44.2467" lon="6.72613">
        <ele>2640.62</ele>
        <time>2021-07-01T11:22:51.000Z</time>
      </trkpt>
      <trkpt lat="44.24662" lon="6.72606">
        <ele>2641.91</ele>
        <time>2021-07-01T11:23:06.000Z</time>
      </trkpt>
      <trkpt lat="44.24653" lon="6.72604">
        <ele>2642.44</ele>
        <time>2021-07-01T11:24:10.000Z</time>
      </trkpt>
      <trkpt lat="44.24662" lon="6.72607">
        <ele>2641.76</ele>
        <time>2021-07-01T11:24:47.000Z</time>
      </trkpt>
      <trkpt lat="44.24657" lon="6.72595">
        <ele>2644.02</ele>
        <time>2021-07-01T11:25:00.000Z</time>
      </trkpt>
      <trkpt lat="44.24654" lon="6.72583">
        <ele>2646.46</ele>
        <time>2021-07-01T11:25:13.000Z</time>
      </trkpt>
      <trkpt lat="44.24658" lon="6.72572">
        <ele>2648.5</ele>
        <time>2021-07-01T11:25:30.000Z</time>
      </trkpt>
      <trkpt lat="44.24657" lon="6.7256">
        <ele>2652.05</ele>
        <time>2021-07-01T11:25:54.000Z</time>
      </trkpt>
      <trkpt lat="44.24649" lon="6.72552">
        <ele>2655.02</ele>
        <time>2021-07-01T11:26:18.000Z</time>
      </trkpt>
      <trkpt lat="44.24641" lon="6.72545">
        <ele>2657.72</ele>
        <time>2021-07-01T11:26:40.000Z</time>
      </trkpt>
      <trkpt lat="44.24633" lon="6.72539">
        <ele>2659.53</ele>
        <time>2021-07-01T11:27:12.000Z</time>
      </trkpt>
      <trkpt lat="44.24623" lon="6.72537">
        <ele>2660.04</ele>
        <time>2021-07-01T11:27:31.000Z</time>
      </trkpt>
      <trkpt lat="44.24613" lon="6.72534">
        <ele>2660.54</ele>
        <time>2021-07-01T11:27:47.000Z</time>
      </trkpt>
      <trkpt lat="44.24604" lon="6.7253">
        <ele>2660.52</ele>
        <time>2021-07-01T11:28:04.000Z</time>
      </trkpt>
      <trkpt lat="44.24595" lon="6.72527">
        <ele>2660.18</ele>
        <time>2021-07-01T11:28:20.000Z</time>
      </trkpt>
      <trkpt lat="44.24586" lon="6.72528">
        <ele>2659.09</ele>
        <time>2021-07-01T11:28:34.000Z</time>
      </trkpt>
      <trkpt lat="44.24577" lon="6.72527">
        <ele>2657.85</ele>
        <time>2021-07-01T11:29:57.000Z</time>
      </trkpt>
      <trkpt lat="44.24568" lon="6.72517">
        <ele>2656.84</ele>
        <time>2021-07-01T11:30:07.000Z</time>
      </trkpt>
      <trkpt lat="44.24557" lon="6.72525">
        <ele>2653.92</ele>
        <time>2021-07-01T11:30:17.000Z</time>
      </trkpt>
      <trkpt lat="44.24546" lon="6.72529">
        <ele>2650.4</ele>
        <time>2021-07-01T11:30:27.000Z</time>
      </trkpt>
      <trkpt lat="44.24533" lon="6.72533">
        <ele>2646.51</ele>
        <time>2021-07-01T11:30:37.000Z</time>
      </trkpt>
      <trkpt lat="44.24523" lon="6.72531">
        <ele>2643.94</ele>
        <time>2021-07-01T11:31:00.000Z</time>
      </trkpt>
      <trkpt lat="44.24513" lon="6.72525">
        <ele>2642.01</ele>
        <time>2021-07-01T11:31:10.000Z</time>
      </trkpt>
      <trkpt lat="44.24503" lon="6.72525">
        <ele>2640.03</ele>
        <time>2021-07-01T11:31:23.000Z</time>
      </trkpt>
      <trkpt lat="44.24497" lon="6.72515">
        <ele>2639.79</ele>
        <time>2021-07-01T11:32:37.000Z</time>
      </trkpt>
      <trkpt lat="44.24488" lon="6.72511">
        <ele>2638.58</ele>
        <time>2021-07-01T11:33:45.000Z</time>
      </trkpt>
      <trkpt lat="44.24479" lon="6.72509">
        <ele>2637.62</ele>
        <time>2021-07-01T11:33:55.000Z</time>
      </trkpt>
      <trkpt lat="44.24466" lon="6.72508">
        <ele>2636.52</ele>
        <time>2021-07-01T11:34:05.000Z</time>
      </trkpt>
      <trkpt lat="44.24453" lon="6.72508">
        <ele>2635.63</ele>
        <time>2021-07-01T11:34:15.000Z</time>
      </trkpt>
      <trkpt lat="44.24441" lon="6.72511">
        <ele>2634.54</ele>
        <time>2021-07-01T11:34:25.000Z</time>
      </trkpt>
      <trkpt lat="44.24427" lon="6.72508">
        <ele>2633.98</ele>
        <time>2021-07-01T11:34:35.000Z</time>
      </trkpt>
      <trkpt lat="44.24414" lon="6.72511">
        <ele>2632.58</ele>
        <time>2021-07-01T11:34:45.000Z</time>
      </trkpt>
      <trkpt lat="44.244" lon="6.72518">
        <ele>2630.25</ele>
        <time>2021-07-01T11:34:55.000Z</time>
      </trkpt>
      <trkpt lat="44.2439" lon="6.72522">
        <ele>2628.75</ele>
        <time>2021-07-01T11:35:06.000Z</time>
      </trkpt>
      <trkpt lat="44.24379" lon="6.72523">
        <ele>2627.91</ele>
        <time>2021-07-01T11:35:16.000Z</time>
      </trkpt>
      <trkpt lat="44.24367" lon="6.72528">
        <ele>2626.55</ele>
        <time>2021-07-01T11:35:26.000Z</time>
      </trkpt>
      <trkpt lat="44.24353" lon="6.72528">
        <ele>2626.26</ele>
        <time>2021-07-01T11:35:36.000Z</time>
      </trkpt>
      <trkpt lat="44.2434" lon="6.72527">
        <ele>2626.06</ele>
        <time>2021-07-01T11:35:46.000Z</time>
      </trkpt>
      <trkpt lat="44.24327" lon="6.72527">
        <ele>2625.69</ele>
        <time>2021-07-01T11:35:56.000Z</time>
      </trkpt>
      <trkpt lat="44.24314" lon="6.72528">
        <ele>2625.43</ele>
        <time>2021-07-01T11:36:06.000Z</time>
      </trkpt>
      <trkpt lat="44.243" lon="6.72528">
        <ele>2625.51</ele>
        <time>2021-07-01T11:36:16.000Z</time>
      </trkpt>
      <trkpt lat="44.24286" lon="6.72525">
        <ele>2625.5</ele>
        <time>2021-07-01T11:36:26.000Z</time>
      </trkpt>
      <trkpt lat="44.24273" lon="6.72523">
        <ele>2625.04</ele>
        <time>2021-07-01T11:36:36.000Z</time>
      </trkpt>
      <trkpt lat="44.24264" lon="6.72519">
        <ele>2624.25</ele>
        <time>2021-07-01T11:36:58.000Z</time>
      </trkpt>
      <trkpt lat="44.24252" lon="6.72516">
        <ele>2622.89</ele>
        <time>2021-07-01T11:37:08.000Z</time>
      </trkpt>
      <trkpt lat="44.24239" lon="6.72515">
        <ele>2620.97</ele>
        <time>2021-07-01T11:37:18.000Z</time>
      </trkpt>
      <trkpt lat="44.24227" lon="6.72513">
        <ele>2618.9</ele>
        <time>2021-07-01T11:37:28.000Z</time>
      </trkpt>
      <trkpt lat="44.24215" lon="6.72509">
        <ele>2616.66</ele>
        <time>2021-07-01T11:37:38.000Z</time>
      </trkpt>
      <trkpt lat="44.24202" lon="6.72505">
        <ele>2614.1</ele>
        <time>2021-07-01T11:37:48.000Z</time>
      </trkpt>
      <trkpt lat="44.2419" lon="6.72498">
        <ele>2611.45</ele>
        <time>2021-07-01T11:37:58.000Z</time>
      </trkpt>
      <trkpt lat="44.24177" lon="6.72493">
        <ele>2608.71</ele>
        <time>2021-07-01T11:38:08.000Z</time>
      </trkpt>
      <trkpt lat="44.24167" lon="6.72487">
        <ele>2606.24</ele>
        <time>2021-07-01T11:38:18.000Z</time>
      </trkpt>
      <trkpt lat="44.24155" lon="6.72481">
        <ele>2603.53</ele>
        <time>2021-07-01T11:38:28.000Z</time>
      </trkpt>
      <trkpt lat="44.24141" lon="6.72475">
        <ele>2600.85</ele>
        <time>2021-07-01T11:38:38.000Z</time>
      </trkpt>
      <trkpt lat="44.24132" lon="6.72467">
        <ele>2599.86</ele>
        <time>2021-07-01T11:38:48.000Z</time>
      </trkpt>
      <trkpt lat="44.24128" lon="6.72455">
        <ele>2600.63</ele>
        <time>2021-07-01T11:39:13.000Z</time>
      </trkpt>
      <trkpt lat="44.24124" lon="6.72443">
        <ele>2601.68</ele>
        <time>2021-07-01T11:39:26.000Z</time>
      </trkpt>
      <trkpt lat="44.2412" lon="6.72431">
        <ele>2602.85</ele>
        <time>2021-07-01T11:39:36.000Z</time>
      </trkpt>
      <trkpt lat="44.24111" lon="6.72422">
        <ele>2603.88</ele>
        <time>2021-07-01T11:39:46.000Z</time>
      </trkpt>
      <trkpt lat="44.241" lon="6.72418">
        <ele>2604.56</ele>
        <time>2021-07-01T11:39:56.000Z</time>
      </trkpt>
      <trkpt lat="44.24087" lon="6.72408">
        <ele>2605.2</ele>
        <time>2021-07-01T11:40:06.000Z</time>
      </trkpt>
      <trkpt lat="44.24077" lon="6.72398">
        <ele>2604.89</ele>
        <time>2021-07-01T11:40:16.000Z</time>
      </trkpt>
      <trkpt lat="44.24067" lon="6.72388">
        <ele>2603.93</ele>
        <time>2021-07-01T11:40:26.000Z</time>
      </trkpt>
      <trkpt lat="44.24057" lon="6.72384">
        <ele>2602.67</ele>
        <time>2021-07-01T11:40:41.000Z</time>
      </trkpt>
      <trkpt lat="44.24044" lon="6.72381">
        <ele>2600.87</ele>
        <time>2021-07-01T11:40:51.000Z</time>
      </trkpt>
      <trkpt lat="44.24033" lon="6.7238">
        <ele>2599.11</ele>
        <time>2021-07-01T11:41:01.000Z</time>
      </trkpt>
      <trkpt lat="44.24021" lon="6.72382">
        <ele>2597.06</ele>
        <time>2021-07-01T11:41:11.000Z</time>
      </trkpt>
      <trkpt lat="44.24012" lon="6.72384">
        <ele>2595.43</ele>
        <time>2021-07-01T11:41:30.000Z</time>
      </trkpt>
      <trkpt lat="44.24002" lon="6.72376">
        <ele>2595.94</ele>
        <time>2021-07-01T11:41:40.000Z</time>
      </trkpt>
      <trkpt lat="44.23992" lon="6.72375">
        <ele>2595.46</ele>
        <time>2021-07-01T11:41:52.000Z</time>
      </trkpt>
      <trkpt lat="44.2398" lon="6.72373">
        <ele>2595.6</ele>
        <time>2021-07-01T11:42:02.000Z</time>
      </trkpt>
      <trkpt lat="44.23968" lon="6.72371">
        <ele>2595.87</ele>
        <time>2021-07-01T11:42:12.000Z</time>
      </trkpt>
      <trkpt lat="44.23955" lon="6.7237">
        <ele>2596.05</ele>
        <time>2021-07-01T11:42:22.000Z</time>
      </trkpt>
      <trkpt lat="44.23943" lon="6.72365">
        <ele>2596.76</ele>
        <time>2021-07-01T11:42:32.000Z</time>
      </trkpt>
      <trkpt lat="44.23931" lon="6.72364">
        <ele>2596.78</ele>
        <time>2021-07-01T11:42:42.000Z</time>
      </trkpt>
      <trkpt lat="44.23921" lon="6.72362">
        <ele>2596.87</ele>
        <time>2021-07-01T11:43:13.000Z</time>
      </trkpt>
      <trkpt lat="44.23913" lon="6.72367">
        <ele>2595.76</ele>
        <time>2021-07-01T11:43:29.000Z</time>
      </trkpt>
      <trkpt lat="44.23906" lon="6.72357">
        <ele>2597.12</ele>
        <time>2021-07-01T11:45:00.000Z</time>
      </trkpt>
      <trkpt lat="44.23897" lon="6.72347">
        <ele>2597.98</ele>
        <time>2021-07-01T11:45:10.000Z</time>
      </trkpt>
      <trkpt lat="44.23887" lon="6.72334">
        <ele>2598.83</ele>
        <time>2021-07-01T11:45:20.000Z</time>
      </trkpt>
      <trkpt lat="44.23881" lon="6.72318">
        <ele>2598.48</ele>
        <time>2021-07-01T11:45:30.000Z</time>
      </trkpt>
      <trkpt lat="44.23874" lon="6.72306">
        <ele>2597.27</ele>
        <time>2021-07-01T11:45:40.000Z</time>
      </trkpt>
      <trkpt lat="44.23866" lon="6.72298">
        <ele>2596.21</ele>
        <time>2021-07-01T11:45:52.000Z</time>
      </trkpt>
      <trkpt lat="44.23856" lon="6.72288">
        <ele>2594.37</ele>
        <time>2021-07-01T11:46:02.000Z</time>
      </trkpt>
      <trkpt lat="44.23845" lon="6.72283">
        <ele>2593.45</ele>
        <time>2021-07-01T11:46:12.000Z</time>
      </trkpt>
      <trkpt lat="44.23832" lon="6.72274">
        <ele>2591.25</ele>
        <time>2021-07-01T11:46:22.000Z</time>
      </trkpt>
      <trkpt lat="44.23823" lon="6.72261">
        <ele>2587.24</ele>
        <time>2021-07-01T11:46:32.000Z</time>
      </trkpt>
      <trkpt lat="44.23828" lon="6.7225">
        <ele>2583.92</ele>
        <time>2021-07-01T11:49:15.000Z</time>
      </trkpt>
      <trkpt lat="44.23835" lon="6.72242">
        <ele>2581.61</ele>
        <time>2021-07-01T11:49:25.000Z</time>
      </trkpt>
      <trkpt lat="44.23843" lon="6.72232">
        <ele>2578.18</ele>
        <time>2021-07-01T11:49:35.000Z</time>
      </trkpt>
      <trkpt lat="44.23853" lon="6.7223">
        <ele>2577.7</ele>
        <time>2021-07-01T11:49:46.000Z</time>
      </trkpt>
      <trkpt lat="44.23864" lon="6.72226">
        <ele>2576.8</ele>
        <time>2021-07-01T11:49:56.000Z</time>
      </trkpt>
      <trkpt lat="44.23873" lon="6.72217">
        <ele>2574.23</ele>
        <time>2021-07-01T11:50:06.000Z</time>
      </trkpt>
      <trkpt lat="44.23885" lon="6.72215">
        <ele>2574.23</ele>
        <time>2021-07-01T11:50:16.000Z</time>
      </trkpt>
      <trkpt lat="44.23894" lon="6.72212">
        <ele>2573.7</ele>
        <time>2021-07-01T11:50:29.000Z</time>
      </trkpt>
      <trkpt lat="44.23904" lon="6.72207">
        <ele>2573.22</ele>
        <time>2021-07-01T11:51:29.000Z</time>
      </trkpt>
      <trkpt lat="44.23914" lon="6.72203">
        <ele>2573.22</ele>
        <time>2021-07-01T11:51:39.000Z</time>
      </trkpt>
      <trkpt lat="44.23919" lon="6.72192">
        <ele>2570.82</ele>
        <time>2021-07-01T11:52:25.000Z</time>
      </trkpt>
      <trkpt lat="44.23926" lon="6.72183">
        <ele>2569.57</ele>
        <time>2021-07-01T11:52:35.000Z</time>
      </trkpt>
      <trkpt lat="44.23931" lon="6.72168">
        <ele>2566.63</ele>
        <time>2021-07-01T11:52:45.000Z</time>
      </trkpt>
      <trkpt lat="44.23937" lon="6.72156">
        <ele>2564.94</ele>
        <time>2021-07-01T11:52:55.000Z</time>
      </trkpt>
      <trkpt lat="44.23941" lon="6.7214">
        <ele>2562.25</ele>
        <time>2021-07-01T11:53:05.000Z</time>
      </trkpt>
      <trkpt lat="44.23951" lon="6.72128">
        <ele>2561.43</ele>
        <time>2021-07-01T11:53:15.000Z</time>
      </trkpt>
      <trkpt lat="44.2396" lon="6.72119">
        <ele>2560.82</ele>
        <time>2021-07-01T11:53:25.000Z</time>
      </trkpt>
      <trkpt lat="44.23967" lon="6.72109">
        <ele>2559.36</ele>
        <time>2021-07-01T11:53:35.000Z</time>
      </trkpt>
      <trkpt lat="44.23975" lon="6.72098">
        <ele>2557.67</ele>
        <time>2021-07-01T11:53:45.000Z</time>
      </trkpt>
      <trkpt lat="44.23984" lon="6.72086">
        <ele>2555.61</ele>
        <time>2021-07-01T11:53:55.000Z</time>
      </trkpt>
      <trkpt lat="44.23992" lon="6.72076">
        <ele>2553.56</ele>
        <time>2021-07-01T11:54:05.000Z</time>
      </trkpt>
      <trkpt lat="44.23999" lon="6.72064">
        <ele>2550.71</ele>
        <time>2021-07-01T11:54:15.000Z</time>
      </trkpt>
      <trkpt lat="44.24007" lon="6.72053">
        <ele>2548.47</ele>
        <time>2021-07-01T11:54:25.000Z</time>
      </trkpt>
      <trkpt lat="44.24018" lon="6.72046">
        <ele>2547.86</ele>
        <time>2021-07-01T11:54:35.000Z</time>
      </trkpt>
      <trkpt lat="44.24028" lon="6.72042">
        <ele>2547.98</ele>
        <time>2021-07-01T11:54:45.000Z</time>
      </trkpt>
      <trkpt lat="44.24035" lon="6.72032">
        <ele>2545.32</ele>
        <time>2021-07-01T11:55:39.000Z</time>
      </trkpt>
      <trkpt lat="44.24043" lon="6.72024">
        <ele>2543.82</ele>
        <time>2021-07-01T11:56:20.000Z</time>
      </trkpt>
      <trkpt lat="44.24051" lon="6.72017">
        <ele>2542.5</ele>
        <time>2021-07-01T11:56:30.000Z</time>
      </trkpt>
      <trkpt lat="44.2406" lon="6.72009">
        <ele>2540.69</ele>
        <time>2021-07-01T11:56:40.000Z</time>
      </trkpt>
      <trkpt lat="44.24066" lon="6.71998">
        <ele>2537.63</ele>
        <time>2021-07-01T11:56:50.000Z</time>
      </trkpt>
      <trkpt lat="44.24074" lon="6.71992">
        <ele>2536.23</ele>
        <time>2021-07-01T11:57:03.000Z</time>
      </trkpt>
      <trkpt lat="44.24082" lon="6.71982">
        <ele>2533.8</ele>
        <time>2021-07-01T11:57:13.000Z</time>
      </trkpt>
      <trkpt lat="44.2409" lon="6.71972">
        <ele>2531.65</ele>
        <time>2021-07-01T11:57:25.000Z</time>
      </trkpt>
      <trkpt lat="44.24101" lon="6.71964">
        <ele>2530.66</ele>
        <time>2021-07-01T11:57:35.000Z</time>
      </trkpt>
      <trkpt lat="44.24113" lon="6.7196">
        <ele>2530.62</ele>
        <time>2021-07-01T11:57:45.000Z</time>
      </trkpt>
      <trkpt lat="44.24123" lon="6.71951">
        <ele>2529.58</ele>
        <time>2021-07-01T11:57:55.000Z</time>
      </trkpt>
      <trkpt lat="44.24131" lon="6.71939">
        <ele>2527.23</ele>
        <time>2021-07-01T11:58:05.000Z</time>
      </trkpt>
      <trkpt lat="44.24139" lon="6.71927">
        <ele>2524.82</ele>
        <time>2021-07-01T11:58:15.000Z</time>
      </trkpt>
      <trkpt lat="44.2415" lon="6.71919">
        <ele>2523.14</ele>
        <time>2021-07-01T11:58:25.000Z</time>
      </trkpt>
      <trkpt lat="44.2416" lon="6.71911">
        <ele>2520.98</ele>
        <time>2021-07-01T11:58:35.000Z</time>
      </trkpt>
      <trkpt lat="44.2417" lon="6.719">
        <ele>2517.31</ele>
        <time>2021-07-01T11:58:45.000Z</time>
      </trkpt>
      <trkpt lat="44.24181" lon="6.71891">
        <ele>2514.25</ele>
        <time>2021-07-01T11:58:55.000Z</time>
      </trkpt>
      <trkpt lat="44.24194" lon="6.71887">
        <ele>2512.44</ele>
        <time>2021-07-01T11:59:05.000Z</time>
      </trkpt>
      <trkpt lat="44.24208" lon="6.71881">
        <ele>2510.32</ele>
        <time>2021-07-01T11:59:15.000Z</time>
      </trkpt>
      <trkpt lat="44.24216" lon="6.71871">
        <ele>2507.81</ele>
        <time>2021-07-01T11:59:25.000Z</time>
      </trkpt>
      <trkpt lat="44.24226" lon="6.71861">
        <ele>2505.66</ele>
        <time>2021-07-01T11:59:35.000Z</time>
      </trkpt>
      <trkpt lat="44.24239" lon="6.71865">
        <ele>2506.23</ele>
        <time>2021-07-01T11:59:45.000Z</time>
      </trkpt>
      <trkpt lat="44.24248" lon="6.71856">
        <ele>2504.81</ele>
        <time>2021-07-01T11:59:55.000Z</time>
      </trkpt>
      <trkpt lat="44.24255" lon="6.71847">
        <ele>2503.53</ele>
        <time>2021-07-01T12:00:05.000Z</time>
      </trkpt>
      <trkpt lat="44.24254" lon="6.7183">
        <ele>2501.52</ele>
        <time>2021-07-01T12:00:15.000Z</time>
      </trkpt>
      <trkpt lat="44.2425" lon="6.71816">
        <ele>2499.4</ele>
        <time>2021-07-01T12:00:25.000Z</time>
      </trkpt>
      <trkpt lat="44.24245" lon="6.71801">
        <ele>2496.65</ele>
        <time>2021-07-01T12:00:35.000Z</time>
      </trkpt>
      <trkpt lat="44.24243" lon="6.71785">
        <ele>2493.61</ele>
        <time>2021-07-01T12:00:45.000Z</time>
      </trkpt>
      <trkpt lat="44.24235" lon="6.71777">
        <ele>2490.11</ele>
        <time>2021-07-01T12:00:55.000Z</time>
      </trkpt>
      <trkpt lat="44.24235" lon="6.71764">
        <ele>2487.32</ele>
        <time>2021-07-01T12:01:19.000Z</time>
      </trkpt>
      <trkpt lat="44.2424" lon="6.7175">
        <ele>2486.81</ele>
        <time>2021-07-01T12:01:29.000Z</time>
      </trkpt>
      <trkpt lat="44.24249" lon="6.71737">
        <ele>2487.1</ele>
        <time>2021-07-01T12:01:39.000Z</time>
      </trkpt>
      <trkpt lat="44.24253" lon="6.71723">
        <ele>2485.51</ele>
        <time>2021-07-01T12:01:49.000Z</time>
      </trkpt>
      <trkpt lat="44.24247" lon="6.71713">
        <ele>2482.96</ele>
        <time>2021-07-01T12:02:06.000Z</time>
      </trkpt>
      <trkpt lat="44.24256" lon="6.71717">
        <ele>2485.11</ele>
        <time>2021-07-01T12:02:32.000Z</time>
      </trkpt>
      <trkpt lat="44.24262" lon="6.71703">
        <ele>2483.76</ele>
        <time>2021-07-01T12:02:42.000Z</time>
      </trkpt>
      <trkpt lat="44.24268" lon="6.7169">
        <ele>2482.44</ele>
        <time>2021-07-01T12:02:52.000Z</time>
      </trkpt>
      <trkpt lat="44.24276" lon="6.71697">
        <ele>2482.53</ele>
        <time>2021-07-01T12:03:07.000Z</time>
      </trkpt>
      <trkpt lat="44.24283" lon="6.71711">
        <ele>2483.27</ele>
        <time>2021-07-01T12:03:17.000Z</time>
      </trkpt>
      <trkpt lat="44.24291" lon="6.71723">
        <ele>2483.17</ele>
        <time>2021-07-01T12:03:27.000Z</time>
      </trkpt>
      <trkpt lat="44.24302" lon="6.7173">
        <ele>2481.74</ele>
        <time>2021-07-01T12:03:37.000Z</time>
      </trkpt>
      <trkpt lat="44.24309" lon="6.7174">
        <ele>2481.38</ele>
        <time>2021-07-01T12:03:47.000Z</time>
      </trkpt>
      <trkpt lat="44.24314" lon="6.7175">
        <ele>2481.71</ele>
        <time>2021-07-01T12:03:59.000Z</time>
      </trkpt>
      <trkpt lat="44.24325" lon="6.71748">
        <ele>2479.27</ele>
        <time>2021-07-01T12:04:09.000Z</time>
      </trkpt>
      <trkpt lat="44.24336" lon="6.71748">
        <ele>2477.43</ele>
        <time>2021-07-01T12:04:19.000Z</time>
      </trkpt>
      <trkpt lat="44.2435" lon="6.71743">
        <ele>2475.12</ele>
        <time>2021-07-01T12:04:29.000Z</time>
      </trkpt>
      <trkpt lat="44.24361" lon="6.71736">
        <ele>2473.03</ele>
        <time>2021-07-01T12:04:39.000Z</time>
      </trkpt>
      <trkpt lat="44.24372" lon="6.71727">
        <ele>2470.68</ele>
        <time>2021-07-01T12:04:49.000Z</time>
      </trkpt>
      <trkpt lat="44.24382" lon="6.71717">
        <ele>2468.1</ele>
        <time>2021-07-01T12:04:59.000Z</time>
      </trkpt>
      <trkpt lat="44.24394" lon="6.71711">
        <ele>2465.79</ele>
        <time>2021-07-01T12:05:09.000Z</time>
      </trkpt>
      <trkpt lat="44.24403" lon="6.71701">
        <ele>2463.06</ele>
        <time>2021-07-01T12:05:19.000Z</time>
      </trkpt>
      <trkpt lat="44.24413" lon="6.7169">
        <ele>2460</ele>
        <time>2021-07-01T12:05:29.000Z</time>
      </trkpt>
      <trkpt lat="44.24422" lon="6.71684">
        <ele>2457.51</ele>
        <time>2021-07-01T12:05:39.000Z</time>
      </trkpt>
      <trkpt lat="44.24433" lon="6.71679">
        <ele>2454.86</ele>
        <time>2021-07-01T12:05:49.000Z</time>
      </trkpt>
      <trkpt lat="44.24443" lon="6.71671">
        <ele>2452.43</ele>
        <time>2021-07-01T12:05:59.000Z</time>
      </trkpt>
      <trkpt lat="44.24452" lon="6.71666">
        <ele>2450.26</ele>
        <time>2021-07-01T12:06:09.000Z</time>
      </trkpt>
      <trkpt lat="44.24463" lon="6.71662">
        <ele>2447.85</ele>
        <time>2021-07-01T12:06:19.000Z</time>
      </trkpt>
      <trkpt lat="44.24472" lon="6.71672">
        <ele>2446.25</ele>
        <time>2021-07-01T12:06:29.000Z</time>
      </trkpt>
      <trkpt lat="44.24483" lon="6.7168">
        <ele>2443.98</ele>
        <time>2021-07-01T12:06:39.000Z</time>
      </trkpt>
      <trkpt lat="44.24493" lon="6.7169">
        <ele>2441.02</ele>
        <time>2021-07-01T12:06:49.000Z</time>
      </trkpt>
      <trkpt lat="44.24494" lon="6.71705">
        <ele>2440.13</ele>
        <time>2021-07-01T12:06:59.000Z</time>
      </trkpt>
      <trkpt lat="44.24501" lon="6.71696">
        <ele>2438.38</ele>
        <time>2021-07-01T12:07:20.000Z</time>
      </trkpt>
      <trkpt lat="44.24507" lon="6.71683">
        <ele>2437.04</ele>
        <time>2021-07-01T12:07:30.000Z</time>
      </trkpt>
      <trkpt lat="44.24506" lon="6.71667">
        <ele>2437.11</ele>
        <time>2021-07-01T12:07:40.000Z</time>
      </trkpt>
      <trkpt lat="44.24502" lon="6.71656">
        <ele>2437.86</ele>
        <time>2021-07-01T12:07:50.000Z</time>
      </trkpt>
      <trkpt lat="44.245" lon="6.71643">
        <ele>2437.48</ele>
        <time>2021-07-01T12:08:00.000Z</time>
      </trkpt>
      <trkpt lat="44.24499" lon="6.71628">
        <ele>2436.04</ele>
        <time>2021-07-01T12:08:10.000Z</time>
      </trkpt>
      <trkpt lat="44.24504" lon="6.71612">
        <ele>2432.86</ele>
        <time>2021-07-01T12:08:20.000Z</time>
      </trkpt>
      <trkpt lat="44.24511" lon="6.71602">
        <ele>2430.39</ele>
        <time>2021-07-01T12:09:09.000Z</time>
      </trkpt>
      <trkpt lat="44.24519" lon="6.71587">
        <ele>2427.5</ele>
        <time>2021-07-01T12:09:19.000Z</time>
      </trkpt>
      <trkpt lat="44.24525" lon="6.71573">
        <ele>2425.57</ele>
        <time>2021-07-01T12:09:29.000Z</time>
      </trkpt>
      <trkpt lat="44.24518" lon="6.71563">
        <ele>2425.84</ele>
        <time>2021-07-01T12:09:40.000Z</time>
      </trkpt>
      <trkpt lat="44.24526" lon="6.71555">
        <ele>2424.02</ele>
        <time>2021-07-01T12:09:50.000Z</time>
      </trkpt>
      <trkpt lat="44.24536" lon="6.71554">
        <ele>2422.63</ele>
        <time>2021-07-01T12:12:10.000Z</time>
      </trkpt>
      <trkpt lat="44.24545" lon="6.71555">
        <ele>2421.54</ele>
        <time>2021-07-01T12:12:33.000Z</time>
      </trkpt>
      <trkpt lat="44.2455" lon="6.71566">
        <ele>2421.67</ele>
        <time>2021-07-01T12:12:47.000Z</time>
      </trkpt>
      <trkpt lat="44.24551" lon="6.71579">
        <ele>2422.13</ele>
        <time>2021-07-01T12:12:57.000Z</time>
      </trkpt>
      <trkpt lat="44.24549" lon="6.71595">
        <ele>2422.91</ele>
        <time>2021-07-01T12:13:07.000Z</time>
      </trkpt>
      <trkpt lat="44.24557" lon="6.71604">
        <ele>2421.29</ele>
        <time>2021-07-01T12:13:17.000Z</time>
      </trkpt>
      <trkpt lat="44.24566" lon="6.71612">
        <ele>2418.9</ele>
        <time>2021-07-01T12:13:27.000Z</time>
      </trkpt>
      <trkpt lat="44.24573" lon="6.71622">
        <ele>2416.02</ele>
        <time>2021-07-01T12:13:37.000Z</time>
      </trkpt>
      <trkpt lat="44.24577" lon="6.71638">
        <ele>2413.36</ele>
        <time>2021-07-01T12:13:47.000Z</time>
      </trkpt>
      <trkpt lat="44.24577" lon="6.71655">
        <ele>2411.79</ele>
        <time>2021-07-01T12:13:57.000Z</time>
      </trkpt>
      <trkpt lat="44.24577" lon="6.71672">
        <ele>2410.81</ele>
        <time>2021-07-01T12:14:07.000Z</time>
      </trkpt>
      <trkpt lat="44.24578" lon="6.71689">
        <ele>2409.58</ele>
        <time>2021-07-01T12:14:17.000Z</time>
      </trkpt>
      <trkpt lat="44.24575" lon="6.71705">
        <ele>2409.47</ele>
        <time>2021-07-01T12:14:27.000Z</time>
      </trkpt>
      <trkpt lat="44.24571" lon="6.71718">
        <ele>2410.38</ele>
        <time>2021-07-01T12:14:37.000Z</time>
      </trkpt>
      <trkpt lat="44.24579" lon="6.71712">
        <ele>2407.78</ele>
        <time>2021-07-01T12:16:00.000Z</time>
      </trkpt>
      <trkpt lat="44.24586" lon="6.71703">
        <ele>2406.03</ele>
        <time>2021-07-01T12:16:10.000Z</time>
      </trkpt>
      <trkpt lat="44.24592" lon="6.7169">
        <ele>2404.66</ele>
        <time>2021-07-01T12:16:20.000Z</time>
      </trkpt>
      <trkpt lat="44.24601" lon="6.7168">
        <ele>2402.58</ele>
        <time>2021-07-01T12:16:30.000Z</time>
      </trkpt>
      <trkpt lat="44.24609" lon="6.71669">
        <ele>2400.27</ele>
        <time>2021-07-01T12:16:40.000Z</time>
      </trkpt>
      <trkpt lat="44.24618" lon="6.71661">
        <ele>2397.73</ele>
        <time>2021-07-01T12:16:50.000Z</time>
      </trkpt>
      <trkpt lat="44.24627" lon="6.7165">
        <ele>2395.44</ele>
        <time>2021-07-01T12:17:00.000Z</time>
      </trkpt>
      <trkpt lat="44.24634" lon="6.71638">
        <ele>2394.44</ele>
        <time>2021-07-01T12:17:10.000Z</time>
      </trkpt>
      <trkpt lat="44.24642" lon="6.71626">
        <ele>2393.15</ele>
        <time>2021-07-01T12:17:20.000Z</time>
      </trkpt>
      <trkpt lat="44.24647" lon="6.71614">
        <ele>2392.98</ele>
        <time>2021-07-01T12:17:30.000Z</time>
      </trkpt>
      <trkpt lat="44.24656" lon="6.71605">
        <ele>2390.59</ele>
        <time>2021-07-01T12:17:40.000Z</time>
      </trkpt>
      <trkpt lat="44.24665" lon="6.71594">
        <ele>2388.71</ele>
        <time>2021-07-01T12:17:50.000Z</time>
      </trkpt>
      <trkpt lat="44.24671" lon="6.71585">
        <ele>2387.04</ele>
        <time>2021-07-01T12:18:17.000Z</time>
      </trkpt>
      <trkpt lat="44.24679" lon="6.71577">
        <ele>2384.41</ele>
        <time>2021-07-01T12:18:27.000Z</time>
      </trkpt>
      <trkpt lat="44.24687" lon="6.71567">
        <ele>2382.18</ele>
        <time>2021-07-01T12:18:37.000Z</time>
      </trkpt>
      <trkpt lat="44.24692" lon="6.71553">
        <ele>2381.5</ele>
        <time>2021-07-01T12:18:47.000Z</time>
      </trkpt>
      <trkpt lat="44.24701" lon="6.7154">
        <ele>2378.86</ele>
        <time>2021-07-01T12:18:57.000Z</time>
      </trkpt>
      <trkpt lat="44.24708" lon="6.71528">
        <ele>2376.93</ele>
        <time>2021-07-01T12:19:07.000Z</time>
      </trkpt>
      <trkpt lat="44.24715" lon="6.71515">
        <ele>2374.81</ele>
        <time>2021-07-01T12:19:17.000Z</time>
      </trkpt>
      <trkpt lat="44.2472" lon="6.71501">
        <ele>2372.99</ele>
        <time>2021-07-01T12:19:27.000Z</time>
      </trkpt>
      <trkpt lat="44.24724" lon="6.71486">
        <ele>2370.93</ele>
        <time>2021-07-01T12:19:37.000Z</time>
      </trkpt>
      <trkpt lat="44.24724" lon="6.71472">
        <ele>2370.66</ele>
        <time>2021-07-01T12:19:47.000Z</time>
      </trkpt>
      <trkpt lat="44.24732" lon="6.71465">
        <ele>2366.44</ele>
        <time>2021-07-01T12:20:01.000Z</time>
      </trkpt>
      <trkpt lat="44.24744" lon="6.71471">
        <ele>2361.27</ele>
        <time>2021-07-01T12:20:11.000Z</time>
      </trkpt>
      <trkpt lat="44.2475" lon="6.71483">
        <ele>2358.9</ele>
        <time>2021-07-01T12:20:21.000Z</time>
      </trkpt>
      <trkpt lat="44.24751" lon="6.71501">
        <ele>2358.36</ele>
        <time>2021-07-01T12:20:31.000Z</time>
      </trkpt>
      <trkpt lat="44.24747" lon="6.71516">
        <ele>2359.77</ele>
        <time>2021-07-01T12:20:41.000Z</time>
      </trkpt>
      <trkpt lat="44.24744" lon="6.71528">
        <ele>2360.26</ele>
        <time>2021-07-01T12:20:57.000Z</time>
      </trkpt>
      <trkpt lat="44.24742" lon="6.71542">
        <ele>2359.78</ele>
        <time>2021-07-01T12:21:07.000Z</time>
      </trkpt>
      <trkpt lat="44.24738" lon="6.71557">
        <ele>2359.86</ele>
        <time>2021-07-01T12:21:17.000Z</time>
      </trkpt>
      <trkpt lat="44.24737" lon="6.7157">
        <ele>2359.26</ele>
        <time>2021-07-01T12:21:28.000Z</time>
      </trkpt>
      <trkpt lat="44.24737" lon="6.71585">
        <ele>2358.35</ele>
        <time>2021-07-01T12:21:38.000Z</time>
      </trkpt>
      <trkpt lat="44.24737" lon="6.71602">
        <ele>2357.46</ele>
        <time>2021-07-01T12:21:48.000Z</time>
      </trkpt>
      <trkpt lat="44.2474" lon="6.71615">
        <ele>2356.03</ele>
        <time>2021-07-01T12:21:58.000Z</time>
      </trkpt>
      <trkpt lat="44.24738" lon="6.71631">
        <ele>2356.31</ele>
        <time>2021-07-01T12:22:08.000Z</time>
      </trkpt>
      <trkpt lat="44.24745" lon="6.71623">
        <ele>2353.66</ele>
        <time>2021-07-01T12:22:25.000Z</time>
      </trkpt>
      <trkpt lat="44.24751" lon="6.71611">
        <ele>2351.9</ele>
        <time>2021-07-01T12:22:35.000Z</time>
      </trkpt>
      <trkpt lat="44.24756" lon="6.71596">
        <ele>2350.15</ele>
        <time>2021-07-01T12:22:45.000Z</time>
      </trkpt>
      <trkpt lat="44.24754" lon="6.71582">
        <ele>2351.25</ele>
        <time>2021-07-01T12:22:56.000Z</time>
      </trkpt>
      <trkpt lat="44.24758" lon="6.71568">
        <ele>2350.56</ele>
        <time>2021-07-01T12:23:06.000Z</time>
      </trkpt>
      <trkpt lat="44.24764" lon="6.71558">
        <ele>2348.65</ele>
        <time>2021-07-01T12:23:17.000Z</time>
      </trkpt>
      <trkpt lat="44.24764" lon="6.71545">
        <ele>2349.83</ele>
        <time>2021-07-01T12:23:27.000Z</time>
      </trkpt>
      <trkpt lat="44.24772" lon="6.71536">
        <ele>2347.12</ele>
        <time>2021-07-01T12:23:51.000Z</time>
      </trkpt>
      <trkpt lat="44.24779" lon="6.71524">
        <ele>2344.65</ele>
        <time>2021-07-01T12:24:01.000Z</time>
      </trkpt>
      <trkpt lat="44.24785" lon="6.71514">
        <ele>2342.16</ele>
        <time>2021-07-01T12:24:12.000Z</time>
      </trkpt>
      <trkpt lat="44.24794" lon="6.715">
        <ele>2338.1</ele>
        <time>2021-07-01T12:24:22.000Z</time>
      </trkpt>
      <trkpt lat="44.24802" lon="6.71488">
        <ele>2333.53</ele>
        <time>2021-07-01T12:24:32.000Z</time>
      </trkpt>
      <trkpt lat="44.24808" lon="6.71477">
        <ele>2330.34</ele>
        <time>2021-07-01T12:24:42.000Z</time>
      </trkpt>
      <trkpt lat="44.24812" lon="6.71461">
        <ele>2327.49</ele>
        <time>2021-07-01T12:24:52.000Z</time>
      </trkpt>
      <trkpt lat="44.24813" lon="6.71444">
        <ele>2325.72</ele>
        <time>2021-07-01T12:25:02.000Z</time>
      </trkpt>
      <trkpt lat="44.2481" lon="6.71432">
        <ele>2326.18</ele>
        <time>2021-07-01T12:25:30.000Z</time>
      </trkpt>
      <trkpt lat="44.24804" lon="6.71419">
        <ele>2327.35</ele>
        <time>2021-07-01T12:25:40.000Z</time>
      </trkpt>
      <trkpt lat="44.24796" lon="6.71409">
        <ele>2329.79</ele>
        <time>2021-07-01T12:25:50.000Z</time>
      </trkpt>
      <trkpt lat="44.24787" lon="6.71404">
        <ele>2333.27</ele>
        <time>2021-07-01T12:26:01.000Z</time>
      </trkpt>
      <trkpt lat="44.24788" lon="6.7139">
        <ele>2330.15</ele>
        <time>2021-07-01T12:26:13.000Z</time>
      </trkpt>
      <trkpt lat="44.2479" lon="6.71376">
        <ele>2326.21</ele>
        <time>2021-07-01T12:26:23.000Z</time>
      </trkpt>
      <trkpt lat="44.24789" lon="6.7136">
        <ele>2323.57</ele>
        <time>2021-07-01T12:26:33.000Z</time>
      </trkpt>
      <trkpt lat="44.24781" lon="6.71348">
        <ele>2324.36</ele>
        <time>2021-07-01T12:26:43.000Z</time>
      </trkpt>
      <trkpt lat="44.24778" lon="6.71336">
        <ele>2322.58</ele>
        <time>2021-07-01T12:26:53.000Z</time>
      </trkpt>
      <trkpt lat="44.24775" lon="6.7132">
        <ele>2319.61</ele>
        <time>2021-07-01T12:27:03.000Z</time>
      </trkpt>
      <trkpt lat="44.24766" lon="6.7131">
        <ele>2320.51</ele>
        <time>2021-07-01T12:27:13.000Z</time>
      </trkpt>
      <trkpt lat="44.24757" lon="6.713">
        <ele>2320.49</ele>
        <time>2021-07-01T12:27:23.000Z</time>
      </trkpt>
      <trkpt lat="44.24749" lon="6.71297">
        <ele>2322.89</ele>
        <time>2021-07-01T12:27:35.000Z</time>
      </trkpt>
      <trkpt lat="44.24746" lon="6.71284">
        <ele>2319.53</ele>
        <time>2021-07-01T12:27:45.000Z</time>
      </trkpt>
      <trkpt lat="44.24739" lon="6.71273">
        <ele>2319.03</ele>
        <time>2021-07-01T12:27:55.000Z</time>
      </trkpt>
      <trkpt lat="44.24736" lon="6.71259">
        <ele>2315.93</ele>
        <time>2021-07-01T12:28:05.000Z</time>
      </trkpt>
      <trkpt lat="44.24729" lon="6.71247">
        <ele>2315.49</ele>
        <time>2021-07-01T12:28:15.000Z</time>
      </trkpt>
      <trkpt lat="44.24722" lon="6.71234">
        <ele>2315.61</ele>
        <time>2021-07-01T12:28:25.000Z</time>
      </trkpt>
      <trkpt lat="44.24714" lon="6.71226">
        <ele>2316.76</ele>
        <time>2021-07-01T12:28:35.000Z</time>
      </trkpt>
      <trkpt lat="44.24715" lon="6.71212">
        <ele>2313.33</ele>
        <time>2021-07-01T12:28:46.000Z</time>
      </trkpt>
      <trkpt lat="44.24714" lon="6.71196">
        <ele>2310.64</ele>
        <time>2021-07-01T12:28:56.000Z</time>
      </trkpt>
      <trkpt lat="44.24713" lon="6.71183">
        <ele>2309.36</ele>
        <time>2021-07-01T12:29:06.000Z</time>
      </trkpt>
      <trkpt lat="44.24712" lon="6.71169">
        <ele>2308.53</ele>
        <time>2021-07-01T12:29:16.000Z</time>
      </trkpt>
      <trkpt lat="44.24715" lon="6.71157">
        <ele>2307.6</ele>
        <time>2021-07-01T12:29:27.000Z</time>
      </trkpt>
      <trkpt lat="44.2472" lon="6.71146">
        <ele>2306.97</ele>
        <time>2021-07-01T12:29:37.000Z</time>
      </trkpt>
      <trkpt lat="44.24729" lon="6.71138">
        <ele>2305.51</ele>
        <time>2021-07-01T12:29:47.000Z</time>
      </trkpt>
      <trkpt lat="44.24736" lon="6.71128">
        <ele>2305.52</ele>
        <time>2021-07-01T12:29:57.000Z</time>
      </trkpt>
      <trkpt lat="44.24747" lon="6.71121">
        <ele>2303.62</ele>
        <time>2021-07-01T12:30:07.000Z</time>
      </trkpt>
      <trkpt lat="44.24757" lon="6.71116">
        <ele>2301.28</ele>
        <time>2021-07-01T12:30:17.000Z</time>
      </trkpt>
      <trkpt lat="44.24766" lon="6.71109">
        <ele>2299.91</ele>
        <time>2021-07-01T12:30:27.000Z</time>
      </trkpt>
      <trkpt lat="44.24776" lon="6.71102">
        <ele>2297.83</ele>
        <time>2021-07-01T12:30:37.000Z</time>
      </trkpt>
      <trkpt lat="44.24783" lon="6.71091">
        <ele>2296.58</ele>
        <time>2021-07-01T12:30:47.000Z</time>
      </trkpt>
      <trkpt lat="44.24796" lon="6.71083">
        <ele>2292.46</ele>
        <time>2021-07-01T12:30:57.000Z</time>
      </trkpt>
      <trkpt lat="44.24807" lon="6.71077">
        <ele>2288.81</ele>
        <time>2021-07-01T12:31:07.000Z</time>
      </trkpt>
      <trkpt lat="44.24816" lon="6.71066">
        <ele>2285.52</ele>
        <time>2021-07-01T12:31:17.000Z</time>
      </trkpt>
      <trkpt lat="44.24827" lon="6.71058">
        <ele>2282.29</ele>
        <time>2021-07-01T12:31:27.000Z</time>
      </trkpt>
      <trkpt lat="44.24835" lon="6.71048">
        <ele>2279.83</ele>
        <time>2021-07-01T12:31:37.000Z</time>
      </trkpt>
      <trkpt lat="44.24845" lon="6.71039">
        <ele>2277.29</ele>
        <time>2021-07-01T12:31:47.000Z</time>
      </trkpt>
      <trkpt lat="44.24852" lon="6.7103">
        <ele>2275.47</ele>
        <time>2021-07-01T12:31:57.000Z</time>
      </trkpt>
      <trkpt lat="44.24858" lon="6.71016">
        <ele>2273.4</ele>
        <time>2021-07-01T12:32:07.000Z</time>
      </trkpt>
      <trkpt lat="44.24857" lon="6.71003">
        <ele>2272.71</ele>
        <time>2021-07-01T12:32:17.000Z</time>
      </trkpt>
      <trkpt lat="44.24851" lon="6.70992">
        <ele>2272.84</ele>
        <time>2021-07-01T12:32:27.000Z</time>
      </trkpt>
      <trkpt lat="44.24849" lon="6.70975">
        <ele>2271.66</ele>
        <time>2021-07-01T12:32:37.000Z</time>
      </trkpt>
      <trkpt lat="44.24846" lon="6.70962">
        <ele>2270.8</ele>
        <time>2021-07-01T12:32:47.000Z</time>
      </trkpt>
      <trkpt lat="44.24845" lon="6.70947">
        <ele>2269.49</ele>
        <time>2021-07-01T12:32:57.000Z</time>
      </trkpt>
      <trkpt lat="44.24843" lon="6.70933">
        <ele>2268.27</ele>
        <time>2021-07-01T12:33:07.000Z</time>
      </trkpt>
      <trkpt lat="44.24835" lon="6.70921">
        <ele>2267.41</ele>
        <time>2021-07-01T12:33:17.000Z</time>
      </trkpt>
      <trkpt lat="44.24827" lon="6.70908">
        <ele>2266.24</ele>
        <time>2021-07-01T12:33:27.000Z</time>
      </trkpt>
      <trkpt lat="44.24818" lon="6.70896">
        <ele>2265.24</ele>
        <time>2021-07-01T12:33:37.000Z</time>
      </trkpt>
      <trkpt lat="44.24813" lon="6.70881">
        <ele>2263.98</ele>
        <time>2021-07-01T12:33:47.000Z</time>
      </trkpt>
      <trkpt lat="44.24807" lon="6.7087">
        <ele>2263.1</ele>
        <time>2021-07-01T12:34:01.000Z</time>
      </trkpt>
      <trkpt lat="44.248" lon="6.7086">
        <ele>2262.3</ele>
        <time>2021-07-01T12:34:11.000Z</time>
      </trkpt>
      <trkpt lat="44.24792" lon="6.70847">
        <ele>2261.43</ele>
        <time>2021-07-01T12:34:21.000Z</time>
      </trkpt>
      <trkpt lat="44.24786" lon="6.70836">
        <ele>2260.75</ele>
        <time>2021-07-01T12:34:39.000Z</time>
      </trkpt>
      <trkpt lat="44.24779" lon="6.70821">
        <ele>2259.94</ele>
        <time>2021-07-01T12:34:49.000Z</time>
      </trkpt>
      <trkpt lat="44.24786" lon="6.70831">
        <ele>2260.39</ele>
        <time>2021-07-01T12:36:07.000Z</time>
      </trkpt>
      <trkpt lat="44.24793" lon="6.70843">
        <ele>2261.12</ele>
        <time>2021-07-01T12:36:17.000Z</time>
      </trkpt>
      <trkpt lat="44.24786" lon="6.7085">
        <ele>2261.84</ele>
        <time>2021-07-01T12:36:32.000Z</time>
      </trkpt>
      <trkpt lat="44.24774" lon="6.7085">
        <ele>2262.18</ele>
        <time>2021-07-01T12:36:42.000Z</time>
      </trkpt>
      <trkpt lat="44.24761" lon="6.70848">
        <ele>2262.6</ele>
        <time>2021-07-01T12:36:52.000Z</time>
      </trkpt>
      <trkpt lat="44.2475" lon="6.70842">
        <ele>2262.7</ele>
        <time>2021-07-01T12:37:02.000Z</time>
      </trkpt>
      <trkpt lat="44.24741" lon="6.70836">
        <ele>2262.66</ele>
        <time>2021-07-01T12:37:12.000Z</time>
      </trkpt>
      <trkpt lat="44.24729" lon="6.70831">
        <ele>2262.83</ele>
        <time>2021-07-01T12:37:22.000Z</time>
      </trkpt>
      <trkpt lat="44.24718" lon="6.70827">
        <ele>2262.99</ele>
        <time>2021-07-01T12:37:32.000Z</time>
      </trkpt>
      <trkpt lat="44.24704" lon="6.70823">
        <ele>2263.53</ele>
        <time>2021-07-01T12:37:42.000Z</time>
      </trkpt>
      <trkpt lat="44.24693" lon="6.70816">
        <ele>2263.57</ele>
        <time>2021-07-01T12:37:52.000Z</time>
      </trkpt>
      <trkpt lat="44.24681" lon="6.7081">
        <ele>2263.96</ele>
        <time>2021-07-01T12:38:02.000Z</time>
      </trkpt>
      <trkpt lat="44.24669" lon="6.70803">
        <ele>2264.33</ele>
        <time>2021-07-01T12:38:12.000Z</time>
      </trkpt>
      <trkpt lat="44.24659" lon="6.70797">
        <ele>2264.88</ele>
        <time>2021-07-01T12:38:22.000Z</time>
      </trkpt>
      <trkpt lat="44.2465" lon="6.70789">
        <ele>2265.14</ele>
        <time>2021-07-01T12:38:32.000Z</time>
      </trkpt>
      <trkpt lat="44.24641" lon="6.7078">
        <ele>2265.51</ele>
        <time>2021-07-01T12:38:42.000Z</time>
      </trkpt>
      <trkpt lat="44.24634" lon="6.70771">
        <ele>2265.39</ele>
        <time>2021-07-01T12:38:55.000Z</time>
      </trkpt>
      <trkpt lat="44.24625" lon="6.70764">
        <ele>2265.55</ele>
        <time>2021-07-01T12:39:05.000Z</time>
      </trkpt>
      <trkpt lat="44.24615" lon="6.70758">
        <ele>2266.13</ele>
        <time>2021-07-01T12:39:15.000Z</time>
      </trkpt>
      <trkpt lat="44.24604" lon="6.70752">
        <ele>2266.52</ele>
        <time>2021-07-01T12:39:25.000Z</time>
      </trkpt>
      <trkpt lat="44.24595" lon="6.70746">
        <ele>2266.5</ele>
        <time>2021-07-01T12:39:35.000Z</time>
      </trkpt>
      <trkpt lat="44.24585" lon="6.70743">
        <ele>2266.73</ele>
        <time>2021-07-01T12:39:59.000Z</time>
      </trkpt>
      <trkpt lat="44.24576" lon="6.70744">
        <ele>2267.4</ele>
        <time>2021-07-01T12:40:09.000Z</time>
      </trkpt>
      <trkpt lat="44.24567" lon="6.7074">
        <ele>2267.3</ele>
        <time>2021-07-01T12:40:23.000Z</time>
      </trkpt>
      <trkpt lat="44.24558" lon="6.70739">
        <ele>2267.53</ele>
        <time>2021-07-01T12:40:35.000Z</time>
      </trkpt>
      <trkpt lat="44.24547" lon="6.70739">
        <ele>2267.96</ele>
        <time>2021-07-01T12:40:45.000Z</time>
      </trkpt>
      <trkpt lat="44.24537" lon="6.70737">
        <ele>2267.98</ele>
        <time>2021-07-01T12:40:55.000Z</time>
      </trkpt>
      <trkpt lat="44.24528" lon="6.70735">
        <ele>2267.82</ele>
        <time>2021-07-01T12:41:07.000Z</time>
      </trkpt>
      <trkpt lat="44.24518" lon="6.70734">
        <ele>2267.7</ele>
        <time>2021-07-01T12:41:27.000Z</time>
      </trkpt>
      <trkpt lat="44.24509" lon="6.70731">
        <ele>2267.37</ele>
        <time>2021-07-01T12:41:37.000Z</time>
      </trkpt>
      <trkpt lat="44.245" lon="6.70726">
        <ele>2266.33</ele>
        <time>2021-07-01T12:41:50.000Z</time>
      </trkpt>
      <trkpt lat="44.24491" lon="6.70726">
        <ele>2266.57</ele>
        <time>2021-07-01T12:42:01.000Z</time>
      </trkpt>
      <trkpt lat="44.24484" lon="6.70717">
        <ele>2264.96</ele>
        <time>2021-07-01T12:42:14.000Z</time>
      </trkpt>
      <trkpt lat="44.24481" lon="6.70705">
        <ele>2263.18</ele>
        <time>2021-07-01T12:42:24.000Z</time>
      </trkpt>
      <trkpt lat="44.24474" lon="6.70693">
        <ele>2261.73</ele>
        <time>2021-07-01T12:42:34.000Z</time>
      </trkpt>
      <trkpt lat="44.24468" lon="6.70684">
        <ele>2260.93</ele>
        <time>2021-07-01T12:42:44.000Z</time>
      </trkpt>
      <trkpt lat="44.2446" lon="6.70676">
        <ele>2260.25</ele>
        <time>2021-07-01T12:42:54.000Z</time>
      </trkpt>
      <trkpt lat="44.2445" lon="6.70667">
        <ele>2259.67</ele>
        <time>2021-07-01T12:43:04.000Z</time>
      </trkpt>
      <trkpt lat="44.24438" lon="6.7066">
        <ele>2259.28</ele>
        <time>2021-07-01T12:43:14.000Z</time>
      </trkpt>
      <trkpt lat="44.24428" lon="6.70658">
        <ele>2259.14</ele>
        <time>2021-07-01T12:43:24.000Z</time>
      </trkpt>
      <trkpt lat="44.24419" lon="6.70657">
        <ele>2258.72</ele>
        <time>2021-07-01T12:43:36.000Z</time>
      </trkpt>
      <trkpt lat="44.24409" lon="6.70656">
        <ele>2257.88</ele>
        <time>2021-07-01T12:43:46.000Z</time>
      </trkpt>
      <trkpt lat="44.24399" lon="6.70659">
        <ele>2257.35</ele>
        <time>2021-07-01T12:43:56.000Z</time>
      </trkpt>
      <trkpt lat="44.2439" lon="6.70664">
        <ele>2256.91</ele>
        <time>2021-07-01T12:44:06.000Z</time>
      </trkpt>
      <trkpt lat="44.24383" lon="6.70671">
        <ele>2256.76</ele>
        <time>2021-07-01T12:44:18.000Z</time>
      </trkpt>
      <trkpt lat="44.24374" lon="6.70677">
        <ele>2256.23</ele>
        <time>2021-07-01T12:44:28.000Z</time>
      </trkpt>
      <trkpt lat="44.24366" lon="6.70687">
        <ele>2256.4</ele>
        <time>2021-07-01T12:44:38.000Z</time>
      </trkpt>
      <trkpt lat="44.24359" lon="6.70697">
        <ele>2256.78</ele>
        <time>2021-07-01T12:44:48.000Z</time>
      </trkpt>
      <trkpt lat="44.2435" lon="6.70708">
        <ele>2257.71</ele>
        <time>2021-07-01T12:44:58.000Z</time>
      </trkpt>
      <trkpt lat="44.24344" lon="6.70717">
        <ele>2258.69</ele>
        <time>2021-07-01T12:45:08.000Z</time>
      </trkpt>
      <trkpt lat="44.24339" lon="6.7073">
        <ele>2260.94</ele>
        <time>2021-07-01T12:45:18.000Z</time>
      </trkpt>
      <trkpt lat="44.24331" lon="6.70741">
        <ele>2262.55</ele>
        <time>2021-07-01T12:45:28.000Z</time>
      </trkpt>
      <trkpt lat="44.24328" lon="6.70753">
        <ele>2264.91</ele>
        <time>2021-07-01T12:45:41.000Z</time>
      </trkpt>
      <trkpt lat="44.24322" lon="6.70764">
        <ele>2266.48</ele>
        <time>2021-07-01T12:45:51.000Z</time>
      </trkpt>
      <trkpt lat="44.24313" lon="6.70772">
        <ele>2266.76</ele>
        <time>2021-07-01T12:46:01.000Z</time>
      </trkpt>
      <trkpt lat="44.24302" lon="6.7078">
        <ele>2266.67</ele>
        <time>2021-07-01T12:46:14.000Z</time>
      </trkpt>
      <trkpt lat="44.24293" lon="6.70782">
        <ele>2265.23</ele>
        <time>2021-07-01T12:46:25.000Z</time>
      </trkpt>
      <trkpt lat="44.24285" lon="6.70789">
        <ele>2265.14</ele>
        <time>2021-07-01T12:46:36.000Z</time>
      </trkpt>
      <trkpt lat="44.2428" lon="6.70799">
        <ele>2266.36</ele>
        <time>2021-07-01T12:46:47.000Z</time>
      </trkpt>
      <trkpt lat="44.24272" lon="6.7081">
        <ele>2267.44</ele>
        <time>2021-07-01T12:46:57.000Z</time>
      </trkpt>
      <trkpt lat="44.24263" lon="6.70812">
        <ele>2266.46</ele>
        <time>2021-07-01T12:47:12.000Z</time>
      </trkpt>
      <trkpt lat="44.2425" lon="6.70807">
        <ele>2263.76</ele>
        <time>2021-07-01T12:47:22.000Z</time>
      </trkpt>
      <trkpt lat="44.2424" lon="6.70808">
        <ele>2263.49</ele>
        <time>2021-07-01T12:47:32.000Z</time>
      </trkpt>
      <trkpt lat="44.2423" lon="6.70811">
        <ele>2263.77</ele>
        <time>2021-07-01T12:47:42.000Z</time>
      </trkpt>
      <trkpt lat="44.24219" lon="6.70808">
        <ele>2263.23</ele>
        <time>2021-07-01T12:47:52.000Z</time>
      </trkpt>
      <trkpt lat="44.24209" lon="6.70802">
        <ele>2262.06</ele>
        <time>2021-07-01T12:48:02.000Z</time>
      </trkpt>
      <trkpt lat="44.242" lon="6.70796">
        <ele>2261.08</ele>
        <time>2021-07-01T12:48:12.000Z</time>
      </trkpt>
      <trkpt lat="44.24191" lon="6.70786">
        <ele>2259.32</ele>
        <time>2021-07-01T12:48:22.000Z</time>
      </trkpt>
      <trkpt lat="44.24182" lon="6.70783">
        <ele>2258.93</ele>
        <time>2021-07-01T12:48:32.000Z</time>
      </trkpt>
      <trkpt lat="44.24174" lon="6.70788">
        <ele>2260.46</ele>
        <time>2021-07-01T12:48:42.000Z</time>
      </trkpt>
      <trkpt lat="44.24162" lon="6.70785">
        <ele>2260.21</ele>
        <time>2021-07-01T12:48:52.000Z</time>
      </trkpt>
      <trkpt lat="44.24153" lon="6.70789">
        <ele>2261.27</ele>
        <time>2021-07-01T12:49:02.000Z</time>
      </trkpt>
      <trkpt lat="44.24143" lon="6.70792">
        <ele>2262.37</ele>
        <time>2021-07-01T12:49:13.000Z</time>
      </trkpt>
      <trkpt lat="44.24133" lon="6.70798">
        <ele>2263.73</ele>
        <time>2021-07-01T12:49:23.000Z</time>
      </trkpt>
      <trkpt lat="44.24124" lon="6.70807">
        <ele>2265.18</ele>
        <time>2021-07-01T12:49:33.000Z</time>
      </trkpt>
      <trkpt lat="44.24114" lon="6.70811">
        <ele>2265.81</ele>
        <time>2021-07-01T12:49:43.000Z</time>
      </trkpt>
      <trkpt lat="44.24105" lon="6.70815">
        <ele>2266.18</ele>
        <time>2021-07-01T12:49:53.000Z</time>
      </trkpt>
      <trkpt lat="44.24092" lon="6.70818">
        <ele>2266.19</ele>
        <time>2021-07-01T12:50:03.000Z</time>
      </trkpt>
      <trkpt lat="44.24082" lon="6.70819">
        <ele>2266.03</ele>
        <time>2021-07-01T12:50:13.000Z</time>
      </trkpt>
      <trkpt lat="44.2407" lon="6.7082">
        <ele>2265.73</ele>
        <time>2021-07-01T12:50:23.000Z</time>
      </trkpt>
      <trkpt lat="44.24059" lon="6.70824">
        <ele>2265.48</ele>
        <time>2021-07-01T12:50:33.000Z</time>
      </trkpt>
      <trkpt lat="44.24048" lon="6.70828">
        <ele>2265.11</ele>
        <time>2021-07-01T12:50:43.000Z</time>
      </trkpt>
      <trkpt lat="44.24037" lon="6.70828">
        <ele>2264.54</ele>
        <time>2021-07-01T12:50:53.000Z</time>
      </trkpt>
      <trkpt lat="44.24031" lon="6.70814">
        <ele>2264.45</ele>
        <time>2021-07-01T12:51:03.000Z</time>
      </trkpt>
      <trkpt lat="44.24023" lon="6.70803">
        <ele>2264.39</ele>
        <time>2021-07-01T12:51:13.000Z</time>
      </trkpt>
      <trkpt lat="44.24013" lon="6.70796">
        <ele>2264.29</ele>
        <time>2021-07-01T12:51:23.000Z</time>
      </trkpt>
      <trkpt lat="44.24003" lon="6.708">
        <ele>2263.86</ele>
        <time>2021-07-01T12:51:34.000Z</time>
      </trkpt>
      <trkpt lat="44.23995" lon="6.70807">
        <ele>2263.12</ele>
        <time>2021-07-01T12:51:45.000Z</time>
      </trkpt>
      <trkpt lat="44.23982" lon="6.70813">
        <ele>2262.08</ele>
        <time>2021-07-01T12:51:55.000Z</time>
      </trkpt>
      <trkpt lat="44.23971" lon="6.70814">
        <ele>2261.28</ele>
        <time>2021-07-01T12:52:05.000Z</time>
      </trkpt>
      <trkpt lat="44.23962" lon="6.70806">
        <ele>2261.39</ele>
        <time>2021-07-01T12:52:15.000Z</time>
      </trkpt>
      <trkpt lat="44.23952" lon="6.70792">
        <ele>2262.01</ele>
        <time>2021-07-01T12:52:25.000Z</time>
      </trkpt>
      <trkpt lat="44.23947" lon="6.70777">
        <ele>2263.04</ele>
        <time>2021-07-01T12:52:35.000Z</time>
      </trkpt>
      <trkpt lat="44.23938" lon="6.70774">
        <ele>2262.72</ele>
        <time>2021-07-01T12:52:46.000Z</time>
      </trkpt>
      <trkpt lat="44.23926" lon="6.70774">
        <ele>2261.71</ele>
        <time>2021-07-01T12:52:56.000Z</time>
      </trkpt>
      <trkpt lat="44.23916" lon="6.70769">
        <ele>2261.17</ele>
        <time>2021-07-01T12:53:06.000Z</time>
      </trkpt>
      <trkpt lat="44.23907" lon="6.70768">
        <ele>2260.05</ele>
        <time>2021-07-01T12:53:16.000Z</time>
      </trkpt>
      <trkpt lat="44.23897" lon="6.70767">
        <ele>2258.57</ele>
        <time>2021-07-01T12:53:33.000Z</time>
      </trkpt>
      <trkpt lat="44.23887" lon="6.70771">
        <ele>2256.25</ele>
        <time>2021-07-01T12:53:43.000Z</time>
      </trkpt>
      <trkpt lat="44.23877" lon="6.70774">
        <ele>2253.91</ele>
        <time>2021-07-01T12:53:53.000Z</time>
      </trkpt>
      <trkpt lat="44.23865" lon="6.70775">
        <ele>2251.39</ele>
        <time>2021-07-01T12:54:03.000Z</time>
      </trkpt>
      <trkpt lat="44.23857" lon="6.70772">
        <ele>2249.81</ele>
        <time>2021-07-01T12:54:13.000Z</time>
      </trkpt>
      <trkpt lat="44.23848" lon="6.70764">
        <ele>2248.6</ele>
        <time>2021-07-01T12:54:23.000Z</time>
      </trkpt>
      <trkpt lat="44.2384" lon="6.70756">
        <ele>2247.78</ele>
        <time>2021-07-01T12:54:33.000Z</time>
      </trkpt>
      <trkpt lat="44.23829" lon="6.7075">
        <ele>2246.03</ele>
        <time>2021-07-01T12:54:43.000Z</time>
      </trkpt>
      <trkpt lat="44.23823" lon="6.70739">
        <ele>2245.8</ele>
        <time>2021-07-01T12:54:53.000Z</time>
      </trkpt>
      <trkpt lat="44.23824" lon="6.70722">
        <ele>2247.88</ele>
        <time>2021-07-01T12:55:03.000Z</time>
      </trkpt>
      <trkpt lat="44.23824" lon="6.70709">
        <ele>2249.68</ele>
        <time>2021-07-01T12:55:13.000Z</time>
      </trkpt>
      <trkpt lat="44.2382" lon="6.70697">
        <ele>2250.08</ele>
        <time>2021-07-01T12:55:23.000Z</time>
      </trkpt>
      <trkpt lat="44.23814" lon="6.70684">
        <ele>2249.76</ele>
        <time>2021-07-01T12:55:33.000Z</time>
      </trkpt>
      <trkpt lat="44.2381" lon="6.70672">
        <ele>2250.3</ele>
        <time>2021-07-01T12:55:43.000Z</time>
      </trkpt>
      <trkpt lat="44.23804" lon="6.70662">
        <ele>2249.95</ele>
        <time>2021-07-01T12:56:24.000Z</time>
      </trkpt>
      <trkpt lat="44.23796" lon="6.70656">
        <ele>2248.1</ele>
        <time>2021-07-01T12:56:35.000Z</time>
      </trkpt>
      <trkpt lat="44.23786" lon="6.70655">
        <ele>2245.14</ele>
        <time>2021-07-01T12:56:45.000Z</time>
      </trkpt>
      <trkpt lat="44.2378" lon="6.70643">
        <ele>2245.5</ele>
        <time>2021-07-01T12:56:55.000Z</time>
      </trkpt>
      <trkpt lat="44.23783" lon="6.70655">
        <ele>2244.32</ele>
        <time>2021-07-01T12:57:28.000Z</time>
      </trkpt>
      <trkpt lat="44.23789" lon="6.70666">
        <ele>2244.31</ele>
        <time>2021-07-01T12:57:41.000Z</time>
      </trkpt>
      <trkpt lat="44.23791" lon="6.70681">
        <ele>2243.04</ele>
        <time>2021-07-01T12:57:51.000Z</time>
      </trkpt>
      <trkpt lat="44.23791" lon="6.70698">
        <ele>2240.6</ele>
        <time>2021-07-01T12:58:01.000Z</time>
      </trkpt>
      <trkpt lat="44.23784" lon="6.7071">
        <ele>2237.11</ele>
        <time>2021-07-01T12:58:11.000Z</time>
      </trkpt>
      <trkpt lat="44.23777" lon="6.70701">
        <ele>2235.82</ele>
        <time>2021-07-01T12:58:28.000Z</time>
      </trkpt>
      <trkpt lat="44.23776" lon="6.70703">
        <ele>2235.43</ele>
        <time>2021-07-01T12:59:18.000Z</time>
      </trkpt>
      <trkpt lat="44.23785" lon="6.70707">
        <ele>2237.66</ele>
        <time>2021-07-01T13:05:55.000Z</time>
      </trkpt>
      <trkpt lat="44.23788" lon="6.70694">
        <ele>2240.09</ele>
        <time>2021-07-01T13:12:19.000Z</time>
      </trkpt>
      <trkpt lat="44.23788" lon="6.70681">
        <ele>2242.03</ele>
        <time>2021-07-01T13:12:31.000Z</time>
      </trkpt>
      <trkpt lat="44.23786" lon="6.70669">
        <ele>2243.17</ele>
        <time>2021-07-01T13:13:38.000Z</time>
      </trkpt>
      <trkpt lat="44.23783" lon="6.70656">
        <ele>2243.91</ele>
        <time>2021-07-01T13:13:57.000Z</time>
      </trkpt>
      <trkpt lat="44.2378" lon="6.70644">
        <ele>2245.41</ele>
        <time>2021-07-01T13:14:17.000Z</time>
      </trkpt>
      <trkpt lat="44.23777" lon="6.70632">
        <ele>2246.8</ele>
        <time>2021-07-01T13:14:29.000Z</time>
      </trkpt>
      <trkpt lat="44.23772" lon="6.70621">
        <ele>2247.47</ele>
        <time>2021-07-01T13:15:26.000Z</time>
      </trkpt>
      <trkpt lat="44.23766" lon="6.70612">
        <ele>2247.78</ele>
        <time>2021-07-01T13:15:44.000Z</time>
      </trkpt>
      <trkpt lat="44.23763" lon="6.706">
        <ele>2249.68</ele>
        <time>2021-07-01T13:15:56.000Z</time>
      </trkpt>
      <trkpt lat="44.23757" lon="6.70589">
        <ele>2250.37</ele>
        <time>2021-07-01T13:16:12.000Z</time>
      </trkpt>
      <trkpt lat="44.23749" lon="6.70581">
        <ele>2250.2</ele>
        <time>2021-07-01T13:16:22.000Z</time>
      </trkpt>
      <trkpt lat="44.23742" lon="6.70573">
        <ele>2250.21</ele>
        <time>2021-07-01T13:16:33.000Z</time>
      </trkpt>
      <trkpt lat="44.23734" lon="6.70566">
        <ele>2249.78</ele>
        <time>2021-07-01T13:16:49.000Z</time>
      </trkpt>
      <trkpt lat="44.23727" lon="6.70558">
        <ele>2249.73</ele>
        <time>2021-07-01T13:17:00.000Z</time>
      </trkpt>
      <trkpt lat="44.23723" lon="6.70547">
        <ele>2250.89</ele>
        <time>2021-07-01T13:17:33.000Z</time>
      </trkpt>
      <trkpt lat="44.23719" lon="6.70535">
        <ele>2252.19</ele>
        <time>2021-07-01T13:17:52.000Z</time>
      </trkpt>
      <trkpt lat="44.23715" lon="6.70524">
        <ele>2253.19</ele>
        <time>2021-07-01T13:18:14.000Z</time>
      </trkpt>
      <trkpt lat="44.23714" lon="6.70511">
        <ele>2255.08</ele>
        <time>2021-07-01T13:18:53.000Z</time>
      </trkpt>
      <trkpt lat="44.23715" lon="6.70498">
        <ele>2257.33</ele>
        <time>2021-07-01T13:19:12.000Z</time>
      </trkpt>
      <trkpt lat="44.23721" lon="6.70487">
        <ele>2259.83</ele>
        <time>2021-07-01T13:19:39.000Z</time>
      </trkpt>
      <trkpt lat="44.23724" lon="6.70475">
        <ele>2261.62</ele>
        <time>2021-07-01T13:19:53.000Z</time>
      </trkpt>
      <trkpt lat="44.23722" lon="6.70462">
        <ele>2262.36</ele>
        <time>2021-07-01T13:20:43.000Z</time>
      </trkpt>
      <trkpt lat="44.23723" lon="6.70448">
        <ele>2263.37</ele>
        <time>2021-07-01T13:20:59.000Z</time>
      </trkpt>
      <trkpt lat="44.23721" lon="6.70435">
        <ele>2263.85</ele>
        <time>2021-07-01T13:21:13.000Z</time>
      </trkpt>
      <trkpt lat="44.23724" lon="6.70423">
        <ele>2264.89</ele>
        <time>2021-07-01T13:21:34.000Z</time>
      </trkpt>
      <trkpt lat="44.23725" lon="6.7041">
        <ele>2265.73</ele>
        <time>2021-07-01T13:21:47.000Z</time>
      </trkpt>
      <trkpt lat="44.23729" lon="6.70398">
        <ele>2266.41</ele>
        <time>2021-07-01T13:22:02.000Z</time>
      </trkpt>
      <trkpt lat="44.2373" lon="6.70385">
        <ele>2266.78</ele>
        <time>2021-07-01T13:22:13.000Z</time>
      </trkpt>
      <trkpt lat="44.23731" lon="6.70373">
        <ele>2266.99</ele>
        <time>2021-07-01T13:22:23.000Z</time>
      </trkpt>
      <trkpt lat="44.23738" lon="6.70361">
        <ele>2266.51</ele>
        <time>2021-07-01T13:23:14.000Z</time>
      </trkpt>
      <trkpt lat="44.23747" lon="6.70357">
        <ele>2265.52</ele>
        <time>2021-07-01T13:23:30.000Z</time>
      </trkpt>
      <trkpt lat="44.23754" lon="6.70348">
        <ele>2264.18</ele>
        <time>2021-07-01T13:23:45.000Z</time>
      </trkpt>
      <trkpt lat="44.23761" lon="6.70339">
        <ele>2262.43</ele>
        <time>2021-07-01T13:23:56.000Z</time>
      </trkpt>
      <trkpt lat="44.23769" lon="6.70331">
        <ele>2260.56</ele>
        <time>2021-07-01T13:24:06.000Z</time>
      </trkpt>
      <trkpt lat="44.23778" lon="6.70327">
        <ele>2258.44</ele>
        <time>2021-07-01T13:24:21.000Z</time>
      </trkpt>
      <trkpt lat="44.23786" lon="6.70323">
        <ele>2256.29</ele>
        <time>2021-07-01T13:24:34.000Z</time>
      </trkpt>
      <trkpt lat="44.23793" lon="6.70315">
        <ele>2253.75</ele>
        <time>2021-07-01T13:24:55.000Z</time>
      </trkpt>
      <trkpt lat="44.23799" lon="6.70305">
        <ele>2250.92</ele>
        <time>2021-07-01T13:25:05.000Z</time>
      </trkpt>
      <trkpt lat="44.23805" lon="6.70295">
        <ele>2247.76</ele>
        <time>2021-07-01T13:25:16.000Z</time>
      </trkpt>
      <trkpt lat="44.23805" lon="6.70282">
        <ele>2245.74</ele>
        <time>2021-07-01T13:25:29.000Z</time>
      </trkpt>
      <trkpt lat="44.23798" lon="6.70273">
        <ele>2246.42</ele>
        <time>2021-07-01T13:28:52.000Z</time>
      </trkpt>
      <trkpt lat="44.23789" lon="6.70269">
        <ele>2248.63</ele>
        <time>2021-07-01T13:29:06.000Z</time>
      </trkpt>
      <trkpt lat="44.23783" lon="6.70259">
        <ele>2249.18</ele>
        <time>2021-07-01T13:29:19.000Z</time>
      </trkpt>
      <trkpt lat="44.23779" lon="6.70247">
        <ele>2248.64</ele>
        <time>2021-07-01T13:29:30.000Z</time>
      </trkpt>
      <trkpt lat="44.23775" lon="6.70235">
        <ele>2247.67</ele>
        <time>2021-07-01T13:29:43.000Z</time>
      </trkpt>
      <trkpt lat="44.23768" lon="6.70226">
        <ele>2248.06</ele>
        <time>2021-07-01T13:29:56.000Z</time>
      </trkpt>
      <trkpt lat="44.23773" lon="6.70216">
        <ele>2244.04</ele>
        <time>2021-07-01T13:30:20.000Z</time>
      </trkpt>
      <trkpt lat="44.23782" lon="6.70219">
        <ele>2242.16</ele>
        <time>2021-07-01T13:30:32.000Z</time>
      </trkpt>
      <trkpt lat="44.2379" lon="6.70228">
        <ele>2241.92</ele>
        <time>2021-07-01T13:30:44.000Z</time>
      </trkpt>
      <trkpt lat="44.23796" lon="6.7024">
        <ele>2242.15</ele>
        <time>2021-07-01T13:31:26.000Z</time>
      </trkpt>
      <trkpt lat="44.23804" lon="6.70246">
        <ele>2240.51</ele>
        <time>2021-07-01T13:31:38.000Z</time>
      </trkpt>
      <trkpt lat="44.23813" lon="6.70248">
        <ele>2238.03</ele>
        <time>2021-07-01T13:31:49.000Z</time>
      </trkpt>
      <trkpt lat="44.23824" lon="6.7025">
        <ele>2235.03</ele>
        <time>2021-07-01T13:32:03.000Z</time>
      </trkpt>
      <trkpt lat="44.2383" lon="6.70259">
        <ele>2234.18</ele>
        <time>2021-07-01T13:32:15.000Z</time>
      </trkpt>
      <trkpt lat="44.23837" lon="6.70268">
        <ele>2233.71</ele>
        <time>2021-07-01T13:32:31.000Z</time>
      </trkpt>
      <trkpt lat="44.23842" lon="6.70279">
        <ele>2233.82</ele>
        <time>2021-07-01T13:32:45.000Z</time>
      </trkpt>
      <trkpt lat="44.23849" lon="6.70287">
        <ele>2233.43</ele>
        <time>2021-07-01T13:32:58.000Z</time>
      </trkpt>
      <trkpt lat="44.23855" lon="6.70298">
        <ele>2234.47</ele>
        <time>2021-07-01T13:33:11.000Z</time>
      </trkpt>
      <trkpt lat="44.2386" lon="6.7031">
        <ele>2236.02</ele>
        <time>2021-07-01T13:33:23.000Z</time>
      </trkpt>
      <trkpt lat="44.23869" lon="6.70312">
        <ele>2233.97</ele>
        <time>2021-07-01T13:33:42.000Z</time>
      </trkpt>
      <trkpt lat="44.23878" lon="6.7031">
        <ele>2230.87</ele>
        <time>2021-07-01T13:33:55.000Z</time>
      </trkpt>
      <trkpt lat="44.23887" lon="6.70311">
        <ele>2228.35</ele>
        <time>2021-07-01T13:34:07.000Z</time>
      </trkpt>
      <trkpt lat="44.23896" lon="6.70312">
        <ele>2225.78</ele>
        <time>2021-07-01T13:34:19.000Z</time>
      </trkpt>
      <trkpt lat="44.23906" lon="6.70313">
        <ele>2223.09</ele>
        <time>2021-07-01T13:34:30.000Z</time>
      </trkpt>
      <trkpt lat="44.23913" lon="6.70322">
        <ele>2223.15</ele>
        <time>2021-07-01T13:35:44.000Z</time>
      </trkpt>
      <trkpt lat="44.23915" lon="6.70334">
        <ele>2225.78</ele>
        <time>2021-07-01T13:36:26.000Z</time>
      </trkpt>
      <trkpt lat="44.23923" lon="6.70341">
        <ele>2224.95</ele>
        <time>2021-07-01T13:36:38.000Z</time>
      </trkpt>
      <trkpt lat="44.23932" lon="6.70343">
        <ele>2222.25</ele>
        <time>2021-07-01T13:36:52.000Z</time>
      </trkpt>
      <trkpt lat="44.23941" lon="6.70345">
        <ele>2219.16</ele>
        <time>2021-07-01T13:37:08.000Z</time>
      </trkpt>
      <trkpt lat="44.23949" lon="6.70351">
        <ele>2217.58</ele>
        <time>2021-07-01T13:38:17.000Z</time>
      </trkpt>
      <trkpt lat="44.23958" lon="6.70354">
        <ele>2214.68</ele>
        <time>2021-07-01T13:38:30.000Z</time>
      </trkpt>
      <trkpt lat="44.23966" lon="6.70361">
        <ele>2213.24</ele>
        <time>2021-07-01T13:38:43.000Z</time>
      </trkpt>
      <trkpt lat="44.23975" lon="6.70365">
        <ele>2210.67</ele>
        <time>2021-07-01T13:38:58.000Z</time>
      </trkpt>
      <trkpt lat="44.23983" lon="6.7037">
        <ele>2208.81</ele>
        <time>2021-07-01T13:39:14.000Z</time>
      </trkpt>
      <trkpt lat="44.23992" lon="6.70378">
        <ele>2207.65</ele>
        <time>2021-07-01T13:39:25.000Z</time>
      </trkpt>
      <trkpt lat="44.24001" lon="6.70386">
        <ele>2206.51</ele>
        <time>2021-07-01T13:39:36.000Z</time>
      </trkpt>
      <trkpt lat="44.24009" lon="6.70393">
        <ele>2205.41</ele>
        <time>2021-07-01T13:39:49.000Z</time>
      </trkpt>
      <trkpt lat="44.24018" lon="6.70398">
        <ele>2203.15</ele>
        <time>2021-07-01T13:40:00.000Z</time>
      </trkpt>
      <trkpt lat="44.24026" lon="6.70405">
        <ele>2202</ele>
        <time>2021-07-01T13:40:13.000Z</time>
      </trkpt>
      <trkpt lat="44.24036" lon="6.70411">
        <ele>2199.41</ele>
        <time>2021-07-01T13:41:27.000Z</time>
      </trkpt>
      <trkpt lat="44.24043" lon="6.70419">
        <ele>2199</ele>
        <time>2021-07-01T13:44:53.000Z</time>
      </trkpt>
      <trkpt lat="44.24054" lon="6.70425">
        <ele>2195.95</ele>
        <time>2021-07-01T13:45:03.000Z</time>
      </trkpt>
      <trkpt lat="44.24063" lon="6.70429">
        <ele>2193.43</ele>
        <time>2021-07-01T13:45:13.000Z</time>
      </trkpt>
      <trkpt lat="44.24074" lon="6.70428">
        <ele>2189.44</ele>
        <time>2021-07-01T13:45:23.000Z</time>
      </trkpt>
      <trkpt lat="44.24083" lon="6.70429">
        <ele>2186.67</ele>
        <time>2021-07-01T13:45:34.000Z</time>
      </trkpt>
      <trkpt lat="44.24094" lon="6.70428">
        <ele>2183.16</ele>
        <time>2021-07-01T13:45:44.000Z</time>
      </trkpt>
      <trkpt lat="44.24104" lon="6.70423">
        <ele>2178.77</ele>
        <time>2021-07-01T13:45:54.000Z</time>
      </trkpt>
      <trkpt lat="44.24115" lon="6.70426">
        <ele>2176.96</ele>
        <time>2021-07-01T13:46:04.000Z</time>
      </trkpt>
      <trkpt lat="44.24129" lon="6.70428">
        <ele>2174.76</ele>
        <time>2021-07-01T13:46:14.000Z</time>
      </trkpt>
      <trkpt lat="44.2414" lon="6.70431">
        <ele>2173.46</ele>
        <time>2021-07-01T13:46:24.000Z</time>
      </trkpt>
      <trkpt lat="44.24152" lon="6.70435">
        <ele>2172.45</ele>
        <time>2021-07-01T13:46:34.000Z</time>
      </trkpt>
      <trkpt lat="44.24163" lon="6.70438">
        <ele>2171.89</ele>
        <time>2021-07-01T13:46:44.000Z</time>
      </trkpt>
      <trkpt lat="44.24173" lon="6.70441">
        <ele>2171.75</ele>
        <time>2021-07-01T13:46:54.000Z</time>
      </trkpt>
      <trkpt lat="44.24182" lon="6.7044">
        <ele>2170.75</ele>
        <time>2021-07-01T13:47:05.000Z</time>
      </trkpt>
      <trkpt lat="44.24192" lon="6.70438">
        <ele>2169.65</ele>
        <time>2021-07-01T13:47:15.000Z</time>
      </trkpt>
      <trkpt lat="44.24204" lon="6.70435">
        <ele>2168.22</ele>
        <time>2021-07-01T13:47:25.000Z</time>
      </trkpt>
      <trkpt lat="44.24216" lon="6.70431">
        <ele>2167.01</ele>
        <time>2021-07-01T13:47:35.000Z</time>
      </trkpt>
      <trkpt lat="44.24227" lon="6.70429">
        <ele>2166.24</ele>
        <time>2021-07-01T13:47:45.000Z</time>
      </trkpt>
      <trkpt lat="44.24236" lon="6.70425">
        <ele>2165.32</ele>
        <time>2021-07-01T13:47:55.000Z</time>
      </trkpt>
      <trkpt lat="44.24246" lon="6.70421">
        <ele>2164.42</ele>
        <time>2021-07-01T13:48:05.000Z</time>
      </trkpt>
      <trkpt lat="44.24257" lon="6.70419">
        <ele>2163.97</ele>
        <time>2021-07-01T13:48:15.000Z</time>
      </trkpt>
      <trkpt lat="44.24266" lon="6.70416">
        <ele>2163.43</ele>
        <time>2021-07-01T13:48:56.000Z</time>
      </trkpt>
      <trkpt lat="44.24275" lon="6.70414">
        <ele>2163.12</ele>
        <time>2021-07-01T13:49:07.000Z</time>
      </trkpt>
      <trkpt lat="44.24286" lon="6.70411">
        <ele>2162.86</ele>
        <time>2021-07-01T13:49:17.000Z</time>
      </trkpt>
      <trkpt lat="44.24295" lon="6.70408">
        <ele>2162.35</ele>
        <time>2021-07-01T13:49:27.000Z</time>
      </trkpt>
      <trkpt lat="44.24306" lon="6.7041">
        <ele>2163.98</ele>
        <time>2021-07-01T13:49:37.000Z</time>
      </trkpt>
      <trkpt lat="44.24316" lon="6.70405">
        <ele>2163.67</ele>
        <time>2021-07-01T13:49:47.000Z</time>
      </trkpt>
      <trkpt lat="44.24325" lon="6.704">
        <ele>2163</ele>
        <time>2021-07-01T13:49:58.000Z</time>
      </trkpt>
      <trkpt lat="44.24335" lon="6.70394">
        <ele>2162.17</ele>
        <time>2021-07-01T13:50:15.000Z</time>
      </trkpt>
      <trkpt lat="44.24342" lon="6.70387">
        <ele>2161.16</ele>
        <time>2021-07-01T13:50:26.000Z</time>
      </trkpt>
      <trkpt lat="44.24351" lon="6.70384">
        <ele>2161.98</ele>
        <time>2021-07-01T13:50:48.000Z</time>
      </trkpt>
      <trkpt lat="44.24356" lon="6.70372">
        <ele>2159.53</ele>
        <time>2021-07-01T13:51:01.000Z</time>
      </trkpt>
      <trkpt lat="44.24363" lon="6.70363">
        <ele>2158.23</ele>
        <time>2021-07-01T13:51:16.000Z</time>
      </trkpt>
      <trkpt lat="44.24368" lon="6.70351">
        <ele>2156.48</ele>
        <time>2021-07-01T13:51:26.000Z</time>
      </trkpt>
      <trkpt lat="44.24373" lon="6.7034">
        <ele>2155.07</ele>
        <time>2021-07-01T13:51:52.000Z</time>
      </trkpt>
      <trkpt lat="44.24376" lon="6.70327">
        <ele>2153.36</ele>
        <time>2021-07-01T13:52:31.000Z</time>
      </trkpt>
      <trkpt lat="44.24383" lon="6.70317">
        <ele>2153.16</ele>
        <time>2021-07-01T13:53:03.000Z</time>
      </trkpt>
      <trkpt lat="44.24388" lon="6.70307">
        <ele>2153.11</ele>
        <time>2021-07-01T13:53:15.000Z</time>
      </trkpt>
      <trkpt lat="44.24394" lon="6.70296">
        <ele>2153.03</ele>
        <time>2021-07-01T13:53:26.000Z</time>
      </trkpt>
      <trkpt lat="44.244" lon="6.70284">
        <ele>2153.18</ele>
        <time>2021-07-01T13:53:38.000Z</time>
      </trkpt>
      <trkpt lat="44.24405" lon="6.70272">
        <ele>2153.21</ele>
        <time>2021-07-01T13:53:51.000Z</time>
      </trkpt>
      <trkpt lat="44.2441" lon="6.70261">
        <ele>2153</ele>
        <time>2021-07-01T13:54:13.000Z</time>
      </trkpt>
      <trkpt lat="44.24411" lon="6.70248">
        <ele>2151.43</ele>
        <time>2021-07-01T13:54:23.000Z</time>
      </trkpt>
      <trkpt lat="44.24413" lon="6.70235">
        <ele>2150.2</ele>
        <time>2021-07-01T13:54:36.000Z</time>
      </trkpt>
      <trkpt lat="44.2441" lon="6.70221">
        <ele>2147.68</ele>
        <time>2021-07-01T13:54:46.000Z</time>
      </trkpt>
      <trkpt lat="44.24402" lon="6.70213">
        <ele>2145.32</ele>
        <time>2021-07-01T13:54:57.000Z</time>
      </trkpt>
      <trkpt lat="44.24395" lon="6.70205">
        <ele>2142.94</ele>
        <time>2021-07-01T13:55:29.000Z</time>
      </trkpt>
      <trkpt lat="44.24386" lon="6.702">
        <ele>2140.87</ele>
        <time>2021-07-01T14:04:08.000Z</time>
      </trkpt>
      <trkpt lat="44.24376" lon="6.70186">
        <ele>2138.22</ele>
        <time>2021-07-01T14:04:18.000Z</time>
      </trkpt>
      <trkpt lat="44.24366" lon="6.70175">
        <ele>2136.03</ele>
        <time>2021-07-01T14:04:28.000Z</time>
      </trkpt>
      <trkpt lat="44.24355" lon="6.70165">
        <ele>2134.26</ele>
        <time>2021-07-01T14:04:38.000Z</time>
      </trkpt>
      <trkpt lat="44.24345" lon="6.70153">
        <ele>2132.89</ele>
        <time>2021-07-01T14:04:48.000Z</time>
      </trkpt>
      <trkpt lat="44.24341" lon="6.70138">
        <ele>2132.2</ele>
        <time>2021-07-01T14:04:58.000Z</time>
      </trkpt>
      <trkpt lat="44.24335" lon="6.70126">
        <ele>2131.63</ele>
        <time>2021-07-01T14:05:08.000Z</time>
      </trkpt>
      <trkpt lat="44.24327" lon="6.70115">
        <ele>2131</ele>
        <time>2021-07-01T14:05:18.000Z</time>
      </trkpt>
      <trkpt lat="44.24323" lon="6.701">
        <ele>2130.6</ele>
        <time>2021-07-01T14:05:28.000Z</time>
      </trkpt>
      <trkpt lat="44.24317" lon="6.70087">
        <ele>2130.1</ele>
        <time>2021-07-01T14:05:38.000Z</time>
      </trkpt>
      <trkpt lat="44.24304" lon="6.70081">
        <ele>2129.34</ele>
        <time>2021-07-01T14:05:48.000Z</time>
      </trkpt>
      <trkpt lat="44.24295" lon="6.70065">
        <ele>2128.45</ele>
        <time>2021-07-01T14:05:58.000Z</time>
      </trkpt>
      <trkpt lat="44.24295" lon="6.70044">
        <ele>2127.77</ele>
        <time>2021-07-01T14:06:08.000Z</time>
      </trkpt>
      <trkpt lat="44.24296" lon="6.70028">
        <ele>2127.33</ele>
        <time>2021-07-01T14:06:18.000Z</time>
      </trkpt>
      <trkpt lat="44.24301" lon="6.70013">
        <ele>2127.09</ele>
        <time>2021-07-01T14:06:28.000Z</time>
      </trkpt>
      <trkpt lat="44.24308" lon="6.69995">
        <ele>2127.06</ele>
        <time>2021-07-01T14:06:38.000Z</time>
      </trkpt>
      <trkpt lat="44.24313" lon="6.69981">
        <ele>2126.96</ele>
        <time>2021-07-01T14:06:48.000Z</time>
      </trkpt>
      <trkpt lat="44.24319" lon="6.69969">
        <ele>2127.02</ele>
        <time>2021-07-01T14:06:58.000Z</time>
      </trkpt>
      <trkpt lat="44.24327" lon="6.69956">
        <ele>2127.17</ele>
        <time>2021-07-01T14:07:08.000Z</time>
      </trkpt>
      <trkpt lat="44.24333" lon="6.69942">
        <ele>2127.32</ele>
        <time>2021-07-01T14:07:18.000Z</time>
      </trkpt>
      <trkpt lat="44.24342" lon="6.6993">
        <ele>2127.82</ele>
        <time>2021-07-01T14:07:28.000Z</time>
      </trkpt>
      <trkpt lat="44.24351" lon="6.6992">
        <ele>2128.67</ele>
        <time>2021-07-01T14:07:38.000Z</time>
      </trkpt>
      <trkpt lat="44.24359" lon="6.69908">
        <ele>2129.51</ele>
        <time>2021-07-01T14:07:48.000Z</time>
      </trkpt>
      <trkpt lat="44.24367" lon="6.69896">
        <ele>2130.62</ele>
        <time>2021-07-01T14:07:58.000Z</time>
      </trkpt>
      <trkpt lat="44.24375" lon="6.69884">
        <ele>2131.65</ele>
        <time>2021-07-01T14:08:08.000Z</time>
      </trkpt>
      <trkpt lat="44.24383" lon="6.69874">
        <ele>2132.33</ele>
        <time>2021-07-01T14:08:18.000Z</time>
      </trkpt>
      <trkpt lat="44.24391" lon="6.69864">
        <ele>2132.56</ele>
        <time>2021-07-01T14:08:30.000Z</time>
      </trkpt>
      <trkpt lat="44.24401" lon="6.69858">
        <ele>2132.53</ele>
        <time>2021-07-01T14:08:40.000Z</time>
      </trkpt>
      <trkpt lat="44.24411" lon="6.69849">
        <ele>2131.85</ele>
        <time>2021-07-01T14:08:50.000Z</time>
      </trkpt>
      <trkpt lat="44.24423" lon="6.69839">
        <ele>2130.39</ele>
        <time>2021-07-01T14:09:00.000Z</time>
      </trkpt>
      <trkpt lat="44.24434" lon="6.69842">
        <ele>2130.13</ele>
        <time>2021-07-01T14:09:10.000Z</time>
      </trkpt>
      <trkpt lat="44.24446" lon="6.69842">
        <ele>2129.23</ele>
        <time>2021-07-01T14:09:20.000Z</time>
      </trkpt>
      <trkpt lat="44.24457" lon="6.69841">
        <ele>2127.98</ele>
        <time>2021-07-01T14:09:30.000Z</time>
      </trkpt>
      <trkpt lat="44.2447" lon="6.69839">
        <ele>2126.31</ele>
        <time>2021-07-01T14:09:40.000Z</time>
      </trkpt>
      <trkpt lat="44.2448" lon="6.69843">
        <ele>2125.78</ele>
        <time>2021-07-01T14:09:50.000Z</time>
      </trkpt>
      <trkpt lat="44.24491" lon="6.69849">
        <ele>2125.68</ele>
        <time>2021-07-01T14:10:00.000Z</time>
      </trkpt>
      <trkpt lat="44.24499" lon="6.69862">
        <ele>2127.02</ele>
        <time>2021-07-01T14:10:10.000Z</time>
      </trkpt>
      <trkpt lat="44.24506" lon="6.69874">
        <ele>2128.38</ele>
        <time>2021-07-01T14:10:20.000Z</time>
      </trkpt>
      <trkpt lat="44.24519" lon="6.6988">
        <ele>2128.46</ele>
        <time>2021-07-01T14:10:30.000Z</time>
      </trkpt>
      <trkpt lat="44.2453" lon="6.69877">
        <ele>2127.02</ele>
        <time>2021-07-01T14:10:40.000Z</time>
      </trkpt>
      <trkpt lat="44.2454" lon="6.6987">
        <ele>2124.71</ele>
        <time>2021-07-01T14:10:50.000Z</time>
      </trkpt>
      <trkpt lat="44.2455" lon="6.69876">
        <ele>2125.07</ele>
        <time>2021-07-01T14:11:00.000Z</time>
      </trkpt>
      <trkpt lat="44.24563" lon="6.69875">
        <ele>2123.54</ele>
        <time>2021-07-01T14:11:10.000Z</time>
      </trkpt>
      <trkpt lat="44.24575" lon="6.69868">
        <ele>2120.92</ele>
        <time>2021-07-01T14:11:20.000Z</time>
      </trkpt>
      <trkpt lat="44.24587" lon="6.69864">
        <ele>2119.03</ele>
        <time>2021-07-01T14:11:30.000Z</time>
      </trkpt>
      <trkpt lat="44.24599" lon="6.6986">
        <ele>2116.92</ele>
        <time>2021-07-01T14:11:40.000Z</time>
      </trkpt>
      <trkpt lat="44.2461" lon="6.69852">
        <ele>2114.26</ele>
        <time>2021-07-01T14:11:50.000Z</time>
      </trkpt>
      <trkpt lat="44.24624" lon="6.69848">
        <ele>2112.32</ele>
        <time>2021-07-01T14:12:00.000Z</time>
      </trkpt>
      <trkpt lat="44.24638" lon="6.69844">
        <ele>2110.23</ele>
        <time>2021-07-01T14:12:10.000Z</time>
      </trkpt>
      <trkpt lat="44.2465" lon="6.69842">
        <ele>2108.64</ele>
        <time>2021-07-01T14:12:20.000Z</time>
      </trkpt>
      <trkpt lat="44.24658" lon="6.69836">
        <ele>2106.04</ele>
        <time>2021-07-01T14:12:31.000Z</time>
      </trkpt>
      <trkpt lat="44.24666" lon="6.69828">
        <ele>2102.41</ele>
        <time>2021-07-01T14:12:41.000Z</time>
      </trkpt>
      <trkpt lat="44.24657" lon="6.69828">
        <ele>2103.66</ele>
        <time>2021-07-01T14:12:53.000Z</time>
      </trkpt>
      <trkpt lat="44.24646" lon="6.69833">
        <ele>2106.5</ele>
        <time>2021-07-01T14:13:03.000Z</time>
      </trkpt>
      <trkpt lat="44.24635" lon="6.69834">
        <ele>2107.6</ele>
        <time>2021-07-01T14:13:13.000Z</time>
      </trkpt>
      <trkpt lat="44.24622" lon="6.69829">
        <ele>2107.48</ele>
        <time>2021-07-01T14:13:23.000Z</time>
      </trkpt>
      <trkpt lat="44.2461" lon="6.69821">
        <ele>2106.41</ele>
        <time>2021-07-01T14:13:33.000Z</time>
      </trkpt>
      <trkpt lat="44.24597" lon="6.69815">
        <ele>2106.05</ele>
        <time>2021-07-01T14:13:43.000Z</time>
      </trkpt>
      <trkpt lat="44.24587" lon="6.6981">
        <ele>2106.17</ele>
        <time>2021-07-01T14:13:53.000Z</time>
      </trkpt>
      <trkpt lat="44.24577" lon="6.69808">
        <ele>2106.86</ele>
        <time>2021-07-01T14:14:03.000Z</time>
      </trkpt>
      <trkpt lat="44.24568" lon="6.69809">
        <ele>2108.37</ele>
        <time>2021-07-01T14:14:14.000Z</time>
      </trkpt>
      <trkpt lat="44.24559" lon="6.69816">
        <ele>2110.94</ele>
        <time>2021-07-01T14:14:25.000Z</time>
      </trkpt>
      <trkpt lat="44.2455" lon="6.69825">
        <ele>2114.25</ele>
        <time>2021-07-01T14:14:35.000Z</time>
      </trkpt>
      <trkpt lat="44.24541" lon="6.69821">
        <ele>2114.37</ele>
        <time>2021-07-01T14:14:54.000Z</time>
      </trkpt>
      <trkpt lat="44.24538" lon="6.69819">
        <ele>2114.57</ele>
        <time>2021-07-01T14:17:04.000Z</time>
      </trkpt>
    </trkseg>
  </trk>
</gpx>